Provisional Data: Choconut Creek near Vestal Center, NY


Please select a monitoring station.
Please select start date.
Please select start date.

Toggle Unit: C/F Toggle Unit: C/F
Sample Time Temperature (C) Temperature (F) Specific Conductivity (mS/cm) pH   Turbidity (NTU+) DO (mg/L)
4/13/2022 12:00:00 AM 9.29 48.722 0.082 6.81 5.6 10.63
4/13/2022 12:15:00 AM 9.16 48.488 0.082 6.85 5.48 10.65
4/13/2022 12:30:00 AM 9.02 48.236 0.082 6.81 5.39 10.69
4/13/2022 12:45:00 AM 8.9 48.02 0.083 6.85 5.47 10.73
4/13/2022 1:00:00 AM 8.77 47.786 0.082 6.85 5.24 10.76
4/13/2022 1:15:00 AM 8.65 47.57 0.083 6.84 5.49 10.79
4/13/2022 1:30:00 AM 8.53 47.354 0.083 6.86 5.3 10.81
4/13/2022 1:45:00 AM 8.42 47.156 0.083 6.84 5.17 10.84
4/13/2022 2:00:00 AM 8.31 46.958 0.083 6.84 5.36 10.87
4/13/2022 2:15:00 AM 8.2 46.76 0.083 6.85 5.38 10.91
4/13/2022 2:30:00 AM 8.1 46.58 0.083 6.85 5.1 10.93
4/13/2022 2:45:00 AM 8.01 46.418 0.083 6.85 4.98 10.95
4/13/2022 3:00:00 AM 7.92 46.256 0.083 6.84 5.06 10.97
4/13/2022 3:15:00 AM 7.85 46.13 0.083 6.79 5.14 11
4/13/2022 3:30:00 AM 7.77 45.986 0.083 6.84 5.18 11.02
4/13/2022 3:45:00 AM 7.7 45.86 0.083 6.85 4.81 11.04
4/13/2022 4:00:00 AM 7.62 45.716 0.083 6.85 4.85 11.07
4/13/2022 4:15:00 AM 7.56 45.608 0.083 6.85 5.09 11.09
4/13/2022 4:30:00 AM 7.51 45.518 0.083 6.85 5.13 11.11
4/13/2022 4:45:00 AM 7.46 45.428 0.083 6.85 4.99 11.13
4/13/2022 5:00:00 AM 7.41 45.338 0.083 6.85 4.98 11.15
4/13/2022 5:15:00 AM 7.37 45.266 0.083 6.85 4.89 11.16
4/13/2022 5:30:00 AM 7.33 45.194 0.083 6.85 4.94 11.17
4/13/2022 5:45:00 AM 7.29 45.122 0.083 6.83 4.84 11.18
4/13/2022 6:00:00 AM 7.26 45.068 0.083 6.82 5.33 11.19
4/13/2022 6:15:00 AM 7.23 45.014 0.083 6.82 4.91 11.2
4/13/2022 6:30:00 AM 7.2 44.96 0.083 6.82 5.02 11.21
4/13/2022 6:45:00 AM 7.18 44.924 0.083 6.82 4.85 11.22
4/13/2022 7:00:00 AM 7.16 44.888 0.084 6.85 4.74 11.23
4/13/2022 7:15:00 AM 7.14 44.852 0.083 6.85 4.72 11.25
4/13/2022 7:30:00 AM 7.12 44.816 0.084 6.85 4.81 11.26
4/13/2022 7:45:00 AM 7.12 44.816 0.084 6.86 4.8 11.27
4/13/2022 8:00:00 AM 7.12 44.816 0.083 6.86 4.6 11.29
4/13/2022 8:15:00 AM 7.12 44.816 0.083 6.86 4.7 11.3
4/13/2022 8:30:00 AM 7.14 44.852 0.084 6.87 4.55 11.32
4/13/2022 8:45:00 AM 7.18 44.924 0.084 6.87 4.56 11.34
4/13/2022 9:00:00 AM 7.3 45.14 0.084 6.87 4.54 11.35
4/13/2022 9:15:00 AM 7.41 45.338 0.084 6.88 4.66 11.37
4/13/2022 9:30:00 AM 7.53 45.554 0.084 6.89 4.8 11.37
4/13/2022 9:45:00 AM 7.67 45.806 0.084 6.89 4.35 11.36
4/13/2022 10:00:00 AM 7.83 46.094 0.084 6.9 4.5 11.35
4/13/2022 10:15:00 AM 8.02 46.436 0.084 6.87 4.44 11.34
4/13/2022 10:30:00 AM 8.24 46.832 0.084 6.91 4.4 11.32
4/13/2022 10:45:00 AM 8.5 47.3 0.083 6.89 4.39 11.29
4/13/2022 11:00:00 AM 8.77 47.786 0.084 6.92 4.2 11.27
4/13/2022 11:15:00 AM 9.05 48.29 0.084 6.92 4.42 11.22
4/13/2022 11:30:00 AM 9.25 48.65 0.083 6.94 4.32 11.2
4/13/2022 11:45:00 AM 9.39 48.902 0.083 6.94 4.18 11.17
4/13/2022 12:00:00 PM 9.52 49.136 0.084 6.92 4.24 11.13
4/13/2022 12:15:00 PM 9.67 49.406 0.083 6.94 4.33 11.1
4/13/2022 12:30:00 PM 9.87 49.766 0.084 6.96 4.46 11.07
4/13/2022 12:45:00 PM 10.05 50.09 0.083 6.96 4.26 11.03
4/13/2022 1:00:00 PM 10.37 50.666 0.083 6.97 4.6 10.99
4/13/2022 1:15:00 PM 10.64 51.152 0.084 6.97 4.37 10.94
4/13/2022 1:30:00 PM 10.89 51.602 0.083 6.97 4.24 10.9
4/13/2022 1:45:00 PM 11.16 52.088 0.083 6.98 4.38 10.84
4/13/2022 2:00:00 PM 11.41 52.538 0.083 6.98 4.46 10.8
4/13/2022 2:15:00 PM 11.63 52.934 0.083 6.98 4.47 10.75
4/13/2022 2:30:00 PM 11.74 53.132 0.083 6.99 4.54 10.69
4/13/2022 2:45:00 PM 11.81 53.258 0.083 6.99 4.35 10.64
4/13/2022 3:00:00 PM 11.91 53.438 0.083 6.99 4.36 10.6
4/13/2022 3:15:00 PM 11.98 53.564 0.083 6.99 4.3 10.56
4/13/2022 3:30:00 PM 12.08 53.744 0.083 6.99 4.43 10.51
4/13/2022 3:45:00 PM 12.23 54.014 0.083 6.99 4.32 10.47
4/13/2022 4:00:00 PM 12.34 54.212 0.083 7 4.41 10.42
4/13/2022 4:15:00 PM 12.41 54.338 0.083 6.99 4.64 10.37
4/13/2022 4:30:00 PM 12.5 54.5 0.083 7 4.21 10.33
4/13/2022 4:45:00 PM 12.58 54.644 0.082 6.96 5.01 10.31
4/13/2022 5:00:00 PM 12.68 54.824 0.083 7 4.36 10.28
4/13/2022 5:15:00 PM 12.74 54.932 0.083 7 4.49 10.25
4/13/2022 5:30:00 PM 12.79 55.022 0.08 6.96 5.31 10.22
4/13/2022 5:45:00 PM 12.83 55.094 0.083 6.99 4.43 10.18
4/13/2022 6:00:00 PM 12.85 55.13 0.081 6.96 5.19 10.15
4/13/2022 6:15:00 PM 12.87 55.166 0.083 6.98 4.37 10.11
4/13/2022 6:30:00 PM 12.88 55.184 0.083 6.99 4.57 10.09
4/13/2022 6:45:00 PM 12.87 55.166 0.082 6.95 5.17 10.05
4/13/2022 7:00:00 PM 12.85 55.13 0.083 6.97 4.53 10.03
4/13/2022 7:15:00 PM 12.81 55.058 0.084 6.96 4.62 9.99
4/13/2022 7:30:00 PM 12.77 54.986 0.08 6.91 5.24 9.97
4/13/2022 7:45:00 PM 12.72 54.896 0.083 6.94 4.54 9.95
4/13/2022 8:00:00 PM 12.67 54.806 0.084 6.93 4.45 9.92
4/13/2022 8:15:00 PM 12.61 54.698 0.084 6.92 4.62 9.92
4/13/2022 8:30:00 PM 12.55 54.59 0.084 6.91 4.45 9.9
4/13/2022 8:45:00 PM 12.48 54.464 0.084 6.91 4.64 9.9
4/13/2022 9:00:00 PM 12.41 54.338 0.082 6.87 5.41 9.9
4/13/2022 9:15:00 PM 12.33 54.194 0.084 6.9 4.69 9.9
4/13/2022 9:30:00 PM 12.25 54.05 0.084 6.89 4.62 9.91
4/13/2022 9:45:00 PM 12.16 53.888 0.084 6.86 4.7 9.91
4/13/2022 10:00:00 PM 12.07 53.726 0.084 6.89 4.88 9.93
4/13/2022 10:15:00 PM 11.97 53.546 0.084 6.88 4.69 9.93
4/13/2022 10:30:00 PM 11.88 53.384 0.084 6.88 4.94 9.93
4/13/2022 10:45:00 PM 11.79 53.222 0.084 6.88 4.74 9.95
4/13/2022 11:00:00 PM 11.71 53.078 0.084 6.87 4.99 9.96
4/13/2022 11:15:00 PM 11.63 52.934 0.084 6.87 4.61 9.97
4/13/2022 11:30:00 PM 11.55 52.79 0.084 6.87 4.85 9.99
4/13/2022 11:45:00 PM 11.47 52.646 0.084 6.87 4.95 10.01
4/14/2022 12:00:00 AM 11.4 52.52 0.085 6.87 4.78 10.02
4/14/2022 12:15:00 AM 11.32 52.376 0.085 6.87 4.73 10.03
4/14/2022 12:30:00 AM 11.24 52.232 0.085 6.87 4.78 10.04
4/14/2022 12:45:00 AM 11.16 52.088 0.085 6.87 4.85 10.05
4/14/2022 1:00:00 AM 11.08 51.944 0.083 6.84 5.59 10.07
4/14/2022 1:15:00 AM 11 51.8 0.085 6.87 4.82 10.08
4/14/2022 1:30:00 AM 10.94 51.692 0.085 6.87 4.76 10.09
4/14/2022 1:45:00 AM 10.88 51.584 0.085 6.88 4.69 10.11
4/14/2022 2:00:00 AM 10.82 51.476 0.085 6.87 4.89 10.13
4/14/2022 2:15:00 AM 10.77 51.386 0.085 6.87 4.76 10.14
4/14/2022 2:30:00 AM 10.72 51.296 0.085 6.87 4.87 10.15
4/14/2022 2:45:00 AM 10.67 51.206 0.085 6.88 4.8 10.16
4/14/2022 3:00:00 AM 10.62 51.116 0.085 6.88 4.62 10.17
4/14/2022 3:15:00 AM 10.57 51.026 0.085 6.88 4.72 10.18
4/14/2022 3:30:00 AM 10.52 50.936 0.084 6.84 5.84 10.18
4/14/2022 3:45:00 AM 10.47 50.846 0.085 6.87 4.71 10.19
4/14/2022 4:00:00 AM 10.43 50.774 0.086 6.88 4.8 10.21
4/14/2022 4:15:00 AM 10.39 50.702 0.086 6.88 4.83 10.21
4/14/2022 4:30:00 AM 10.34 50.612 0.086 6.88 4.92 10.23
4/14/2022 4:45:00 AM 10.29 50.522 0.086 6.87 4.88 10.24
4/14/2022 5:00:00 AM 10.24 50.432 0.084 6.83 5.42 10.25
4/14/2022 5:15:00 AM 10.19 50.342 0.085 6.87 4.75 10.26
4/14/2022 5:30:00 AM 10.14 50.252 0.086 6.83 4.76 10.27
4/14/2022 5:45:00 AM 10.1 50.18 0.086 6.85 4.59 10.28
4/14/2022 6:00:00 AM 10.05 50.09 0.086 6.85 4.49 10.29
4/14/2022 6:15:00 AM 10.01 50.018 0.086 6.85 4.39 10.3
4/14/2022 6:30:00 AM 9.96 49.928 0.086 6.85 4.53 10.31
4/14/2022 6:45:00 AM 9.92 49.856 0.086 6.85 4.44 10.31
4/14/2022 7:00:00 AM 9.87 49.766 0.086 6.88 4.54 10.33
4/14/2022 7:15:00 AM 9.83 49.694 0.086 6.84 4.79 10.35
4/14/2022 7:30:00 AM 9.8 49.64 0.086 6.89 4.56 10.38
4/14/2022 7:45:00 AM 9.78 49.604 0.086 6.88 4.37 10.41
4/14/2022 8:00:00 AM 9.78 49.604 0.086 6.89 4.43 10.43
4/14/2022 8:15:00 AM 9.78 49.604 0.086 6.89 4.74 10.45
4/14/2022 8:30:00 AM 9.8 49.64 0.086 6.9 4.43 10.47
4/14/2022 8:45:00 AM 9.85 49.73 0.086 6.91 4.43 10.49
4/14/2022 9:00:00 AM 9.93 49.874 0.084 6.89 5.25 10.52
4/14/2022 9:15:00 AM 10.04 50.072 0.086 6.93 4.41 10.54
4/14/2022 9:30:00 AM 10.17 50.306 0.086 6.91 4.41 10.54
4/14/2022 9:45:00 AM 10.3 50.54 0.081 6.92 5.13 10.55
4/14/2022 10:00:00 AM 10.48 50.864 0.086 6.94 4.51 10.55
4/14/2022 10:15:00 AM 10.68 51.224 0.086 6.91 4.37 10.56
4/14/2022 10:30:00 AM 10.87 51.566 0.086 6.94 4.48 10.55
4/14/2022 10:45:00 AM 11.05 51.89 0.086 6.95 4.23 10.53
4/14/2022 11:00:00 AM 11.29 52.322 0.084 6.95 5.07 10.53
4/14/2022 11:15:00 AM 11.48 52.664 0.086 6.98 4.39 10.51
4/14/2022 11:30:00 AM 11.7 53.06 0.084 6.97 5.12 10.49
4/14/2022 11:45:00 AM 11.86 53.348 0.086 6.99 4.56 10.47
4/14/2022 12:00:00 PM 11.92 53.456 0.082 6.98 5.18 10.45
4/14/2022 12:15:00 PM 11.96 53.528 0.086 7 4.43 10.42
4/14/2022 12:30:00 PM 11.95 53.51 0.084 6.97 5.04 10.4
4/14/2022 12:45:00 PM 11.92 53.456 0.085 7.01 4.14 10.37
4/14/2022 1:00:00 PM 11.97 53.546 0.085 7.01 4.38 10.35
4/14/2022 1:15:00 PM 12.02 53.636 0.085 7.01 4.38 10.34
4/14/2022 1:30:00 PM 12.07 53.726 0.085 7.01 4.48 10.31
4/14/2022 1:45:00 PM 12.12 53.816 0.085 7.01 4.47 10.29
4/14/2022 2:00:00 PM 12.16 53.888 0.085 7.02 4.38 10.27
4/14/2022 2:15:00 PM 12.15 53.87 0.085 7.02 4.86 10.24
4/14/2022 2:30:00 PM 12.15 53.87 0.084 6.99 5.66 10.25
4/14/2022 2:45:00 PM 12.16 53.888 0.086 7.02 4.63 10.25
4/14/2022 3:00:00 PM 12.17 53.906 0.085 7.02 4.47 10.24
4/14/2022 3:15:00 PM 12.16 53.888 0.082 6.98 5.24 10.23
4/14/2022 3:30:00 PM 12.16 53.888 0.085 7.02 4.58 10.22
4/14/2022 3:45:00 PM 12.14 53.852 0.085 7.01 4.58 10.19
4/14/2022 4:00:00 PM 12.14 53.852 0.082 6.97 5.43 10.19
4/14/2022 4:15:00 PM 12.14 53.852 0.085 6.97 4.65 10.19
4/14/2022 4:30:00 PM 12.13 53.834 0.086 7.01 4.49 10.19
4/14/2022 4:45:00 PM 12.15 53.87 0.084 6.99 5.28 10.2
4/14/2022 5:00:00 PM 12.16 53.888 0.086 7.02 4.36 10.2
4/14/2022 5:15:00 PM 12.15 53.87 0.084 6.99 5.33 10.2
4/14/2022 5:30:00 PM 12.12 53.816 0.085 7.01 4.35 10.2
4/14/2022 5:45:00 PM 12.09 53.762 0.085 7 4.34 10.2
4/14/2022 6:00:00 PM 12.06 53.708 0.085 7.01 4.39 10.2
4/14/2022 6:15:00 PM 12.01 53.618 0.083 6.98 5.26 10.19
4/14/2022 6:30:00 PM 11.98 53.564 0.085 6.99 4.47 10.19
4/14/2022 6:45:00 PM 11.93 53.474 0.085 7 4.58 10.18
4/14/2022 7:00:00 PM 11.89 53.402 0.082 6.97 5.29 10.18
4/14/2022 7:15:00 PM 11.83 53.294 0.085 6.99 4.5 10.17
4/14/2022 7:30:00 PM 11.76 53.168 0.085 6.99 4.6 10.17
4/14/2022 7:45:00 PM 11.67 53.006 0.085 6.93 4.64 10.16
4/14/2022 8:00:00 PM 11.58 52.844 0.085 6.95 4.87 10.16
4/14/2022 8:15:00 PM 11.47 52.646 0.085 6.96 4.85 10.16
4/14/2022 8:30:00 PM 11.35 52.43 0.085 6.94 4.63 10.16
4/14/2022 8:45:00 PM 11.25 52.25 0.085 6.96 4.86 10.16
4/14/2022 9:00:00 PM 11.13 52.034 0.085 6.95 4.92 10.17
4/14/2022 9:15:00 PM 11.02 51.836 0.085 6.94 5.04 10.19
4/14/2022 9:30:00 PM 10.91 51.638 0.085 6.9 4.83 10.21
4/14/2022 9:45:00 PM 10.8 51.44 0.085 6.94 4.95 10.22
4/14/2022 10:00:00 PM 10.69 51.242 0.085 6.94 4.98 10.24
4/14/2022 10:15:00 PM 10.58 51.044 0.085 6.88 5.08 10.25
4/14/2022 10:30:00 PM 10.46 50.828 0.085 6.92 4.93 10.27
4/14/2022 10:45:00 PM 10.34 50.612 0.085 6.92 5.11 10.29
4/14/2022 11:00:00 PM 10.23 50.414 0.085 6.92 5.05 10.31
4/14/2022 11:15:00 PM 10.11 50.198 0.085 6.91 5.35 10.34
4/14/2022 11:30:00 PM 10.01 50.018 0.085 6.9 4.97 10.36
4/14/2022 11:45:00 PM 9.89 49.802 0.085 6.91 5.03 10.38
4/15/2022 12:00:00 AM 9.78 49.604 0.085 6.91 5.14 10.4
4/15/2022 12:15:00 AM 9.67 49.406 0.085 6.91 5.21 10.43
4/15/2022 12:30:00 AM 9.56 49.208 0.085 6.9 5.06 10.46
4/15/2022 12:45:00 AM 9.44 48.992 0.085 6.9 5.36 10.49
4/15/2022 1:00:00 AM 9.34 48.812 0.085 6.91 4.88 10.51
4/15/2022 1:15:00 AM 9.23 48.614 0.085 6.91 5.31 10.53
4/15/2022 1:30:00 AM 9.12 48.416 0.086 6.85 5.08 10.56
4/15/2022 1:45:00 AM 9.01 48.218 0.086 6.9 5.1 10.59
4/15/2022 2:00:00 AM 8.9 48.02 0.086 6.87 5.01 10.62
4/15/2022 2:15:00 AM 8.79 47.822 0.086 6.9 4.88 10.65
4/15/2022 2:30:00 AM 8.69 47.642 0.086 6.9 5.01 10.67
4/15/2022 2:45:00 AM 8.58 47.444 0.086 6.9 4.85 10.7
4/15/2022 3:00:00 AM 8.48 47.264 0.086 6.9 5.03 10.73
4/15/2022 3:15:00 AM 8.37 47.066 0.086 6.86 4.69 10.75
4/15/2022 3:30:00 AM 8.27 46.886 0.086 6.9 4.72 10.79
4/15/2022 3:45:00 AM 8.17 46.706 0.086 6.9 4.83 10.82
4/15/2022 4:00:00 AM 8.07 46.526 0.086 6.9 5.04 10.85
4/15/2022 4:15:00 AM 7.97 46.346 0.086 6.91 4.75 10.87
4/15/2022 4:30:00 AM 7.88 46.184 0.086 6.9 5.29 10.89
4/15/2022 4:45:00 AM 7.79 46.022 0.086 6.9 4.57 10.92
4/15/2022 5:00:00 AM 7.7 45.86 0.086 6.91 4.61 10.95
4/15/2022 5:15:00 AM 7.61 45.698 0.086 6.91 4.45 10.98
4/15/2022 5:30:00 AM 7.52 45.536 0.086 6.9 4.57 11.01
4/15/2022 5:45:00 AM 7.44 45.392 0.086 6.91 4.57 11.04
4/15/2022 6:00:00 AM 7.35 45.23 0.086 6.9 4.61 11.06
4/15/2022 6:15:00 AM 7.27 45.086 0.086 6.91 4.62 11.08
4/15/2022 6:30:00 AM 7.19 44.942 0.086 6.9 4.28 11.11
4/15/2022 6:45:00 AM 7.12 44.816 0.087 6.91 4.63 11.14
4/15/2022 7:00:00 AM 7.06 44.708 0.086 6.91 4.3 11.17
4/15/2022 7:15:00 AM 6.99 44.582 0.087 6.91 4.48 11.21
4/15/2022 7:30:00 AM 6.94 44.492 0.087 6.92 4.53 11.25
4/15/2022 7:45:00 AM 6.89 44.402 0.087 6.92 4.63 11.29
4/15/2022 8:00:00 AM 6.86 44.348 0.087 6.93 4.57 11.33
4/15/2022 8:15:00 AM 6.84 44.312 0.086 6.94 4.44 11.36
4/15/2022 8:30:00 AM 6.84 44.312 0.087 6.93 4.41 11.39
4/15/2022 8:45:00 AM 6.86 44.348 0.087 6.94 4.24 11.42
4/15/2022 9:00:00 AM 6.92 44.456 0.087 6.95 4.22 11.44
4/15/2022 9:15:00 AM 7.01 44.618 0.086 6.95 4.27 11.46
4/15/2022 9:30:00 AM 7.12 44.816 0.086 6.96 4.31 11.47
4/15/2022 9:45:00 AM 7.25 45.05 0.086 6.96 4.31 11.48
4/15/2022 10:00:00 AM 7.39 45.302 0.086 6.97 4.4 11.49
4/15/2022 10:15:00 AM 7.56 45.608 0.086 6.97 4.08 11.49
4/15/2022 10:30:00 AM 7.75 45.95 0.086 6.98 4.06 11.47
4/15/2022 10:45:00 AM 7.95 46.31 0.086 6.95 4.01 11.46
4/15/2022 11:00:00 AM 8.18 46.724 0.086 6.98 4.09 11.45
4/15/2022 11:15:00 AM 8.42 47.156 0.086 6.99 3.92 11.42
4/15/2022 11:30:00 AM 8.67 47.606 0.086 6.99 4 11.4
4/15/2022 11:45:00 AM 8.92 48.056 0.086 7 4.11 11.36
4/15/2022 12:00:00 PM 9.19 48.542 0.086 7 3.93 11.32
4/15/2022 12:15:00 PM 9.45 49.01 0.086 7.01 4.08 11.29
4/15/2022 12:30:00 PM 9.62 49.316 0.086 7.02 4.25 11.24
4/15/2022 12:45:00 PM 9.9 49.82 0.086 7.03 4.21 11.2
4/15/2022 1:00:00 PM 10.18 50.324 0.086 7.03 4.02 11.16
4/15/2022 1:15:00 PM 10.44 50.792 0.086 7 4.28 11.11
4/15/2022 1:30:00 PM 10.69 51.242 0.086 7.04 4.13 11.07
4/15/2022 1:45:00 PM 10.93 51.674 0.086 7.05 4.38 11.01
4/15/2022 2:00:00 PM 11.1 51.98 0.086 7.05 4.25 10.96
4/15/2022 2:15:00 PM 11.09 51.962 0.086 7.06 4.4 10.9
4/15/2022 2:30:00 PM 11.14 52.052 0.086 7.06 4.27 10.87
4/15/2022 2:45:00 PM 11.23 52.214 0.086 7.06 4.34 10.85
4/15/2022 3:00:00 PM 11.36 52.448 0.083 7.04 5.32 10.81
4/15/2022 3:15:00 PM 11.51 52.718 0.086 7.07 4.36 10.77
4/15/2022 3:30:00 PM 11.74 53.132 0.086 7.08 4.21 10.72
4/15/2022 3:45:00 PM 11.9 53.42 0.083 7.04 4.91 10.66
4/15/2022 4:00:00 PM 11.98 53.564 0.086 7.08 4.33 10.63
4/15/2022 4:15:00 PM 11.98 53.564 0.086 7.08 4.28 10.59
4/15/2022 4:30:00 PM 11.95 53.51 0.086 7.08 4.36 10.55
4/15/2022 4:45:00 PM 11.94 53.492 0.086 7.08 4.13 10.51
4/15/2022 5:00:00 PM 11.93 53.474 0.086 7.08 4.12 10.47
4/15/2022 5:15:00 PM 11.97 53.546 0.086 7.08 4.16 10.44
4/15/2022 5:30:00 PM 11.98 53.564 0.084 7.05 4.96 10.38
4/15/2022 5:45:00 PM 11.98 53.564 0.084 7.04 4.99 10.35
4/15/2022 6:00:00 PM 12.04 53.672 0.086 7.06 4.12 10.33
4/15/2022 6:15:00 PM 12.06 53.708 0.086 7.07 4.02 10.31
4/15/2022 6:30:00 PM 12.08 53.744 0.084 7.04 5.24 10.29
4/15/2022 6:45:00 PM 12.07 53.726 0.086 7.07 4.17 10.26
4/15/2022 7:00:00 PM 12.01 53.618 0.086 7.04 4.25 10.23
4/15/2022 7:15:00 PM 11.95 53.51 0.086 7.05 4.14 10.19
4/15/2022 7:30:00 PM 11.88 53.384 0.086 7.03 4.1 10.16
4/15/2022 7:45:00 PM 11.8 53.24 0.086 7.03 4.11 10.14
4/15/2022 8:00:00 PM 11.7 53.06 0.086 7.02 4.02 10.13
4/15/2022 8:15:00 PM 11.59 52.862 0.086 7.01 4.12 10.12
4/15/2022 8:30:00 PM 11.51 52.718 0.086 7 4.07 10.13
4/15/2022 8:45:00 PM 11.42 52.556 0.085 6.97 5.28 10.13
4/15/2022 9:00:00 PM 11.34 52.412 0.087 6.99 4.27 10.13
4/15/2022 9:15:00 PM 11.28 52.304 0.087 6.92 4.08 10.13
4/15/2022 9:30:00 PM 11.21 52.178 0.087 6.98 4.24 10.13
4/15/2022 9:45:00 PM 11.13 52.034 0.085 6.94 5.27 10.13
4/15/2022 10:00:00 PM 11.04 51.872 0.087 6.97 4.11 10.14
4/15/2022 10:15:00 PM 10.94 51.692 0.087 6.97 4.45 10.16
4/15/2022 10:30:00 PM 10.83 51.494 0.087 6.97 4.18 10.17
4/15/2022 10:45:00 PM 10.71 51.278 0.085 6.94 5.05 10.19
4/15/2022 11:00:00 PM 10.6 51.08 0.087 6.96 4.13 10.2
4/15/2022 11:15:00 PM 10.5 50.9 0.083 6.93 4.98 10.22
4/15/2022 11:30:00 PM 10.4 50.72 0.087 6.9 4.04 10.24
4/15/2022 11:45:00 PM 10.31 50.558 0.087 6.92 4.47 10.26
4/16/2022 12:00:00 AM 10.23 50.414 0.087 6.95 4.43 10.29
4/16/2022 12:15:00 AM 10.14 50.252 0.087 6.95 4.13 10.31
4/16/2022 12:30:00 AM 10.05 50.09 0.087 6.95 4.04 10.32
4/16/2022 12:45:00 AM 9.96 49.928 0.087 6.9 4.04 10.34
4/16/2022 1:00:00 AM 9.87 49.766 0.088 6.95 4.15 10.35
4/16/2022 1:15:00 AM 9.77 49.586 0.088 6.95 4.26 10.37
4/16/2022 1:30:00 AM 9.68 49.424 0.088 6.89 4.16 10.39
4/16/2022 1:45:00 AM 9.59 49.262 0.088 6.95 4.15 10.42
4/16/2022 2:00:00 AM 9.51 49.118 0.088 6.95 4.42 10.44
4/16/2022 2:15:00 AM 9.44 48.992 0.088 6.94 4.08 10.46
4/16/2022 2:30:00 AM 9.37 48.866 0.088 6.94 4.21 10.47
4/16/2022 2:45:00 AM 9.29 48.722 0.088 6.94 4.08 10.48
4/16/2022 3:00:00 AM 9.22 48.596 0.088 6.94 4.13 10.5
4/16/2022 3:15:00 AM 9.15 48.47 0.088 6.93 4.12 10.52
4/16/2022 3:30:00 AM 9.08 48.344 0.088 6.94 3.96 10.54
4/16/2022 3:45:00 AM 9.01 48.218 0.088 6.93 3.96 10.56
4/16/2022 4:00:00 AM 8.96 48.128 0.088 6.89 3.86 10.58
4/16/2022 4:15:00 AM 8.9 48.02 0.088 6.93 3.9 10.6
4/16/2022 4:30:00 AM 8.85 47.93 0.088 6.93 3.79 10.61
4/16/2022 4:45:00 AM 8.79 47.822 0.088 6.93 3.83 10.63
4/16/2022 5:00:00 AM 8.75 47.75 0.088 6.93 4.07 10.64
4/16/2022 5:15:00 AM 8.7 47.66 0.088 6.93 3.99 10.65
4/16/2022 5:30:00 AM 8.66 47.588 0.088 6.93 3.89 10.66
4/16/2022 5:45:00 AM 8.62 47.516 0.088 6.92 4.14 10.67
4/16/2022 6:00:00 AM 8.57 47.426 0.089 6.92 3.89 10.68
4/16/2022 6:15:00 AM 8.53 47.354 0.089 6.87 3.82 10.7
4/16/2022 6:30:00 AM 8.49 47.282 0.089 6.92 3.96 10.71
4/16/2022 6:45:00 AM 8.46 47.228 0.089 6.92 3.77 10.72
4/16/2022 7:00:00 AM 8.43 47.174 0.089 6.92 3.9 10.74
4/16/2022 7:15:00 AM 8.4 47.12 0.089 6.92 3.83 10.76
4/16/2022 7:30:00 AM 8.38 47.084 0.089 6.93 3.81 10.78
4/16/2022 7:45:00 AM 8.36 47.048 0.089 6.93 3.9 10.8
4/16/2022 8:00:00 AM 8.34 47.012 0.089 6.93 3.95 10.82
4/16/2022 8:15:00 AM 8.33 46.994 0.089 6.93 3.81 10.84
4/16/2022 8:30:00 AM 8.32 46.976 0.089 6.94 3.65 10.86
4/16/2022 8:45:00 AM 8.33 46.994 0.089 6.95 3.85 10.89
4/16/2022 9:00:00 AM 8.36 47.048 0.089 6.91 3.71 10.92
4/16/2022 9:15:00 AM 8.37 47.066 0.089 6.95 3.81 10.95
4/16/2022 9:30:00 AM 8.4 47.12 0.089 6.96 3.6 10.97
4/16/2022 9:45:00 AM 8.42 47.156 0.089 6.93 3.7 10.99
4/16/2022 10:00:00 AM 8.46 47.228 0.089 6.98 3.61 11
4/16/2022 10:15:00 AM 8.61 47.498 0.089 6.99 3.48 11.03
4/16/2022 10:30:00 AM 8.71 47.678 0.089 6.99 3.57 11.05
4/16/2022 10:45:00 AM 8.77 47.786 0.087 6.98 4.64 11.05
4/16/2022 11:00:00 AM 8.83 47.894 0.087 6.98 4.54 11.05
4/16/2022 11:15:00 AM 8.89 48.002 0.089 6.97 3.56 11.05
4/16/2022 11:30:00 AM 8.91 48.038 0.089 7.02 3.51 11.05
4/16/2022 11:45:00 AM 8.89 48.002 0.089 7.02 3.49 11.05
4/16/2022 12:00:00 PM 8.86 47.948 0.089 7.02 3.58 11.05
4/16/2022 12:15:00 PM 8.84 47.912 0.089 7.02 3.6 11.05
4/16/2022 12:30:00 PM 8.83 47.894 0.089 6.98 3.54 11.04
4/16/2022 12:45:00 PM 8.81 47.858 0.089 7.02 4 11.02
4/16/2022 1:00:00 PM 8.8 47.84 0.089 7.02 4.11 11.03
4/16/2022 1:15:00 PM 8.78 47.804 0.089 7.03 4.49 11.02
4/16/2022 1:30:00 PM 8.77 47.786 0.089 7.03 4.8 11.02
4/16/2022 1:45:00 PM 8.74 47.732 0.09 7.03 4.82 11.01
4/16/2022 2:00:00 PM 8.73 47.714 0.09 7.03 5.48 11.01
4/16/2022 2:15:00 PM 8.71 47.678 0.09 7.03 6.46 11.02
4/16/2022 2:30:00 PM 8.68 47.624 0.09 7.01 5.66 11.02
4/16/2022 2:45:00 PM 8.64 47.552 0.091 7.02 11.82 11.01
4/16/2022 3:00:00 PM 8.6 47.48 0.093 7.03 16.29 11.02
4/16/2022 3:15:00 PM 8.56 47.408 0.096 7.03 35.26 11.03
4/16/2022 3:30:00 PM 8.53 47.354 0.099 7.03 23.85 11.03
4/16/2022 3:45:00 PM 8.52 47.336 0.103 7.05 26.1 11.04
4/16/2022 4:00:00 PM 8.51 47.318 0.105 7.06 20.47 11.04
4/16/2022 4:15:00 PM 8.48 47.264 0.103 7.06 17.65 11.05
4/16/2022 4:30:00 PM 8.43 47.174 0.104 7 15.74 11.06
4/16/2022 4:45:00 PM 8.36 47.048 0.105 7.05 16.77 11.07
4/16/2022 5:00:00 PM 8.27 46.886 0.108 7.06 19.85 11.09
4/16/2022 5:15:00 PM 8.21 46.778 0.109 7.05 21.89 11.11
4/16/2022 5:30:00 PM 8.17 46.706 0.108 7.06 20.51 11.12
4/16/2022 5:45:00 PM 8.15 46.67 0.106 7.05 21.62 11.13
4/16/2022 6:00:00 PM 8.14 46.652 0.104 7.04 19.39 11.14
4/16/2022 6:15:00 PM 8.12 46.616 0.102 7.04 18.51 11.15
4/16/2022 6:30:00 PM 8.09 46.562 0.1 6.98 18.56 11.15
4/16/2022 6:45:00 PM 8.07 46.526 0.098 7.03 18.06 11.15
4/16/2022 7:00:00 PM 8.04 46.472 0.096 7.02 17.69 11.15
4/16/2022 7:15:00 PM 8.02 46.436 0.095 7.02 17.17 11.15
4/16/2022 7:30:00 PM 7.99 46.382 0.093 6.96 18.38 11.15
4/16/2022 7:45:00 PM 7.96 46.328 0.091 7 18.59 11.13
4/16/2022 8:00:00 PM 7.92 46.256 0.09 7 18.73 11.13
4/16/2022 8:15:00 PM 7.88 46.184 0.088 6.99 18.13 11.12
4/16/2022 8:30:00 PM 7.83 46.094 0.087 6.96 18.04 11.12
4/16/2022 8:45:00 PM 7.79 46.022 0.086 6.95 17.06 11.12
4/16/2022 9:00:00 PM 7.76 45.968 0.085 6.94 16.09 11.12
4/16/2022 9:15:00 PM 7.73 45.914 0.085 6.93 16.53 11.13
4/16/2022 9:30:00 PM 7.69 45.842 0.085 6.94 15.18 11.13
4/16/2022 9:45:00 PM 7.66 45.788 0.085 6.93 16.02 11.13
4/16/2022 10:00:00 PM 7.62 45.716 0.085 6.94 16.07 11.13
4/16/2022 10:15:00 PM 7.59 45.662 0.085 6.93 15.12 11.14
4/16/2022 10:30:00 PM 7.56 45.608 0.085 6.93 14.69 11.14
4/16/2022 10:45:00 PM 7.52 45.536 0.085 6.92 14.13 11.15
4/16/2022 11:00:00 PM 7.47 45.446 0.085 6.93 13.86 11.16
4/16/2022 11:15:00 PM 7.43 45.374 0.085 6.93 13.31 11.17
4/16/2022 11:30:00 PM 7.37 45.266 0.085 6.91 12.8 11.18
4/16/2022 11:45:00 PM 7.32 45.176 0.085 6.91 12.59 11.18
4/17/2022 12:00:00 AM 7.27 45.086 0.085 6.9 11.97 11.19
4/17/2022 12:15:00 AM 7.21 44.978 0.085 6.9 10.82 11.19
4/17/2022 12:30:00 AM 7.16 44.888 0.085 6.91 10.51 11.21
4/17/2022 12:45:00 AM 7.11 44.798 0.085 6.9 10.31 11.22
4/17/2022 1:00:00 AM 7.04 44.672 0.085 6.87 9.74 11.24
4/17/2022 1:15:00 AM 6.99 44.582 0.085 6.9 9.35 11.25
4/17/2022 1:30:00 AM 6.92 44.456 0.085 6.85 8.99 11.27
4/17/2022 1:45:00 AM 6.85 44.33 0.085 6.87 8.59 11.29
4/17/2022 2:00:00 AM 6.79 44.222 0.085 6.87 8.32 11.31
4/17/2022 2:15:00 AM 6.73 44.114 0.085 6.89 8.33 11.32
4/17/2022 2:30:00 AM 6.68 44.024 0.085 6.84 7.91 11.34
4/17/2022 2:45:00 AM 6.62 43.916 0.085 6.87 7.6 11.34
4/17/2022 3:00:00 AM 6.55 43.79 0.085 6.88 7.41 11.36
4/17/2022 3:15:00 AM 6.47 43.646 0.085 6.88 7.7 11.39
4/17/2022 3:30:00 AM 6.4 43.52 0.085 6.87 6.55 11.4
4/17/2022 3:45:00 AM 6.33 43.394 0.085 6.87 7.04 11.42
4/17/2022 4:00:00 AM 6.27 43.286 0.085 6.88 6.51 11.44
4/17/2022 4:15:00 AM 6.23 43.214 0.085 6.88 6.37 11.46
4/17/2022 4:30:00 AM 6.18 43.124 0.085 6.88 6.3 11.47
4/17/2022 4:45:00 AM 6.12 43.016 0.085 6.87 6.18 11.49
4/17/2022 5:00:00 AM 6.07 42.926 0.085 6.88 6.08 11.51
4/17/2022 5:15:00 AM 6.02 42.836 0.085 6.83 5.86 11.53
4/17/2022 5:30:00 AM 5.97 42.746 0.085 6.88 5.76 11.54
4/17/2022 5:45:00 AM 5.92 42.656 0.085 6.88 5.66 11.55
4/17/2022 6:00:00 AM 5.88 42.584 0.085 6.88 5.58 11.57
4/17/2022 6:15:00 AM 5.84 42.512 0.085 6.89 5.37 11.58
4/17/2022 6:30:00 AM 5.8 42.44 0.085 6.83 6.04 11.6
4/17/2022 6:45:00 AM 5.75 42.35 0.085 6.89 5.39 11.62
4/17/2022 7:00:00 AM 5.7 42.26 0.085 6.9 5.37 11.65
4/17/2022 7:15:00 AM 5.67 42.206 0.085 6.89 5.21 11.68
4/17/2022 7:30:00 AM 5.63 42.134 0.085 6.85 5.18 11.72
4/17/2022 7:45:00 AM 5.6 42.08 0.085 6.88 5.18 11.76
4/17/2022 8:00:00 AM 5.59 42.062 0.085 6.91 5.04 11.78
4/17/2022 8:15:00 AM 5.57 42.026 0.085 6.92 5 11.82
4/17/2022 8:30:00 AM 5.57 42.026 0.085 6.93 4.8 11.85
4/17/2022 8:45:00 AM 5.6 42.08 0.085 6.94 4.55 11.87
4/17/2022 9:00:00 AM 5.6 42.08 0.085 6.94 4.82 11.89
4/17/2022 9:15:00 AM 5.6 42.08 0.085 6.94 4.73 11.91
4/17/2022 9:30:00 AM 5.63 42.134 0.085 6.95 4.76 11.93
4/17/2022 9:45:00 AM 5.64 42.152 0.085 6.96 4.63 11.95
4/17/2022 10:00:00 AM 5.7 42.26 0.085 6.96 4.6 11.96
4/17/2022 10:15:00 AM 5.78 42.404 0.085 6.96 4.4 11.97
4/17/2022 10:30:00 AM 5.79 42.422 0.085 6.97 4.46 11.98
4/17/2022 10:45:00 AM 5.95 42.71 0.085 6.94 4.5 11.99
4/17/2022 11:00:00 AM 5.99 42.782 0.085 6.98 4.63 11.99
4/17/2022 11:15:00 AM 6.09 42.962 0.085 6.96 4.49 12
4/17/2022 11:30:00 AM 6.23 43.214 0.085 6.98 4.29 11.99
4/17/2022 11:45:00 AM 6.31 43.358 0.085 6.98 4.48 11.99
4/17/2022 12:00:00 PM 6.47 43.646 0.085 6.99 4.32 11.97
4/17/2022 12:15:00 PM 6.61 43.898 0.085 6.99 4.24 11.95
4/17/2022 12:30:00 PM 6.71 44.078 0.085 6.99 4.28 11.94
4/17/2022 12:45:00 PM 6.77 44.186 0.085 6.99 4.26 11.92
4/17/2022 1:00:00 PM 6.94 44.492 0.085 7 4.21 11.9
4/17/2022 1:15:00 PM 6.95 44.51 0.085 7 4.19 11.89
4/17/2022 1:30:00 PM 7.19 44.942 0.085 7.01 4.3 11.86
4/17/2022 1:45:00 PM 7.36 45.248 0.085 7.01 4.02 11.83
4/17/2022 2:00:00 PM 7.39 45.302 0.085 7 4.12 11.8
4/17/2022 2:15:00 PM 7.55 45.59 0.084 7.01 4.19 11.78
4/17/2022 2:30:00 PM 7.56 45.608 0.084 7.02 4.2 11.75
4/17/2022 2:45:00 PM 7.56 45.608 0.084 7.01 4.02 11.73
4/17/2022 3:00:00 PM 7.58 45.644 0.085 6.98 3.97 11.71
4/17/2022 3:15:00 PM 7.59 45.662 0.084 7.02 4.09 11.68
4/17/2022 3:30:00 PM 7.68 45.824 0.084 7.02 3.99 11.66
4/17/2022 3:45:00 PM 7.76 45.968 0.084 7.02 4.02 11.63
4/17/2022 4:00:00 PM 7.78 46.004 0.085 6.97 3.98 11.61
4/17/2022 4:15:00 PM 7.91 46.238 0.085 7.02 3.95 11.58
4/17/2022 4:30:00 PM 7.99 46.382 0.084 7.03 3.79 11.57
4/17/2022 4:45:00 PM 7.99 46.382 0.085 7.02 3.96 11.54
4/17/2022 5:00:00 PM 8.06 46.508 0.084 7.01 3.83 11.53
4/17/2022 5:15:00 PM 8.08 46.544 0.084 7.03 3.8 11.51
4/17/2022 5:30:00 PM 8.09 46.562 0.085 7.03 3.76 11.49
4/17/2022 5:45:00 PM 8.09 46.562 0.085 7.02 3.99 11.48
4/17/2022 6:00:00 PM 8.06 46.508 0.084 7.03 3.93 11.47
4/17/2022 6:15:00 PM 8.03 46.454 0.084 7.03 3.93 11.45
4/17/2022 6:30:00 PM 8 46.4 0.084 7.03 3.83 11.43
4/17/2022 6:45:00 PM 7.98 46.364 0.085 7.02 3.78 11.42
4/17/2022 7:00:00 PM 7.94 46.292 0.085 7.02 3.75 11.4
4/17/2022 7:15:00 PM 7.89 46.202 0.084 7.01 3.91 11.38
4/17/2022 7:30:00 PM 7.84 46.112 0.085 7 3.94 11.36
4/17/2022 7:45:00 PM 7.79 46.022 0.085 7 3.82 11.34
4/17/2022 8:00:00 PM 7.73 45.914 0.084 6.99 3.89 11.32
4/17/2022 8:15:00 PM 7.66 45.788 0.085 6.92 3.81 11.32
4/17/2022 8:30:00 PM 7.59 45.662 0.085 6.97 3.85 11.31
4/17/2022 8:45:00 PM 7.51 45.518 0.085 6.97 3.9 11.31
4/17/2022 9:00:00 PM 7.43 45.374 0.085 6.96 3.98 11.32
4/17/2022 9:15:00 PM 7.34 45.212 0.085 6.95 3.97 11.32
4/17/2022 9:30:00 PM 7.25 45.05 0.085 6.95 3.93 11.32
4/17/2022 9:45:00 PM 7.15 44.87 0.085 6.95 4.11 11.33
4/17/2022 10:00:00 PM 7.05 44.69 0.085 6.94 3.92 11.35
4/17/2022 10:15:00 PM 6.94 44.492 0.085 6.94 3.88 11.37
4/17/2022 10:30:00 PM 6.85 44.33 0.085 6.94 3.93 11.4
4/17/2022 10:45:00 PM 6.75 44.15 0.085 6.93 3.95 11.41
4/17/2022 11:00:00 PM 6.65 43.97 0.085 6.89 3.8 11.43
4/17/2022 11:15:00 PM 6.55 43.79 0.085 6.93 3.83 11.45
4/17/2022 11:30:00 PM 6.45 43.61 0.085 6.92 3.85 11.47
4/17/2022 11:45:00 PM 6.34 43.412 0.086 6.92 3.96 11.51
4/18/2022 12:00:00 AM 6.24 43.232 0.086 6.92 3.86 11.54
4/18/2022 12:15:00 AM 6.13 43.034 0.086 6.92 3.92 11.57
4/18/2022 12:30:00 AM 6.03 42.854 0.086 6.92 3.73 11.59
4/18/2022 12:45:00 AM 5.93 42.674 0.086 6.91 3.8 11.61
4/18/2022 1:00:00 AM 5.82 42.476 0.086 6.91 3.75 11.64
4/18/2022 1:15:00 AM 5.72 42.296 0.086 6.89 3.82 11.67
4/18/2022 1:30:00 AM 5.61 42.098 0.086 6.91 3.77 11.71
4/18/2022 1:45:00 AM 5.51 41.918 0.086 6.91 3.78 11.75
4/18/2022 2:00:00 AM 5.42 41.756 0.086 6.91 3.63 11.78
4/18/2022 2:15:00 AM 5.32 41.576 0.086 6.91 3.73 11.79
4/18/2022 2:30:00 AM 5.23 41.414 0.086 6.9 3.66 11.82
4/18/2022 2:45:00 AM 5.14 41.252 0.087 6.91 3.62 11.85
4/18/2022 3:00:00 AM 5.05 41.09 0.086 6.9 3.58 11.88
4/18/2022 3:15:00 AM 4.97 40.946 0.086 6.9 3.64 11.92
4/18/2022 3:30:00 AM 4.89 40.802 0.086 6.9 3.49 11.94
4/18/2022 3:45:00 AM 4.8 40.64 0.087 6.9 3.58 11.97
4/18/2022 4:00:00 AM 4.73 40.514 0.087 6.9 3.8 11.99
4/18/2022 4:15:00 AM 4.65 40.37 0.087 6.9 3.55 12.01
4/18/2022 4:30:00 AM 4.58 40.244 0.087 6.9 3.62 12.03
4/18/2022 4:45:00 AM 4.5 40.1 0.087 6.9 3.45 12.05
4/18/2022 5:00:00 AM 4.43 39.974 0.087 6.9 3.41 12.09
4/18/2022 5:15:00 AM 4.36 39.848 0.087 6.9 3.38 12.11
4/18/2022 5:30:00 AM 4.29 39.722 0.087 6.9 3.44 12.14
4/18/2022 5:45:00 AM 4.22 39.596 0.087 6.76 3.34 12.16
4/18/2022 6:00:00 AM 4.16 39.488 0.087 6.79 3.33 12.18
4/18/2022 6:15:00 AM 4.09 39.362 0.087 6.82 3.3 12.2
4/18/2022 6:30:00 AM 4.03 39.254 0.087 6.83 3.41 12.22
4/18/2022 6:45:00 AM 3.97 39.146 0.087 6.83 3.45 12.25
4/18/2022 7:00:00 AM 3.92 39.056 0.087 6.84 3.38 12.28
4/18/2022 7:15:00 AM 3.87 38.966 0.087 6.85 3.48 12.31
4/18/2022 7:30:00 AM 3.84 38.912 0.087 6.86 3.29 12.35
4/18/2022 7:45:00 AM 3.81 38.858 0.087 6.88 3.32 12.39
4/18/2022 8:00:00 AM 3.8 38.84 0.087 6.89 3.26 12.42
4/18/2022 8:15:00 AM 3.8 38.84 0.087 6.91 3.25 12.44
4/18/2022 8:30:00 AM 3.83 38.894 0.087 6.92 3.23 12.47
4/18/2022 8:45:00 AM 3.87 38.966 0.087 6.93 3.28 12.49
4/18/2022 9:00:00 AM 3.95 39.11 0.087 6.95 3.31 12.51
4/18/2022 9:15:00 AM 4.06 39.308 0.087 6.95 3.18 12.52
4/18/2022 9:30:00 AM 4.19 39.542 0.087 6.95 3.38 12.52
4/18/2022 9:45:00 AM 4.33 39.794 0.087 6.95 3.33 12.52
4/18/2022 10:00:00 AM 4.5 40.1 0.087 6.96 3.31 12.51
4/18/2022 10:15:00 AM 4.66 40.388 0.087 6.97 3.25 12.5
4/18/2022 10:30:00 AM 4.86 40.748 0.087 6.98 3.16 12.48
4/18/2022 10:45:00 AM 5.06 41.108 0.087 6.98 3.17 12.45
4/18/2022 11:00:00 AM 5.27 41.486 0.087 6.95 3.08 12.42
4/18/2022 11:15:00 AM 5.48 41.864 0.087 6.99 3.15 12.4
4/18/2022 11:30:00 AM 5.68 42.224 0.086 7 3.14 12.35
4/18/2022 11:45:00 AM 5.84 42.512 0.087 7 3.07 12.32
4/18/2022 12:00:00 PM 5.96 42.728 0.087 7.01 3.19 12.29
4/18/2022 12:15:00 PM 6.07 42.926 0.087 7.01 3.21 12.26
4/18/2022 12:30:00 PM 6.16 43.088 0.087 7.02 3.02 12.24
4/18/2022 12:45:00 PM 6.24 43.232 0.087 7.02 3.06 12.21
4/18/2022 1:00:00 PM 6.31 43.358 0.087 7.02 3.13 12.18
4/18/2022 1:15:00 PM 6.41 43.538 0.086 6.99 3.16 12.15
4/18/2022 1:30:00 PM 6.52 43.736 0.086 7.03 3.15 12.11
4/18/2022 1:45:00 PM 6.6 43.88 0.087 7.03 3.28 12.09
4/18/2022 2:00:00 PM 6.68 44.024 0.086 7.04 3.23 12.06
4/18/2022 2:15:00 PM 6.74 44.132 0.086 7.04 3.16 12.03
4/18/2022 2:30:00 PM 6.78 44.204 0.086 7.04 3.14 12
4/18/2022 2:45:00 PM 6.81 44.258 0.086 7.05 3.12 11.98
4/18/2022 3:00:00 PM 6.82 44.276 0.086 7.05 3.13 11.95
4/18/2022 3:15:00 PM 6.84 44.312 0.086 7 3.23 11.93
4/18/2022 3:30:00 PM 6.87 44.366 0.086 7.05 3.14 11.9
4/18/2022 3:45:00 PM 6.91 44.438 0.086 7.05 3.16 11.87
4/18/2022 4:00:00 PM 6.95 44.51 0.086 7.05 3.17 11.84
4/18/2022 4:15:00 PM 6.99 44.582 0.086 7.05 3.16 11.81
4/18/2022 4:30:00 PM 7.02 44.636 0.086 7.06 3.26 11.78
4/18/2022 4:45:00 PM 7.04 44.672 0.086 7.03 3.28 11.76
4/18/2022 5:00:00 PM 7.03 44.654 0.086 7.05 3.29 11.73
4/18/2022 5:15:00 PM 7.01 44.618 0.086 7.05 3.32 11.71
4/18/2022 5:30:00 PM 6.97 44.546 0.086 7.05 3.39 11.69
4/18/2022 5:45:00 PM 6.94 44.492 0.086 7.04 3.38 11.67
4/18/2022 6:00:00 PM 6.91 44.438 0.086 7 3.34 11.65
4/18/2022 6:15:00 PM 6.88 44.384 0.086 7.03 3.37 11.63
4/18/2022 6:30:00 PM 6.83 44.294 0.086 7.03 3.48 11.62
4/18/2022 6:45:00 PM 6.78 44.204 0.086 7.02 3.54 11.59
4/18/2022 7:00:00 PM 6.73 44.114 0.086 7.01 3.33 11.58
4/18/2022 7:15:00 PM 6.66 43.988 0.086 7.01 3.36 11.56
4/18/2022 7:30:00 PM 6.6 43.88 0.086 7 3.47 11.55
4/18/2022 7:45:00 PM 6.53 43.754 0.086 7 3.5 11.55
4/18/2022 8:00:00 PM 6.47 43.646 0.086 6.98 3.53 11.54
4/18/2022 8:15:00 PM 6.41 43.538 0.086 6.98 3.72 11.54
4/18/2022 8:30:00 PM 6.35 43.43 0.087 6.97 3.62 11.55
4/18/2022 8:45:00 PM 6.3 43.34 0.087 6.97 3.47 11.56
4/18/2022 9:00:00 PM 6.24 43.232 0.087 6.96 3.62 11.56
4/18/2022 9:15:00 PM 6.15 43.07 0.087 6.96 3.49 11.57
4/18/2022 9:30:00 PM 6.08 42.944 0.087 6.96 3.78 11.57
4/18/2022 9:45:00 PM 5.97 42.746 0.088 6.95 3.81 11.58
4/18/2022 10:00:00 PM 5.86 42.548 0.088 6.95 4.08 11.59
4/18/2022 10:15:00 PM 5.73 42.314 0.089 6.91 4.36 11.61
4/18/2022 10:30:00 PM 5.61 42.098 0.089 6.95 4.59 11.63
4/18/2022 10:45:00 PM 5.49 41.882 0.089 6.94 4.77 11.66
4/18/2022 11:00:00 PM 5.34 41.612 0.09 6.94 5.04 11.67
4/18/2022 11:15:00 PM 5.24 41.432 0.09 6.94 5.21 11.7
4/18/2022 11:30:00 PM 5.08 41.144 0.09 6.94 4.86 11.73
4/18/2022 11:45:00 PM 4.95 40.91 0.09 6.94 4.82 11.76
4/19/2022 12:00:00 AM 4.74 40.532 0.091 6.93 4.49 11.8
4/19/2022 12:15:00 AM 4.52 40.136 0.091 6.88 4.69 11.81
4/19/2022 12:30:00 AM 4.34 39.812 0.091 6.93 4.5 11.86
4/19/2022 12:45:00 AM 3.98 39.164 0.091 6.87 4.69 11.89
4/19/2022 1:00:00 AM 3.83 38.894 0.091 6.93 4.82 11.94
4/19/2022 1:15:00 AM 3.69 38.642 0.092 6.93 5.01 12
4/19/2022 1:30:00 AM 3.6 38.48 0.092 6.93 4.88 12.06
4/19/2022 1:45:00 AM 3.55 38.39 0.092 6.93 4.77 12.09
4/19/2022 2:00:00 AM 3.33 37.994 0.092 6.91 4.75 12.14
4/19/2022 2:15:00 AM 3.08 37.544 0.091 6.9 4.88 12.19
4/19/2022 2:30:00 AM 2.8 37.04 0.091 6.91 4.81 12.27
4/19/2022 2:45:00 AM 2.58 36.644 0.091 6.8 4.86 12.33
4/19/2022 3:00:00 AM 2.32 36.176 0.091 6.81 4.78 12.41
4/19/2022 3:15:00 AM 2.09 35.762 0.091 6.84 4.95 12.49
4/19/2022 3:30:00 AM 1.9 35.42 0.091 6.84 4.78 12.56
4/19/2022 3:45:00 AM 1.74 35.132 0.091 6.86 4.89 12.63
4/19/2022 4:00:00 AM 1.59 34.862 0.091 6.86 4.86 12.69
4/19/2022 4:15:00 AM 1.42 34.556 0.091 6.86 4.98 12.75
4/19/2022 4:30:00 AM 1.19 34.142 0.09 6.86 4.92 12.82
4/19/2022 4:45:00 AM 1.02 33.836 0.089 6.86 5.03 12.88
4/19/2022 5:00:00 AM 0.91 33.638 0.088 6.87 5.01 12.94
4/19/2022 5:15:00 AM 0.83 33.494 0.088 6.78 5.26 12.99
4/19/2022 5:30:00 AM 0.8 33.44 0.088 6.86 5.21 13.03
4/19/2022 5:45:00 AM 0.77 33.386 0.087 6.85 5.12 13.08
4/19/2022 6:00:00 AM 0.75 33.35 0.087 6.84 5.29 13.11
4/19/2022 6:15:00 AM 0.71 33.278 0.087 6.78 5.33 13.14
4/19/2022 6:30:00 AM 0.69 33.242 0.087 6.84 5.24 13.17
4/19/2022 6:45:00 AM 0.68 33.224 0.087 6.84 5.25 13.19
4/19/2022 7:00:00 AM 0.68 33.224 0.087 6.85 5.3 13.22
4/19/2022 7:15:00 AM 0.67 33.206 0.087 6.85 5.2 13.23
4/19/2022 7:30:00 AM 0.7 33.26 0.087 6.87 5.38 13.24
4/19/2022 7:45:00 AM 0.74 33.332 0.087 6.88 5.23 13.26
4/19/2022 8:00:00 AM 0.82 33.476 0.087 6.88 5.05 13.27
4/19/2022 8:15:00 AM 0.9 33.62 0.088 6.83 5.31 13.29
4/19/2022 8:30:00 AM 0.96 33.728 0.089 6.9 5.34 13.29
4/19/2022 8:45:00 AM 1.02 33.836 0.091 6.91 5.29 13.3
4/19/2022 9:00:00 AM 1.08 33.944 0.092 6.91 5.16 13.3
4/19/2022 9:15:00 AM 1.13 34.034 0.092 6.91 5.2 13.3
4/19/2022 9:30:00 AM 1.23 34.214 0.092 6.92 5.46 13.29
4/19/2022 9:45:00 AM 1.35 34.43 0.093 6.88 5.5 13.29
4/19/2022 10:00:00 AM 1.48 34.664 0.094 6.93 5.64 13.28
4/19/2022 10:15:00 AM 1.61 34.898 0.095 6.94 5.92 13.27
4/19/2022 10:30:00 AM 1.77 35.186 0.099 6.94 5.99 13.24
4/19/2022 10:45:00 AM 1.89 35.402 0.101 6.94 6.4 13.21
4/19/2022 11:00:00 AM 2.01 35.618 0.102 6.95 6.55 13.19
4/19/2022 11:15:00 AM 2.07 35.726 0.102 6.95 6.04 13.17
4/19/2022 11:30:00 AM 2.13 35.834 0.102 6.95 6.16 13.14
4/19/2022 11:45:00 AM 2.24 36.032 0.103 6.95 6.15 13.12
4/19/2022 12:00:00 PM 2.37 36.266 0.104 6.96 6.2 13.09
4/19/2022 12:15:00 PM 2.52 36.536 0.105 6.96 6.06 13.06
4/19/2022 12:30:00 PM 2.64 36.752 0.105 6.95 5.77 13.03
4/19/2022 12:45:00 PM 2.77 36.986 0.106 6.97 6.13 13
4/19/2022 1:00:00 PM 2.85 37.13 0.108 6.97 6.27 12.96
4/19/2022 1:15:00 PM 2.95 37.31 0.109 6.97 6.36 12.93
4/19/2022 1:30:00 PM 3.05 37.49 0.109 6.97 6.42 12.9
4/19/2022 1:45:00 PM 3.18 37.724 0.108 6.97 6.08 12.87
4/19/2022 2:00:00 PM 3.29 37.922 0.108 6.98 6.51 12.84
4/19/2022 2:15:00 PM 3.42 38.156 0.108 6.97 6.4 12.81
4/19/2022 2:30:00 PM 3.57 38.426 0.108 6.96 6.28 12.78
4/19/2022 2:45:00 PM 3.68 38.624 0.108 6.98 6.65 12.74
4/19/2022 3:00:00 PM 3.75 38.75 0.107 6.98 6.61 12.71
4/19/2022 3:15:00 PM 3.82 38.876 0.107 6.98 6.8 12.68
4/19/2022 3:30:00 PM 3.92 39.056 0.107 6.93 7.02 12.66
4/19/2022 3:45:00 PM 4.03 39.254 0.108 6.96 7.15 12.63
4/19/2022 4:00:00 PM 4.11 39.398 0.107 6.98 7.23 12.61
4/19/2022 4:15:00 PM 4.19 39.542 0.108 6.98 7.39 12.58
4/19/2022 4:30:00 PM 4.25 39.65 0.108 6.98 7 12.56
4/19/2022 4:45:00 PM 4.3 39.74 0.108 6.98 7.42 12.52
4/19/2022 5:00:00 PM 4.33 39.794 0.108 6.96 7.88 12.5
4/19/2022 5:15:00 PM 4.36 39.848 0.108 6.98 7.56 12.48
4/19/2022 5:30:00 PM 4.37 39.866 0.108 6.99 7.9 12.46
4/19/2022 5:45:00 PM 4.37 39.866 0.108 6.98 7.79 12.44
4/19/2022 6:00:00 PM 4.38 39.884 0.108 6.98 7.68 12.43
4/19/2022 6:15:00 PM 4.38 39.884 0.108 6.98 7.65 12.41
4/19/2022 6:30:00 PM 4.37 39.866 0.108 6.98 7.88 12.39
4/19/2022 6:45:00 PM 4.34 39.812 0.108 6.96 7.92 12.37
4/19/2022 7:00:00 PM 4.31 39.758 0.108 6.98 7.88 12.36
4/19/2022 7:15:00 PM 4.27 39.686 0.108 6.98 8.04 12.35
4/19/2022 7:30:00 PM 4.23 39.614 0.107 6.97 7.9 12.35
4/19/2022 7:45:00 PM 4.19 39.542 0.107 6.96 7.82 12.34
4/19/2022 8:00:00 PM 4.14 39.452 0.107 6.95 7.6 12.33
4/19/2022 8:15:00 PM 4.09 39.362 0.107 6.95 7.69 12.33
4/19/2022 8:30:00 PM 4.05 39.29 0.107 6.95 7.79 12.32
4/19/2022 8:45:00 PM 4 39.2 0.106 6.94 7.38 12.32
4/19/2022 9:00:00 PM 3.96 39.128 0.106 6.93 7.16 12.32
4/19/2022 9:15:00 PM 3.92 39.056 0.105 6.89 7.38 12.32
4/19/2022 9:30:00 PM 3.88 38.984 0.105 6.93 7.06 12.33
4/19/2022 9:45:00 PM 3.85 38.93 0.105 6.93 7.43 12.33
4/19/2022 10:00:00 PM 3.81 38.858 0.105 6.93 6.94 12.34
4/19/2022 10:15:00 PM 3.78 38.804 0.104 6.93 7.31 12.34
4/19/2022 10:30:00 PM 3.74 38.732 0.104 6.92 7.41 12.35
4/19/2022 10:45:00 PM 3.71 38.678 0.104 6.92 7.51 12.36
4/19/2022 11:00:00 PM 3.68 38.624 0.104 6.9 7.41 12.37
4/19/2022 11:15:00 PM 3.64 38.552 0.103 6.9 7.27 12.38
4/19/2022 11:30:00 PM 3.61 38.498 0.104 6.91 7.15 12.39
4/19/2022 11:45:00 PM 3.58 38.444 0.103 6.91 7 12.4
4/20/2022 12:00:00 AM 3.55 38.39 0.103 6.91 7.17 12.41
4/20/2022 12:15:00 AM 3.53 38.354 0.103 6.91 6.96 12.42
4/20/2022 12:30:00 AM 3.5 38.3 0.103 6.9 6.99 12.43
4/20/2022 12:45:00 AM 3.48 38.264 0.103 6.9 6.7 12.43
4/20/2022 1:00:00 AM 3.47 38.246 0.103 6.9 6.35 12.44
4/20/2022 1:15:00 AM 3.45 38.21 0.102 6.9 6.48 12.45
4/20/2022 1:30:00 AM 3.43 38.174 0.102 6.89 6.38 12.46
4/20/2022 1:45:00 AM 3.42 38.156 0.102 6.9 6.07 12.46
4/20/2022 2:00:00 AM 3.4 38.12 0.102 6.9 6.11 12.47
4/20/2022 2:15:00 AM 3.39 38.102 0.102 6.9 6.4 12.47
4/20/2022 2:30:00 AM 3.38 38.084 0.101 6.84 5.84 12.48
4/20/2022 2:45:00 AM 3.37 38.066 0.101 6.9 5.85 12.48
4/20/2022 3:00:00 AM 3.36 38.048 0.101 6.9 5.86 12.49
4/20/2022 3:15:00 AM 3.35 38.03 0.101 6.89 5.56 12.49
4/20/2022 3:30:00 AM 3.35 38.03 0.101 6.89 5.35 12.5
4/20/2022 3:45:00 AM 3.34 38.012 0.101 6.89 5.4 12.5
4/20/2022 4:00:00 AM 3.34 38.012 0.101 6.88 5.07 12.51
4/20/2022 4:15:00 AM 3.32 37.976 0.101 6.89 5.28 12.51
4/20/2022 4:30:00 AM 3.3 37.94 0.101 6.89 5.11 12.52
4/20/2022 4:45:00 AM 3.28 37.904 0.1 6.82 5.17 12.52
4/20/2022 5:00:00 AM 3.27 37.886 0.1 6.88 4.79 12.53
4/20/2022 5:15:00 AM 3.26 37.868 0.1 6.89 4.87 12.53
4/20/2022 5:30:00 AM 3.25 37.85 0.1 6.88 4.83 12.54
4/20/2022 5:45:00 AM 3.25 37.85 0.1 6.88 4.92 12.54
4/20/2022 6:00:00 AM 3.25 37.85 0.1 6.88 4.57 12.55
4/20/2022 6:15:00 AM 3.24 37.832 0.1 6.88 4.68 12.56
4/20/2022 6:30:00 AM 3.23 37.814 0.1 6.88 4.63 12.56
4/20/2022 6:45:00 AM 3.22 37.796 0.099 6.89 4.46 12.58
4/20/2022 7:00:00 AM 3.21 37.778 0.1 6.88 4.59 12.59
4/20/2022 7:15:00 AM 3.2 37.76 0.099 6.88 4.34 12.61
4/20/2022 7:30:00 AM 3.22 37.796 0.099 6.89 4.37 12.63
4/20/2022 7:45:00 AM 3.22 37.796 0.099 6.9 4.49 12.65
4/20/2022 8:00:00 AM 3.24 37.832 0.099 6.9 4.26 12.67
4/20/2022 8:15:00 AM 3.26 37.868 0.099 6.9 4.4 12.69
4/20/2022 8:30:00 AM 3.3 37.94 0.099 6.91 4.39 12.71
4/20/2022 8:45:00 AM 3.36 38.048 0.099 6.92 4.28 12.73
4/20/2022 9:00:00 AM 3.42 38.156 0.098 6.92 4.52 12.74
4/20/2022 9:15:00 AM 3.52 38.336 0.098 6.92 4.22 12.75
4/20/2022 9:30:00 AM 3.6 38.48 0.098 6.92 4.61 12.75
4/20/2022 9:45:00 AM 3.75 38.75 0.098 6.93 4.49 12.74
4/20/2022 10:00:00 AM 3.88 38.984 0.098 6.93 4.54 12.73
4/20/2022 10:15:00 AM 3.98 39.164 0.098 6.94 4.81 12.73
4/20/2022 10:30:00 AM 4.1 39.38 0.099 6.93 5.04 12.72
4/20/2022 10:45:00 AM 4.26 39.668 0.099 6.94 4.88 12.7
4/20/2022 11:00:00 AM 4.47 40.046 0.099 6.89 4.91 12.67
4/20/2022 11:15:00 AM 4.67 40.406 0.099 6.93 4.73 12.64
4/20/2022 11:30:00 AM 4.95 40.91 0.1 6.95 5.38 12.61
4/20/2022 11:45:00 AM 5.23 41.414 0.1 6.94 5.49 12.56
4/20/2022 12:00:00 PM 5.55 41.99 0.101 6.97 6.12 12.51
4/20/2022 12:15:00 PM 5.91 42.638 0.101 6.97 6.22 12.44
4/20/2022 12:30:00 PM 6.21 43.178 0.103 6.96 7.2 12.37
4/20/2022 12:45:00 PM 6.48 43.664 0.104 6.98 8.32 12.3
4/20/2022 1:00:00 PM 6.72 44.096 0.105 6.99 8.35 12.25
4/20/2022 1:15:00 PM 6.98 44.564 0.107 6.99 10.67 12.19
4/20/2022 1:30:00 PM 7.22 44.996 0.108 6.99 9.93 12.12
4/20/2022 1:45:00 PM 7.44 45.392 0.11 7.01 11.62 12.07
4/20/2022 2:00:00 PM 7.66 45.788 0.111 7.01 13.87 12
4/20/2022 2:15:00 PM 7.84 46.112 0.112 7.03 14.44 11.93
4/20/2022 2:30:00 PM 7.99 46.382 0.112 7.04 15.85 11.88
4/20/2022 2:45:00 PM 8.1 46.58 0.113 7.04 17.52 11.84
4/20/2022 3:00:00 PM 8.19 46.742 0.112 7.05 23.13 11.79
4/20/2022 3:15:00 PM 8.25 46.85 0.112 6.99 25.65 11.75
4/20/2022 3:30:00 PM 8.27 46.886 0.11 7.06 30.77 11.71
4/20/2022 3:45:00 PM 8.27 46.886 0.108 7.06 35 11.69
4/20/2022 4:00:00 PM 8.25 46.85 0.106 7.05 36.39 11.67
4/20/2022 4:15:00 PM 8.24 46.832 0.104 7.05 38.33 11.64
4/20/2022 4:30:00 PM 8.22 46.796 0.101 7.04 42.37 11.61
4/20/2022 4:45:00 PM 8.18 46.724 0.099 7.03 44.69 11.59
4/20/2022 5:00:00 PM 8.13 46.634 0.096 6.98 45.4 11.58
4/20/2022 5:15:00 PM 8.06 46.508 0.093 7 43.05 11.57
4/20/2022 5:30:00 PM 7.98 46.364 0.091 6.98 49.37 11.56
4/20/2022 5:45:00 PM 7.87 46.166 0.089 6.97 47.75 11.57
4/20/2022 6:00:00 PM 7.75 45.95 0.086 6.96 52.16 11.58
4/20/2022 6:15:00 PM 7.61 45.698 0.086 6.95 54.52 11.61
4/20/2022 6:30:00 PM 7.46 45.428 0.084 6.94 50.56 11.63
4/20/2022 6:45:00 PM 7.31 45.158 0.083 6.92 48.92 11.65
4/20/2022 7:00:00 PM 7.14 44.852 0.082 6.81 48.41 11.67
4/20/2022 7:15:00 PM 6.97 44.546 0.081 6.79 44.56 11.7
4/20/2022 7:30:00 PM 6.81 44.258 0.08 6.78 45.29 11.74
4/20/2022 7:45:00 PM 6.65 43.97 0.079 6.78 43.9 11.76
4/20/2022 8:00:00 PM 6.5 43.7 0.079 6.78 40.57 11.79
4/20/2022 8:15:00 PM 6.34 43.412 0.078 6.77 39.08 11.82
4/20/2022 8:30:00 PM 6.19 43.142 0.078 6.77 35.05 11.86
4/20/2022 8:45:00 PM 6.05 42.89 0.078 6.76 33.21 11.89
4/20/2022 9:00:00 PM 5.92 42.656 0.078 6.77 34.64 11.91
4/20/2022 9:15:00 PM 5.79 42.422 0.078 6.76 25.05 11.94
4/20/2022 9:30:00 PM 5.66 42.188 0.078 6.75 28.75 11.97
4/20/2022 9:45:00 PM 5.54 41.972 0.078 6.77 26.25 12
4/20/2022 10:00:00 PM 5.43 41.774 0.078 6.78 24.95 12.03
4/20/2022 10:15:00 PM 5.32 41.576 0.078 6.79 24.78 12.05
4/20/2022 10:30:00 PM 5.22 41.396 0.078 6.79 22.33 12.07
4/20/2022 10:45:00 PM 5.13 41.234 0.078 6.8 22.22 12.1
4/20/2022 11:00:00 PM 5.05 41.09 0.078 6.8 19.85 12.12
4/20/2022 11:15:00 PM 4.97 40.946 0.079 6.81 20.45 12.15
4/20/2022 11:30:00 PM 4.89 40.802 0.079 6.82 18.94 12.17
4/20/2022 11:45:00 PM 4.82 40.676 0.079 6.79 18.15 12.18
4/21/2022 12:00:00 AM 4.75 40.55 0.079 6.77 17.04 12.2
4/21/2022 12:15:00 AM 4.69 40.442 0.079 6.81 15.52 12.21
4/21/2022 12:30:00 AM 4.62 40.316 0.079 6.81 15.68 12.23
4/21/2022 12:45:00 AM 4.56 40.208 0.08 6.81 15.45 12.25
4/21/2022 1:00:00 AM 4.51 40.118 0.08 6.8 16.15 12.26
4/21/2022 1:15:00 AM 4.45 40.01 0.08 6.8 13.78 12.27
4/21/2022 1:30:00 AM 4.41 39.938 0.08 6.8 13.51 12.29
4/21/2022 1:45:00 AM 4.37 39.866 0.08 6.8 13.25 12.31
4/21/2022 2:00:00 AM 4.34 39.812 0.08 6.8 12.45 12.32
4/21/2022 2:15:00 AM 4.31 39.758 0.08 6.79 11.97 12.33
4/21/2022 2:30:00 AM 4.29 39.722 0.08 6.79 11.99 12.34
4/21/2022 2:45:00 AM 4.26 39.668 0.08 6.78 11.2 12.35
4/21/2022 3:00:00 AM 4.24 39.632 0.081 6.8 10.93 12.35
4/21/2022 3:15:00 AM 4.21 39.578 0.081 6.79 10.82 12.36
4/21/2022 3:30:00 AM 4.19 39.542 0.081 6.79 10.88 12.37
4/21/2022 3:45:00 AM 4.18 39.524 0.081 6.79 10.09 12.37
4/21/2022 4:00:00 AM 4.17 39.506 0.081 6.75 9.94 12.38
4/21/2022 4:15:00 AM 4.16 39.488 0.081 6.8 9.95 12.38
4/21/2022 4:30:00 AM 4.14 39.452 0.081 6.79 9.27 12.38
4/21/2022 4:45:00 AM 4.13 39.434 0.081 6.8 9.34 12.38
4/21/2022 5:00:00 AM 4.13 39.434 0.081 6.75 9.19 12.38
4/21/2022 5:15:00 AM 4.13 39.434 0.081 6.81 8.81 12.38
4/21/2022 5:30:00 AM 4.13 39.434 0.081 6.8 8.74 12.38
4/21/2022 5:45:00 AM 4.13 39.434 0.082 6.81 8.55 12.37
4/21/2022 6:00:00 AM 4.13 39.434 0.082 6.81 8.19 12.37
4/21/2022 6:15:00 AM 4.13 39.434 0.082 6.81 8.07 12.37
4/21/2022 6:30:00 AM 4.13 39.434 0.082 6.81 8.16 12.37
4/21/2022 6:45:00 AM 4.14 39.452 0.081 6.81 7.94 12.37
4/21/2022 7:00:00 AM 4.15 39.47 0.082 6.81 7.58 12.37
4/21/2022 7:15:00 AM 4.16 39.488 0.082 6.82 7.47 12.39
4/21/2022 7:30:00 AM 4.18 39.524 0.082 6.79 7.26 12.4
4/21/2022 7:45:00 AM 4.21 39.578 0.082 6.8 7.17 12.41
4/21/2022 8:00:00 AM 4.26 39.668 0.082 6.82 7.09 12.42
4/21/2022 8:15:00 AM 4.32 39.776 0.082 6.84 7.13 12.43
4/21/2022 8:30:00 AM 4.39 39.902 0.082 6.84 7.03 12.43
4/21/2022 8:45:00 AM 4.48 40.064 0.082 6.85 6.75 12.43
4/21/2022 9:00:00 AM 4.56 40.208 0.082 6.86 6.76 12.43
4/21/2022 9:15:00 AM 4.65 40.37 0.082 6.86 6.62 12.43
4/21/2022 9:30:00 AM 4.73 40.514 0.082 6.87 6.75 12.42
4/21/2022 9:45:00 AM 4.8 40.64 0.082 6.87 6.54 12.42
4/21/2022 10:00:00 AM 4.88 40.784 0.083 6.87 6.6 12.41
4/21/2022 10:15:00 AM 4.95 40.91 0.083 6.88 6.33 12.39
4/21/2022 10:30:00 AM 5 41 0.083 6.9 6.49 12.37
4/21/2022 10:45:00 AM 5.05 41.09 0.083 6.88 6.16 12.36
4/21/2022 11:00:00 AM 5.14 41.252 0.083 6.83 6.32 12.35
4/21/2022 11:15:00 AM 5.25 41.45 0.083 6.89 6.22 12.33
4/21/2022 11:30:00 AM 5.38 41.684 0.084 6.89 6.37 12.32
4/21/2022 11:45:00 AM 5.5 41.9 0.084 6.91 6.25 12.3
4/21/2022 12:00:00 PM 5.64 42.152 0.084 6.9 6.24 12.27
4/21/2022 12:15:00 PM 5.77 42.386 0.085 6.85 6.52 12.24
4/21/2022 12:30:00 PM 5.88 42.584 0.085 6.92 6.91 12.21
4/21/2022 12:45:00 PM 5.99 42.782 0.086 6.92 7.18 12.17
4/21/2022 1:00:00 PM 6.09 42.962 0.086 6.93 7.87 12.14
4/21/2022 1:15:00 PM 6.17 43.106 0.086 6.94 8.64 12.11
4/21/2022 1:30:00 PM 6.25 43.25 0.087 6.93 9.56 12.08
4/21/2022 1:45:00 PM 6.31 43.358 0.086 6.94 9.64 12.03
4/21/2022 2:00:00 PM 6.35 43.43 0.086 6.95 10.78 11.99
4/21/2022 2:15:00 PM 6.4 43.52 0.085 6.96 12.9 11.95
4/21/2022 2:30:00 PM 6.45 43.61 0.084 6.96 14.24 11.93
4/21/2022 2:45:00 PM 6.48 43.664 0.083 6.97 13.5 11.9
4/21/2022 3:00:00 PM 6.52 43.736 0.081 6.94 16.84 11.88
4/21/2022 3:15:00 PM 6.57 43.826 0.079 6.96 18.51 11.86
4/21/2022 3:30:00 PM 6.6 43.88 0.077 6.91 18.85 11.84
4/21/2022 3:45:00 PM 6.6 43.88 0.076 6.95 20.66 11.84
4/21/2022 4:00:00 PM 6.58 43.844 0.074 6.96 22 11.83
4/21/2022 4:15:00 PM 6.55 43.79 0.073 6.94 21.92 11.83
4/21/2022 4:30:00 PM 6.5 43.7 0.073 6.94 23.79 11.83
4/21/2022 4:45:00 PM 6.45 43.61 0.072 6.93 25.44 11.83
4/21/2022 5:00:00 PM 6.41 43.538 0.072 6.93 24.39 11.84
4/21/2022 5:15:00 PM 6.38 43.484 0.071 6.91 27.07 11.85
4/21/2022 5:30:00 PM 6.35 43.43 0.071 6.91 27.31 11.86
4/21/2022 5:45:00 PM 6.33 43.394 0.07 6.91 28.02 11.86
4/21/2022 6:00:00 PM 6.32 43.376 0.069 6.91 29.66 11.87
4/21/2022 6:15:00 PM 6.3 43.34 0.069 6.9 28.77 11.87
4/21/2022 6:30:00 PM 6.3 43.34 0.068 6.91 29.45 11.88
4/21/2022 6:45:00 PM 6.28 43.304 0.068 6.9 28.66 11.88
4/21/2022 7:00:00 PM 6.25 43.25 0.068 6.89 28.48 11.89
4/21/2022 7:15:00 PM 6.23 43.214 0.068 6.87 29.44 11.88
4/21/2022 7:30:00 PM 6.2 43.16 0.067 6.89 28.36 11.89
4/21/2022 7:45:00 PM 6.17 43.106 0.067 6.88 29.12 11.88
4/21/2022 8:00:00 PM 6.14 43.052 0.067 6.87 27.65 11.88
4/21/2022 8:15:00 PM 6.12 43.016 0.067 6.87 26.29 11.89
4/21/2022 8:30:00 PM 6.09 42.962 0.066 6.86 25.71 11.89
4/21/2022 8:45:00 PM 6.05 42.89 0.066 6.85 23.71 11.89
4/21/2022 9:00:00 PM 6.01 42.818 0.066 6.85 24.8 11.89
4/21/2022 9:15:00 PM 5.97 42.746 0.066 6.85 23.34 11.89
4/21/2022 9:30:00 PM 5.93 42.674 0.066 6.84 21.54 11.9
4/21/2022 9:45:00 PM 5.89 42.602 0.066 6.84 21.61 11.91
4/21/2022 10:00:00 PM 5.85 42.53 0.065 6.84 19.61 11.91
4/21/2022 10:15:00 PM 5.81 42.458 0.065 6.79 21.71 11.92
4/21/2022 10:30:00 PM 5.76 42.368 0.065 6.83 20.72 11.93
4/21/2022 10:45:00 PM 5.72 42.296 0.065 6.82 18.68 11.94
4/21/2022 11:00:00 PM 5.68 42.224 0.065 6.82 19.17 11.95
4/21/2022 11:15:00 PM 5.64 42.152 0.065 6.82 13.42 11.96
4/21/2022 11:30:00 PM 5.61 42.098 0.065 6.82 17.19 11.97
4/21/2022 11:45:00 PM 5.58 42.044 0.065 6.82 14.3 11.98
4/22/2022 12:00:00 AM 5.55 41.99 0.065 6.81 17.99 11.99
4/22/2022 12:15:00 AM 5.51 41.918 0.065 6.81 16.12 12
4/22/2022 12:30:00 AM 5.48 41.864 0.065 6.81 16.51 12
4/22/2022 12:45:00 AM 5.44 41.792 0.065 6.74 16.6 12.01
4/22/2022 1:00:00 AM 5.41 41.738 0.066 6.81 92.52 12.02
4/22/2022 1:15:00 AM 5.38 41.684 0.066 6.81 15.5 12.02
4/22/2022 1:30:00 AM 5.35 41.63 0.066 6.81 15.22 12.03
4/22/2022 1:45:00 AM 5.32 41.576 0.066 6.8 15.17 12.03
4/22/2022 2:00:00 AM 5.29 41.522 0.066 6.79 14.62 12.04
4/22/2022 2:15:00 AM 5.26 41.468 0.066 6.81 14.6 12.05
4/22/2022 2:30:00 AM 5.22 41.396 0.066 6.8 14.03 12.06
4/22/2022 2:45:00 AM 5.18 41.324 0.066 6.8 13.87 12.07
4/22/2022 3:00:00 AM 5.15 41.27 0.066 6.8 13.45 12.08
4/22/2022 3:15:00 AM 5.12 41.216 0.066 6.79 13.42 12.09
4/22/2022 3:30:00 AM 5.09 41.162 0.066 6.74 12.89 12.1
4/22/2022 3:45:00 AM 5.07 41.126 0.066 6.79 12.73 12.11
4/22/2022 4:00:00 AM 5.05 41.09 0.066 6.8 12.26 12.11
4/22/2022 4:15:00 AM 5.03 41.054 0.066 6.77 12.02 12.12
4/22/2022 4:30:00 AM 5.02 41.036 0.066 6.8 12.09 12.13
4/22/2022 4:45:00 AM 5.02 41.036 0.066 6.75 11.66 12.13
4/22/2022 5:00:00 AM 5.02 41.036 0.066 6.8 11.72 12.14
4/22/2022 5:15:00 AM 5.02 41.036 0.066 6.8 11.95 12.15
4/22/2022 5:30:00 AM 5.02 41.036 0.066 6.8 11.1 12.15
4/22/2022 5:45:00 AM 5.02 41.036 0.066 6.73 10.95 12.15
4/22/2022 6:00:00 AM 5.01 41.018 0.066 6.78 11.45 12.15
4/22/2022 6:15:00 AM 5.01 41.018 0.067 6.76 11.19 12.15
4/22/2022 6:30:00 AM 5 41 0.066 6.8 10.63 12.17
4/22/2022 6:45:00 AM 4.99 40.982 0.067 6.8 10.73 12.17
4/22/2022 7:00:00 AM 4.99 40.982 0.067 6.8 10.08 12.17
4/22/2022 7:15:00 AM 4.99 40.982 0.067 6.8 10.5 12.19
4/22/2022 7:30:00 AM 4.99 40.982 0.067 6.82 9.94 12.2
4/22/2022 7:45:00 AM 5.01 41.018 0.067 6.75 9.69 12.21
4/22/2022 8:00:00 AM 5.03 41.054 0.067 6.81 10.14 12.22
4/22/2022 8:15:00 AM 5.07 41.126 0.067 6.82 9.2 12.23
4/22/2022 8:30:00 AM 5.12 41.216 0.067 6.82 9.22 12.23
4/22/2022 8:45:00 AM 5.19 41.342 0.067 6.83 9.16 12.25
4/22/2022 9:00:00 AM 5.28 41.504 0.067 6.77 9.05 12.25
4/22/2022 9:15:00 AM 5.37 41.666 0.067 6.82 8.75 12.25
4/22/2022 9:30:00 AM 5.48 41.864 0.067 6.85 8.89 12.26
4/22/2022 9:45:00 AM 5.59 42.062 0.066 6.85 8.91 12.25
4/22/2022 10:00:00 AM 5.72 42.296 0.066 6.85 8.7 12.24
4/22/2022 10:15:00 AM 5.87 42.566 0.066 6.86 8.51 12.23
4/22/2022 10:30:00 AM 6.02 42.836 0.066 6.86 8.48 12.22
4/22/2022 10:45:00 AM 6.19 43.142 0.066 6.82 8.59 12.21
4/22/2022 11:00:00 AM 6.38 43.484 0.066 6.86 8.16 12.17
4/22/2022 11:15:00 AM 6.58 43.844 0.066 6.87 8.34 12.14
4/22/2022 11:30:00 AM 6.81 44.258 0.066 6.89 8.3 12.1
4/22/2022 11:45:00 AM 7.04 44.672 0.066 6.89 7.83 12.05
4/22/2022 12:00:00 PM 7.29 45.122 0.066 6.85 8.06 12
4/22/2022 12:15:00 PM 7.55 45.59 0.066 6.88 8.25 11.95
4/22/2022 12:30:00 PM 7.8 46.04 0.066 6.89 8.01 11.89
4/22/2022 12:45:00 PM 8.06 46.508 0.066 6.9 8.34 11.83
4/22/2022 1:00:00 PM 8.32 46.976 0.066 6.9 8.18 11.77
4/22/2022 1:15:00 PM 8.57 47.426 0.066 6.84 8.16 11.7
4/22/2022 1:30:00 PM 8.82 47.876 0.066 6.9 8.36 11.65
4/22/2022 1:45:00 PM 9.05 48.29 0.066 6.9 8.42 11.58
4/22/2022 2:00:00 PM 9.28 48.704 0.066 6.92 8.34 11.52
4/22/2022 2:15:00 PM 9.49 49.082 0.065 6.92 8.38 11.47
4/22/2022 2:30:00 PM 9.69 49.442 0.065 6.87 8.26 11.4
4/22/2022 2:45:00 PM 9.87 49.766 0.065 6.91 8.31 11.34
4/22/2022 3:00:00 PM 10.05 50.09 0.065 6.92 8.43 11.29
4/22/2022 3:15:00 PM 10.2 50.36 0.065 6.92 8.44 11.25
4/22/2022 3:30:00 PM 10.33 50.594 0.065 6.92 8.58 11.19
4/22/2022 3:45:00 PM 10.43 50.774 0.065 6.92 8.55 11.14
4/22/2022 4:00:00 PM 10.52 50.936 0.065 6.92 8.51 11.1
4/22/2022 4:15:00 PM 10.58 51.044 0.065 6.91 8.91 11.07
4/22/2022 4:30:00 PM 10.61 51.098 0.065 6.93 8.51 11.04
4/22/2022 4:45:00 PM 10.63 51.134 0.065 6.89 8.85 11.02
4/22/2022 5:00:00 PM 10.61 51.098 0.065 6.93 8.94 10.99
4/22/2022 5:15:00 PM 10.58 51.044 0.065 6.91 8.86 10.97
4/22/2022 5:30:00 PM 10.53 50.954 0.065 6.89 8.85 10.96
4/22/2022 5:45:00 PM 10.46 50.828 0.065 6.91 9.1 10.95
4/22/2022 6:00:00 PM 10.38 50.684 0.065 6.91 8.59 10.95
4/22/2022 6:15:00 PM 10.29 50.522 0.065 6.92 9.11 10.95
4/22/2022 6:30:00 PM 10.17 50.306 0.065 6.91 8.76 10.96
4/22/2022 6:45:00 PM 10.05 50.09 0.065 6.89 8.63 10.97
4/22/2022 7:00:00 PM 9.93 49.874 0.065 6.89 8.79 10.96
4/22/2022 7:15:00 PM 9.81 49.658 0.065 6.88 9.01 10.97
4/22/2022 7:30:00 PM 9.68 49.424 0.065 6.89 8.38 10.98
4/22/2022 7:45:00 PM 9.54 49.172 0.065 6.87 8.74 10.99
4/22/2022 8:00:00 PM 9.4 48.92 0.065 6.87 8.5 11.01
4/22/2022 8:15:00 PM 9.26 48.668 0.065 6.84 8.58 11.01
4/22/2022 8:30:00 PM 9.11 48.398 0.065 6.84 8.76 11.03
4/22/2022 8:45:00 PM 8.96 48.128 0.065 6.86 8.81 11.05
4/22/2022 9:00:00 PM 8.82 47.876 0.065 6.85 8.47 11.07
4/22/2022 9:15:00 PM 8.67 47.606 0.065 6.83 8.28 11.1
4/22/2022 9:30:00 PM 8.52 47.336 0.065 6.82 8.71 11.12
4/22/2022 9:45:00 PM 8.38 47.084 0.065 6.82 8.56 11.15
4/22/2022 10:00:00 PM 8.24 46.832 0.065 6.82 8.74 11.18
4/22/2022 10:15:00 PM 8.11 46.598 0.065 6.82 8.49 11.21
4/22/2022 10:30:00 PM 7.98 46.364 0.065 6.81 8.73 11.24
4/22/2022 10:45:00 PM 7.86 46.148 0.065 6.81 8.37 11.26
4/22/2022 11:00:00 PM 7.74 45.932 0.066 6.81 8.16 11.29
4/22/2022 11:15:00 PM 7.62 45.716 0.066 6.8 8.09 11.32
4/22/2022 11:30:00 PM 7.51 45.518 0.066 6.8 7.98 11.36
4/22/2022 11:45:00 PM 7.4 45.32 0.066 6.81 8.2 11.38
4/23/2022 12:00:00 AM 7.3 45.14 0.066 6.79 8.28 11.4
4/23/2022 12:15:00 AM 7.2 44.96 0.066 6.8 8 11.43
4/23/2022 12:30:00 AM 7.1 44.78 0.066 6.74 7.81 11.46
4/23/2022 12:45:00 AM 7 44.6 0.066 6.8 7.64 11.49
4/23/2022 1:00:00 AM 6.9 44.42 0.066 6.8 7.58 11.52
4/23/2022 1:15:00 AM 6.81 44.258 0.066 6.79 7.69 11.54
4/23/2022 1:30:00 AM 6.73 44.114 0.066 6.78 7.79 11.57
4/23/2022 1:45:00 AM 6.65 43.97 0.066 6.8 7.61 11.58
4/23/2022 2:00:00 AM 6.57 43.826 0.066 6.8 7.36 11.6
4/23/2022 2:15:00 AM 6.5 43.7 0.066 6.78 7.4 11.63
4/23/2022 2:30:00 AM 6.43 43.574 0.066 6.73 7.41 11.65
4/23/2022 2:45:00 AM 6.36 43.448 0.066 6.79 7.47 11.67
4/23/2022 3:00:00 AM 6.3 43.34 0.066 6.79 7.16 11.69
4/23/2022 3:15:00 AM 6.24 43.232 0.067 6.76 7.05 11.71
4/23/2022 3:30:00 AM 6.19 43.142 0.066 6.78 7.07 11.73
4/23/2022 3:45:00 AM 6.15 43.07 0.066 6.78 7.03 11.75
4/23/2022 4:00:00 AM 6.11 42.998 0.066 6.79 6.97 11.76
4/23/2022 4:15:00 AM 6.07 42.926 0.067 6.79 7.04 11.78
4/23/2022 4:30:00 AM 6.03 42.854 0.067 6.76 6.75 11.78
4/23/2022 4:45:00 AM 6 42.8 0.067 6.79 6.71 11.79
4/23/2022 5:00:00 AM 5.97 42.746 0.067 6.79 6.77 11.8
4/23/2022 5:15:00 AM 5.95 42.71 0.067 6.79 6.79 11.81
4/23/2022 5:30:00 AM 5.92 42.656 0.067 6.79 6.64 11.82
4/23/2022 5:45:00 AM 5.9 42.62 0.067 6.8 6.76 11.82
4/23/2022 6:00:00 AM 5.88 42.584 0.067 6.79 6.69 11.83
4/23/2022 6:15:00 AM 5.87 42.566 0.067 6.79 6.54 11.84
4/23/2022 6:30:00 AM 5.86 42.548 0.067 6.79 6.54 11.84
4/23/2022 6:45:00 AM 5.85 42.53 0.067 6.79 6.46 11.85
4/23/2022 7:00:00 AM 5.85 42.53 0.067 6.77 6.36 11.87
4/23/2022 7:15:00 AM 5.85 42.53 0.067 6.8 6.3 11.88
4/23/2022 7:30:00 AM 5.87 42.566 0.067 6.81 6.27 11.9
4/23/2022 7:45:00 AM 5.89 42.602 0.067 6.8 6.45 11.91
4/23/2022 8:00:00 AM 5.91 42.638 0.067 6.8 6.2 11.93
4/23/2022 8:15:00 AM 5.94 42.692 0.067 6.82 6.15 11.94
4/23/2022 8:30:00 AM 5.96 42.728 0.067 6.82 6.04 11.95
4/23/2022 8:45:00 AM 5.99 42.782 0.067 6.74 6.06 11.96
4/23/2022 9:00:00 AM 6.02 42.836 0.067 6.84 6.03 11.96
4/23/2022 9:15:00 AM 6.06 42.908 0.067 6.84 6.03 11.98
4/23/2022 9:30:00 AM 6.12 43.016 0.067 6.84 6.11 11.99
4/23/2022 9:45:00 AM 6.22 43.196 0.067 6.82 5.83 12
4/23/2022 10:00:00 AM 6.33 43.394 0.067 6.86 5.82 11.98
4/23/2022 10:15:00 AM 6.47 43.646 0.067 6.86 5.9 11.97
4/23/2022 10:30:00 AM 6.64 43.952 0.067 6.87 5.87 11.97
4/23/2022 10:45:00 AM 6.83 44.294 0.067 6.87 5.79 11.96
4/23/2022 11:00:00 AM 7.05 44.69 0.067 6.88 5.76 11.93
4/23/2022 11:15:00 AM 7.21 44.978 0.067 6.89 5.68 11.9
4/23/2022 11:30:00 AM 7.35 45.23 0.067 6.9 5.77 11.87
4/23/2022 11:45:00 AM 7.49 45.482 0.066 6.89 5.8 11.85
4/23/2022 12:00:00 PM 7.72 45.896 0.066 6.91 5.6 11.8
4/23/2022 12:15:00 PM 7.97 46.346 0.066 6.9 5.61 11.76
4/23/2022 12:30:00 PM 8.2 46.76 0.066 6.88 5.71 11.72
4/23/2022 12:45:00 PM 8.44 47.192 0.066 6.93 5.62 11.68
4/23/2022 1:00:00 PM 8.68 47.624 0.066 6.92 5.57 11.63
4/23/2022 1:15:00 PM 8.95 48.11 0.066 6.92 5.53 11.57
4/23/2022 1:30:00 PM 9.18 48.524 0.066 6.91 5.64 11.5
4/23/2022 1:45:00 PM 9.39 48.902 0.066 6.93 5.6 11.46
4/23/2022 2:00:00 PM 9.51 49.118 0.066 6.94 5.68 11.4
4/23/2022 2:15:00 PM 9.6 49.28 0.066 6.93 5.54 11.35
4/23/2022 2:30:00 PM 9.74 49.532 0.066 6.94 5.66 11.29
4/23/2022 2:45:00 PM 9.88 49.784 0.066 6.94 5.59 11.24
4/23/2022 3:00:00 PM 9.99 49.982 0.066 6.91 5.88 11.2
4/23/2022 3:15:00 PM 10.07 50.126 0.066 6.94 5.79 11.16
4/23/2022 3:30:00 PM 10.11 50.198 0.067 6.95 5.68 11.12
4/23/2022 3:45:00 PM 10.17 50.306 0.067 6.94 5.9 11.08
4/23/2022 4:00:00 PM 10.24 50.432 0.067 6.94 5.84 11.04
4/23/2022 4:15:00 PM 10.31 50.558 0.067 6.94 5.63 11
4/23/2022 4:30:00 PM 10.35 50.63 0.067 6.94 5.88 10.96
4/23/2022 4:45:00 PM 10.37 50.666 0.067 6.89 5.73 10.95
4/23/2022 5:00:00 PM 10.39 50.702 0.067 6.94 5.68 10.93
4/23/2022 5:15:00 PM 10.39 50.702 0.067 6.87 5.9 10.92
4/23/2022 5:30:00 PM 10.4 50.72 0.067 6.94 6 10.91
4/23/2022 5:45:00 PM 10.39 50.702 0.067 6.94 5.7 10.92
4/23/2022 6:00:00 PM 10.34 50.612 0.067 6.92 5.82 10.92
4/23/2022 6:15:00 PM 10.26 50.468 0.067 6.92 5.9 10.92
4/23/2022 6:30:00 PM 10.2 50.36 0.067 6.92 5.99 10.9
4/23/2022 6:45:00 PM 10.15 50.27 0.067 6.87 6.31 10.9
4/23/2022 7:00:00 PM 10.09 50.162 0.067 6.86 6.22 10.89
4/23/2022 7:15:00 PM 10.04 50.072 0.067 6.9 6.11 10.88
4/23/2022 7:30:00 PM 9.99 49.982 0.067 6.89 6.08 10.87
4/23/2022 7:45:00 PM 9.93 49.874 0.067 6.89 5.92 10.85
4/23/2022 8:00:00 PM 9.86 49.748 0.068 6.87 6.1 10.84
4/23/2022 8:15:00 PM 9.78 49.604 0.068 6.87 6.11 10.83
4/23/2022 8:30:00 PM 9.71 49.478 0.068 6.86 6.98 10.82
4/23/2022 8:45:00 PM 9.64 49.352 0.068 6.85 6.26 10.82
4/23/2022 9:00:00 PM 9.57 49.226 0.068 6.82 6.36 10.82
4/23/2022 9:15:00 PM 9.51 49.118 0.068 6.84 6.17 10.82
4/23/2022 9:30:00 PM 9.45 49.01 0.068 6.85 6.04 10.82
4/23/2022 9:45:00 PM 9.39 48.902 0.068 6.77 6.26 10.82
4/23/2022 10:00:00 PM 9.32 48.776 0.068 6.83 6.19 10.82
4/23/2022 10:15:00 PM 9.24 48.632 0.069 6.83 6.29 10.82
4/23/2022 10:30:00 PM 9.16 48.488 0.069 6.83 6.29 10.83
4/23/2022 10:45:00 PM 9.09 48.362 0.069 6.82 6.31 10.84
4/23/2022 11:00:00 PM 9.01 48.218 0.069 6.82 6.32 10.85
4/23/2022 11:15:00 PM 8.94 48.092 0.069 6.83 6.25 10.87
4/23/2022 11:30:00 PM 8.87 47.966 0.069 6.81 5.92 10.88
4/23/2022 11:45:00 PM 8.79 47.822 0.069 6.79 6.18 10.9
4/24/2022 12:00:00 AM 8.71 47.678 0.069 6.81 6.07 10.91
4/24/2022 12:15:00 AM 8.63 47.534 0.069 6.82 6.09 10.93
4/24/2022 12:30:00 AM 8.56 47.408 0.07 6.82 6.12 10.94
4/24/2022 12:45:00 AM 8.48 47.264 0.069 6.81 6.29 10.96
4/24/2022 1:00:00 AM 8.41 47.138 0.07 6.81 6.21 10.97
4/24/2022 1:15:00 AM 8.33 46.994 0.07 6.81 6.15 10.99
4/24/2022 1:30:00 AM 8.26 46.868 0.07 6.81 6.12 11.01
4/24/2022 1:45:00 AM 8.19 46.742 0.07 6.81 5.97 11.03
4/24/2022 2:00:00 AM 8.12 46.616 0.07 6.81 6.16 11.05
4/24/2022 2:15:00 AM 8.05 46.49 0.07 6.82 6.01 11.06
4/24/2022 2:30:00 AM 7.99 46.382 0.07 6.79 5.96 11.07
4/24/2022 2:45:00 AM 7.92 46.256 0.07 6.8 5.9 11.08
4/24/2022 3:00:00 AM 7.86 46.148 0.07 6.82 5.79 11.1
4/24/2022 3:15:00 AM 7.8 46.04 0.07 6.82 5.53 11.12
4/24/2022 3:30:00 AM 7.74 45.932 0.07 6.81 5.76 11.13
4/24/2022 3:45:00 AM 7.68 45.824 0.07 6.8 5.61 11.14
4/24/2022 4:00:00 AM 7.63 45.734 0.07 6.8 5.67 11.16
4/24/2022 4:15:00 AM 7.57 45.626 0.07 6.8 5.79 11.18
4/24/2022 4:30:00 AM 7.52 45.536 0.07 6.82 5.51 11.2
4/24/2022 4:45:00 AM 7.47 45.446 0.07 6.81 5.58 11.21
4/24/2022 5:00:00 AM 7.42 45.356 0.07 6.81 5.65 11.23
4/24/2022 5:15:00 AM 7.37 45.266 0.071 6.8 5.52 11.24
4/24/2022 5:30:00 AM 7.33 45.194 0.07 6.78 5.6 11.24
4/24/2022 5:45:00 AM 7.29 45.122 0.071 6.81 5.67 11.26
4/24/2022 6:00:00 AM 7.24 45.032 0.07 6.8 5.57 11.27
4/24/2022 6:15:00 AM 7.2 44.96 0.071 6.8 5.55 11.28
4/24/2022 6:30:00 AM 7.16 44.888 0.071 6.8 5.5 11.3
4/24/2022 6:45:00 AM 7.13 44.834 0.071 6.8 5.64 11.32
4/24/2022 7:00:00 AM 7.1 44.78 0.071 6.78 5.89 11.35
4/24/2022 7:15:00 AM 7.1 44.78 0.071 6.81 5.59 11.38
4/24/2022 7:30:00 AM 7.12 44.816 0.071 6.81 5.61 11.41
4/24/2022 7:45:00 AM 7.13 44.834 0.071 6.82 5.29 11.43
4/24/2022 8:00:00 AM 7.15 44.87 0.071 6.83 5.35 11.45
4/24/2022 8:15:00 AM 7.19 44.942 0.071 6.83 5.26 11.47
4/24/2022 8:30:00 AM 7.24 45.032 0.071 6.84 5.08 11.5
4/24/2022 8:45:00 AM 7.3 45.14 0.071 6.83 5.03 11.51
4/24/2022 9:00:00 AM 7.39 45.302 0.071 6.86 5.2 11.53
4/24/2022 9:15:00 AM 7.5 45.5 0.071 6.87 5.02 11.54
4/24/2022 9:30:00 AM 7.59 45.662 0.071 6.88 4.99 11.54
4/24/2022 9:45:00 AM 7.71 45.878 0.071 6.89 4.94 11.54
4/24/2022 10:00:00 AM 7.8 46.04 0.071 6.9 4.98 11.53
4/24/2022 10:15:00 AM 7.96 46.328 0.071 6.89 4.84 11.53
4/24/2022 10:30:00 AM 8.08 46.544 0.071 6.91 5.12 11.52
4/24/2022 10:45:00 AM 8.23 46.814 0.071 6.92 4.98 11.51
4/24/2022 11:00:00 AM 8.43 47.174 0.071 6.91 5.03 11.48
4/24/2022 11:15:00 AM 8.69 47.642 0.071 6.92 4.86 11.46
4/24/2022 11:30:00 AM 8.96 48.128 0.071 6.93 5.16 11.43
4/24/2022 11:45:00 AM 9.23 48.614 0.071 6.88 4.98 11.38
4/24/2022 12:00:00 PM 9.52 49.136 0.071 6.94 5.01 11.35
4/24/2022 12:15:00 PM 9.81 49.658 0.071 6.93 5.01 11.3
4/24/2022 12:30:00 PM 10.11 50.198 0.071 6.93 4.93 11.26
4/24/2022 12:45:00 PM 10.42 50.756 0.071 6.94 4.85 11.19
4/24/2022 1:00:00 PM 10.73 51.314 0.071 6.91 4.96 11.13
4/24/2022 1:15:00 PM 11.04 51.872 0.071 6.95 4.82 11.07
4/24/2022 1:30:00 PM 11.34 52.412 0.071 6.93 4.91 11
4/24/2022 1:45:00 PM 11.64 52.952 0.071 6.94 4.81 10.93
4/24/2022 2:00:00 PM 11.94 53.492 0.071 6.92 4.93 10.85
4/24/2022 2:15:00 PM 12.23 54.014 0.071 6.95 5.03 10.79
4/24/2022 2:30:00 PM 12.5 54.5 0.071 6.96 5.25 10.71
4/24/2022 2:45:00 PM 12.76 54.968 0.071 6.96 5.32 10.66
4/24/2022 3:00:00 PM 12.99 55.382 0.071 6.96 5.24 10.59
4/24/2022 3:15:00 PM 13.21 55.778 0.071 6.96 5.19 10.51
4/24/2022 3:30:00 PM 13.4 56.12 0.071 6.96 5.1 10.46
4/24/2022 3:45:00 PM 13.59 56.462 0.071 6.97 5.31 10.4
4/24/2022 4:00:00 PM 13.76 56.768 0.071 6.98 5.2 10.33
4/24/2022 4:15:00 PM 13.91 57.038 0.071 6.98 5.05 10.27
4/24/2022 4:30:00 PM 14.01 57.218 0.069 6.96 6.2 10.23
4/24/2022 4:45:00 PM 14.09 57.362 0.071 6.98 5.17 10.19
4/24/2022 5:00:00 PM 14.16 57.488 0.071 6.99 5.15 10.14
4/24/2022 5:15:00 PM 14.23 57.614 0.071 6.98 5.1 10.1
4/24/2022 5:30:00 PM 14.28 57.704 0.071 6.98 5.18 10.07
4/24/2022 5:45:00 PM 14.3 57.74 0.071 6.98 5.23 10.04
4/24/2022 6:00:00 PM 14.29 57.722 0.071 6.99 5.24 10.01
4/24/2022 6:15:00 PM 14.26 57.668 0.071 6.99 5.24 9.98
4/24/2022 6:30:00 PM 14.22 57.596 0.07 6.96 5.9 9.96
4/24/2022 6:45:00 PM 14.15 57.47 0.071 6.98 5.15 9.93
4/24/2022 7:00:00 PM 14.07 57.326 0.071 6.97 5.22 9.91
4/24/2022 7:15:00 PM 13.98 57.164 0.07 6.94 6.26 9.89
4/24/2022 7:30:00 PM 13.89 57.002 0.072 6.96 5.27 9.86
4/24/2022 7:45:00 PM 13.8 56.84 0.072 6.94 5.3 9.84
4/24/2022 8:00:00 PM 13.7 56.66 0.072 6.94 5.38 9.83
4/24/2022 8:15:00 PM 13.59 56.462 0.072 6.93 5.26 9.83
4/24/2022 8:30:00 PM 13.48 56.264 0.072 6.92 5.28 9.83
4/24/2022 8:45:00 PM 13.35 56.03 0.072 6.91 5.55 9.83
4/24/2022 9:00:00 PM 13.23 55.814 0.072 6.91 5.51 9.82
4/24/2022 9:15:00 PM 13.1 55.58 0.072 6.91 5.48 9.83
4/24/2022 9:30:00 PM 12.97 55.346 0.072 6.89 5.52 9.84
4/24/2022 9:45:00 PM 12.84 55.112 0.072 6.89 5.56 9.85
4/24/2022 10:00:00 PM 12.72 54.896 0.073 6.89 5.46 9.87
4/24/2022 10:15:00 PM 12.61 54.698 0.073 6.89 5.55 9.89
4/24/2022 10:30:00 PM 12.49 54.482 0.073 6.89 5.45 9.9
4/24/2022 10:45:00 PM 12.37 54.266 0.073 6.89 5.63 9.92
4/24/2022 11:00:00 PM 12.25 54.05 0.073 6.88 5.62 9.94
4/24/2022 11:15:00 PM 12.13 53.834 0.073 6.89 5.69 9.97
4/24/2022 11:30:00 PM 12.02 53.636 0.073 6.88 5.57 9.99
4/24/2022 11:45:00 PM 11.9 53.42 0.073 6.88 5.57 10
4/25/2022 12:00:00 AM 11.79 53.222 0.073 6.88 5.53 10.02
4/25/2022 12:15:00 AM 11.68 53.024 0.073 6.88 5.48 10.05
4/25/2022 12:30:00 AM 11.56 52.808 0.073 6.88 5.48 10.07
4/25/2022 12:45:00 AM 11.46 52.628 0.074 6.88 5.48 10.09
4/25/2022 1:00:00 AM 11.36 52.448 0.074 6.88 5.35 10.12
4/25/2022 1:15:00 AM 11.26 52.268 0.074 6.87 5.5 10.13
4/25/2022 1:30:00 AM 11.16 52.088 0.074 6.87 5.59 10.15
4/25/2022 1:45:00 AM 11.07 51.926 0.074 6.87 5.53 10.17
4/25/2022 2:00:00 AM 10.98 51.764 0.074 6.88 5.47 10.2
4/25/2022 2:15:00 AM 10.88 51.584 0.074 6.87 5.54 10.22
4/25/2022 2:30:00 AM 10.8 51.44 0.074 6.87 5.39 10.25
4/25/2022 2:45:00 AM 10.71 51.278 0.074 6.87 5.42 10.27
4/25/2022 3:00:00 AM 10.62 51.116 0.074 6.87 5.37 10.28
4/25/2022 3:15:00 AM 10.54 50.972 0.074 6.87 5.41 10.29
4/25/2022 3:30:00 AM 10.46 50.828 0.074 6.87 5.35 10.32
4/25/2022 3:45:00 AM 10.37 50.666 0.075 6.87 5.48 10.33
4/25/2022 4:00:00 AM 10.3 50.54 0.075 6.86 5.31 10.35
4/25/2022 4:15:00 AM 10.22 50.396 0.075 6.87 5.28 10.37
4/25/2022 4:30:00 AM 10.15 50.27 0.075 6.87 5.26 10.4
4/25/2022 4:45:00 AM 10.07 50.126 0.075 6.86 5.42 10.41
4/25/2022 5:00:00 AM 10 50 0.075 6.87 5.32 10.43
4/25/2022 5:15:00 AM 9.93 49.874 0.075 6.87 5.31 10.44
4/25/2022 5:30:00 AM 9.86 49.748 0.075 6.87 5.44 10.46
4/25/2022 5:45:00 AM 9.79 49.622 0.075 6.88 5.35 10.48
4/25/2022 6:00:00 AM 9.72 49.496 0.075 6.87 5.31 10.5
4/25/2022 6:15:00 AM 9.66 49.388 0.075 6.87 5.35 10.52
4/25/2022 6:30:00 AM 9.6 49.28 0.075 6.87 5.24 10.55
4/25/2022 6:45:00 AM 9.55 49.19 0.075 6.87 5.13 10.58
4/25/2022 7:00:00 AM 9.5 49.1 0.075 6.88 5.19 10.62
4/25/2022 7:15:00 AM 9.46 49.028 0.075 6.88 5.11 10.67
4/25/2022 7:30:00 AM 9.43 48.974 0.075 6.89 5.13 10.7
4/25/2022 7:45:00 AM 9.41 48.938 0.075 6.9 5.11 10.74
4/25/2022 8:00:00 AM 9.39 48.902 0.075 6.88 5.14 10.77
4/25/2022 8:15:00 AM 9.39 48.902 0.075 6.91 5.01 10.81
4/25/2022 8:30:00 AM 9.41 48.938 0.075 6.91 5.15 10.84
4/25/2022 8:45:00 AM 9.45 49.01 0.075 6.9 5.01 10.87
4/25/2022 9:00:00 AM 9.51 49.118 0.075 6.93 4.92 10.9
4/25/2022 9:15:00 AM 9.59 49.262 0.075 6.93 4.96 10.92
4/25/2022 9:30:00 AM 9.68 49.424 0.075 6.95 4.97 10.94
4/25/2022 9:45:00 AM 9.79 49.622 0.075 6.95 4.9 10.95
4/25/2022 10:00:00 AM 9.91 49.838 0.075 6.96 4.81 10.96
4/25/2022 10:15:00 AM 10.04 50.072 0.075 6.96 4.75 10.97
4/25/2022 10:30:00 AM 10.18 50.324 0.075 6.97 4.77 10.97
4/25/2022 10:45:00 AM 10.36 50.648 0.075 6.97 4.78 10.96
4/25/2022 11:00:00 AM 10.55 50.99 0.075 6.98 4.7 10.94
4/25/2022 11:15:00 AM 10.77 51.386 0.075 6.97 4.64 10.94
4/25/2022 11:30:00 AM 11.01 51.818 0.075 6.99 4.69 10.91
4/25/2022 11:45:00 AM 11.24 52.232 0.075 6.99 4.62 10.88
4/25/2022 12:00:00 PM 11.48 52.664 0.075 6.99 4.73 10.86
4/25/2022 12:15:00 PM 11.72 53.096 0.075 7 4.66 10.82
4/25/2022 12:30:00 PM 11.96 53.528 0.075 7.01 4.56 10.79
4/25/2022 12:45:00 PM 12.21 53.978 0.075 7.01 4.61 10.75
4/25/2022 1:00:00 PM 12.45 54.41 0.075 7.02 4.75 10.71
4/25/2022 1:15:00 PM 12.69 54.842 0.075 7.02 4.61 10.67
4/25/2022 1:30:00 PM 12.94 55.292 0.075 7.01 4.75 10.62
4/25/2022 1:45:00 PM 13.19 55.742 0.075 7.02 4.69 10.56
4/25/2022 2:00:00 PM 13.43 56.174 0.075 7.03 4.7 10.52
4/25/2022 2:15:00 PM 13.66 56.588 0.075 7.01 4.7 10.46
4/25/2022 2:30:00 PM 13.87 56.966 0.075 7.04 4.71 10.4
4/25/2022 2:45:00 PM 14.07 57.326 0.075 7.04 4.61 10.36
4/25/2022 3:00:00 PM 14.27 57.686 0.075 7.04 4.59 10.31
4/25/2022 3:15:00 PM 14.46 58.028 0.075 7.04 4.71 10.25
4/25/2022 3:30:00 PM 14.63 58.334 0.075 7.04 4.69 10.2
4/25/2022 3:45:00 PM 14.77 58.586 0.075 6.98 4.7 10.16
4/25/2022 4:00:00 PM 14.89 58.802 0.075 7.05 4.66 10.11
4/25/2022 4:15:00 PM 15 59 0.075 7.05 4.75 10.06
4/25/2022 4:30:00 PM 15.09 59.162 0.075 7.06 4.66 10.01
4/25/2022 4:45:00 PM 15.16 59.288 0.075 7.06 4.72 9.97
4/25/2022 5:00:00 PM 15.2 59.36 0.075 7.01 4.76 9.93
4/25/2022 5:15:00 PM 15.23 59.414 0.075 7.06 4.77 9.89
4/25/2022 5:30:00 PM 15.24 59.432 0.075 7.05 4.78 9.86
4/25/2022 5:45:00 PM 15.23 59.414 0.075 7.03 4.71 9.83
4/25/2022 6:00:00 PM 15.2 59.36 0.073 7.04 5.6 9.8
4/25/2022 6:15:00 PM 15.15 59.27 0.075 7.04 4.81 9.78
4/25/2022 6:30:00 PM 15.09 59.162 0.075 7.05 4.76 9.76
4/25/2022 6:45:00 PM 15 59 0.075 7.03 4.77 9.73
4/25/2022 7:00:00 PM 14.89 58.802 0.075 7.02 4.77 9.71
4/25/2022 7:15:00 PM 14.78 58.604 0.075 7.01 4.95 9.69
4/25/2022 7:30:00 PM 14.65 58.37 0.075 7.02 4.74 9.67
4/25/2022 7:45:00 PM 14.53 58.154 0.075 6.95 4.74 9.65
4/25/2022 8:00:00 PM 14.39 57.902 0.076 6.96 4.81 9.64
4/25/2022 8:15:00 PM 14.26 57.668 0.076 6.98 4.93 9.63
4/25/2022 8:30:00 PM 14.11 57.398 0.076 6.97 4.75 9.63
4/25/2022 8:45:00 PM 13.96 57.128 0.076 6.97 4.95 9.62
4/25/2022 9:00:00 PM 13.82 56.876 0.076 6.95 4.95 9.63
4/25/2022 9:15:00 PM 13.67 56.606 0.076 6.95 4.97 9.64
4/25/2022 9:30:00 PM 13.51 56.318 0.076 6.94 4.95 9.66
4/25/2022 9:45:00 PM 13.36 56.048 0.076 6.94 5.05 9.67
4/25/2022 10:00:00 PM 13.21 55.778 0.076 6.93 5.01 9.68
4/25/2022 10:15:00 PM 13.08 55.544 0.076 6.93 5.04 9.7
4/25/2022 10:30:00 PM 12.94 55.292 0.076 6.93 4.93 9.72
4/25/2022 10:45:00 PM 12.82 55.076 0.076 6.93 4.92 9.74
4/25/2022 11:00:00 PM 12.7 54.86 0.076 6.91 5.04 9.76
4/25/2022 11:15:00 PM 12.59 54.662 0.077 6.92 5.07 9.78
4/25/2022 11:30:00 PM 12.48 54.464 0.077 6.91 4.92 9.8
4/25/2022 11:45:00 PM 12.36 54.248 0.077 6.91 5.01 9.83
4/26/2022 12:00:00 AM 12.24 54.032 0.077 6.91 5.03 9.85
4/26/2022 12:15:00 AM 12.13 53.834 0.077 6.91 4.9 9.88
4/26/2022 12:30:00 AM 12.03 53.654 0.077 6.9 4.92 9.9
4/26/2022 12:45:00 AM 11.92 53.456 0.077 6.9 4.87 9.92
4/26/2022 1:00:00 AM 11.83 53.294 0.077 6.91 4.91 9.94
4/26/2022 1:15:00 AM 11.73 53.114 0.077 6.91 4.79 9.96
4/26/2022 1:30:00 AM 11.65 52.97 0.077 6.89 4.92 9.98
4/26/2022 1:45:00 AM 11.56 52.808 0.077 6.91 4.89 10.01
4/26/2022 2:00:00 AM 11.48 52.664 0.078 6.89 5.11 10.03
4/26/2022 2:15:00 AM 11.41 52.538 0.078 6.9 4.92 10.05
4/26/2022 2:30:00 AM 11.34 52.412 0.078 6.89 4.88 10.06
4/26/2022 2:45:00 AM 11.27 52.286 0.078 6.9 4.89 10.07
4/26/2022 3:00:00 AM 11.2 52.16 0.078 6.9 4.7 10.09
4/26/2022 3:15:00 AM 11.14 52.052 0.078 6.88 4.76 10.1
4/26/2022 3:30:00 AM 11.09 51.962 0.078 6.89 4.77 10.12
4/26/2022 3:45:00 AM 11.03 51.854 0.078 6.89 4.83 10.13
4/26/2022 4:00:00 AM 10.98 51.764 0.078 6.89 4.98 10.14
4/26/2022 4:15:00 AM 10.93 51.674 0.078 6.9 4.92 10.16
4/26/2022 4:30:00 AM 10.88 51.584 0.078 6.89 4.84 10.17
4/26/2022 4:45:00 AM 10.84 51.512 0.078 6.9 4.72 10.19
4/26/2022 5:00:00 AM 10.8 51.44 0.078 6.9 4.62 10.19
4/26/2022 5:15:00 AM 10.76 51.368 0.078 6.9 4.61 10.2
4/26/2022 5:30:00 AM 10.72 51.296 0.078 6.9 4.65 10.21
4/26/2022 5:45:00 AM 10.69 51.242 0.078 6.9 4.72 10.22
4/26/2022 6:00:00 AM 10.66 51.188 0.078 6.88 4.88 10.23
4/26/2022 6:15:00 AM 10.63 51.134 0.078 6.9 4.87 10.23
4/26/2022 6:30:00 AM 10.6 51.08 0.078 6.89 4.78 10.24
4/26/2022 6:45:00 AM 10.57 51.026 0.078 6.84 4.68 10.25
4/26/2022 7:00:00 AM 10.55 50.99 0.078 6.88 4.63 10.27
4/26/2022 7:15:00 AM 10.52 50.936 0.078 6.9 4.56 10.28
4/26/2022 7:30:00 AM 10.5 50.9 0.078 6.9 4.53 10.3
4/26/2022 7:45:00 AM 10.49 50.882 0.078 6.9 4.48 10.32
4/26/2022 8:00:00 AM 10.47 50.846 0.078 6.92 4.53 10.35
4/26/2022 8:15:00 AM 10.46 50.828 0.078 6.92 4.62 10.37
4/26/2022 8:30:00 AM 10.45 50.81 0.078 6.92 4.47 10.4
4/26/2022 8:45:00 AM 10.46 50.828 0.078 6.91 4.53 10.43
4/26/2022 9:00:00 AM 10.47 50.846 0.078 6.94 4.42 10.47
4/26/2022 9:15:00 AM 10.47 50.846 0.078 6.94 4.47 10.5
4/26/2022 9:30:00 AM 10.47 50.846 0.078 6.95 4.42 10.51
4/26/2022 9:45:00 AM 10.48 50.864 0.078 6.95 4.28 10.53
4/26/2022 10:00:00 AM 10.49 50.882 0.078 6.95 4.32 10.55
4/26/2022 10:15:00 AM 10.52 50.936 0.078 6.97 4.33 10.58
4/26/2022 10:30:00 AM 10.53 50.954 0.078 6.96 4.31 10.59
4/26/2022 10:45:00 AM 10.55 50.99 0.078 6.97 4.27 10.6
4/26/2022 11:00:00 AM 10.59 51.062 0.078 6.98 4.28 10.63
4/26/2022 11:15:00 AM 10.62 51.116 0.078 6.98 4.27 10.65
4/26/2022 11:30:00 AM 10.65 51.17 0.078 6.99 4.2 10.66
4/26/2022 11:45:00 AM 10.66 51.188 0.078 6.99 4.1 10.66
4/26/2022 12:00:00 PM 10.67 51.206 0.078 6.99 4.21 10.67
4/26/2022 12:15:00 PM 10.69 51.242 0.078 7 4.13 10.67
4/26/2022 12:30:00 PM 10.71 51.278 0.078 7 4.15 10.68
4/26/2022 12:45:00 PM 10.74 51.332 0.078 6.99 4.23 10.68
4/26/2022 1:00:00 PM 10.77 51.386 0.078 7.01 4.27 10.68
4/26/2022 1:15:00 PM 10.85 51.53 0.078 7.01 4.15 10.7
4/26/2022 1:30:00 PM 10.87 51.566 0.078 7 4.13 10.7
4/26/2022 1:45:00 PM 10.94 51.692 0.078 7 4.24 10.7
4/26/2022 2:00:00 PM 10.97 51.746 0.078 7.03 4.19 10.7
4/26/2022 2:15:00 PM 10.98 51.764 0.078 7.02 4.28 10.69
4/26/2022 2:30:00 PM 11 51.8 0.078 7.02 4.22 10.68
4/26/2022 2:45:00 PM 11 51.8 0.078 7 4.16 10.66
4/26/2022 3:00:00 PM 10.99 51.782 0.078 7.02 4.3 10.64
4/26/2022 3:15:00 PM 10.99 51.782 0.078 7.01 4.27 10.61
4/26/2022 3:30:00 PM 10.99 51.782 0.078 6.98 4.15 10.59
4/26/2022 3:45:00 PM 11 51.8 0.078 7.01 4.28 10.59
4/26/2022 4:00:00 PM 11.02 51.836 0.077 7.01 4.21 10.58
4/26/2022 4:15:00 PM 11.03 51.854 0.077 7 4.26 10.56
4/26/2022 4:30:00 PM 11.03 51.854 0.077 7 4.3 10.54
4/26/2022 4:45:00 PM 11.02 51.836 0.078 6.99 4.22 10.52
4/26/2022 5:00:00 PM 11.02 51.836 0.077 6.99 4.19 10.51
4/26/2022 5:15:00 PM 11.02 51.836 0.078 6.99 4.15 10.51
4/26/2022 5:30:00 PM 11.03 51.854 0.077 7 4.47 10.51
4/26/2022 5:45:00 PM 11.02 51.836 0.077 7 4.32 10.5
4/26/2022 6:00:00 PM 11.02 51.836 0.077 6.98 4.25 10.49
4/26/2022 6:15:00 PM 11.01 51.818 0.078 6.99 4.17 10.46
4/26/2022 6:30:00 PM 10.99 51.782 0.078 6.99 4.22 10.43
4/26/2022 6:45:00 PM 10.97 51.746 0.078 6.97 4.78 10.4
4/26/2022 7:00:00 PM 10.93 51.674 0.078 6.96 4.51 10.39
4/26/2022 7:15:00 PM 10.9 51.62 0.078 6.96 4.47 10.38
4/26/2022 7:30:00 PM 10.87 51.566 0.078 6.97 5.14 10.37
4/26/2022 7:45:00 PM 10.83 51.494 0.078 6.96 5.16 10.36
4/26/2022 8:00:00 PM 10.79 51.422 0.078 6.95 4.96 10.35
4/26/2022 8:15:00 PM 10.75 51.35 0.078 6.92 5.12 10.34
4/26/2022 8:30:00 PM 10.7 51.26 0.078 6.91 4.98 10.33
4/26/2022 8:45:00 PM 10.64 51.152 0.079 6.94 5.02 10.33
4/26/2022 9:00:00 PM 10.58 51.044 0.079 6.94 5.57 10.32
4/26/2022 9:15:00 PM 10.52 50.936 0.079 6.94 6.73 10.33
4/26/2022 9:30:00 PM 10.46 50.828 0.079 6.93 7.35 10.33
4/26/2022 9:45:00 PM 10.4 50.72 0.079 6.92 7.4 10.35
4/26/2022 10:00:00 PM 10.34 50.612 0.08 6.93 7.26 10.36
4/26/2022 10:15:00 PM 10.28 50.504 0.08 6.93 6.52 10.37
4/26/2022 10:30:00 PM 10.22 50.396 0.08 6.92 6.27 10.38
4/26/2022 10:45:00 PM 10.17 50.306 0.08 6.92 6.21 10.39
4/26/2022 11:00:00 PM 10.12 50.216 0.08 6.92 6.22 10.4
4/26/2022 11:15:00 PM 10.06 50.108 0.079 6.92 6.41 10.41
4/26/2022 11:30:00 PM 10.01 50.018 0.079 6.93 6.61 10.42
4/26/2022 11:45:00 PM 9.95 49.91 0.079 6.92 6.82 10.43
4/27/2022 12:00:00 AM 9.89 49.802 0.079 6.92 6.63 10.44
4/27/2022 12:15:00 AM 9.84 49.712 0.079 6.91 6.73 10.46
4/27/2022 12:30:00 AM 9.79 49.622 0.079 6.9 6.84 10.47
4/27/2022 12:45:00 AM 9.73 49.514 0.079 6.84 6.72 10.48
4/27/2022 1:00:00 AM 9.66 49.388 0.078 6.89 6.64 10.49
4/27/2022 1:15:00 AM 9.6 49.28 0.078 6.91 6.5 10.51
4/27/2022 1:30:00 AM 9.54 49.172 0.078 6.91 6.64 10.53
4/27/2022 1:45:00 AM 9.46 49.028 0.078 6.89 6.53 10.55
4/27/2022 2:00:00 AM 9.37 48.866 0.078 6.9 6.39 10.56
4/27/2022 2:15:00 AM 9.29 48.722 0.078 6.88 6.56 10.57
4/27/2022 2:30:00 AM 9.21 48.578 0.078 6.91 6.45 10.58
4/27/2022 2:45:00 AM 9.13 48.434 0.078 6.9 6.56 10.6
4/27/2022 3:00:00 AM 9.05 48.29 0.078 6.91 6.52 10.62
4/27/2022 3:15:00 AM 8.96 48.128 0.078 6.9 6.44 10.64
4/27/2022 3:30:00 AM 8.88 47.984 0.078 6.88 6.38 10.66
4/27/2022 3:45:00 AM 8.79 47.822 0.078 6.9 6.46 10.68
4/27/2022 4:00:00 AM 8.71 47.678 0.078 6.9 6.27 10.69
4/27/2022 4:15:00 AM 8.63 47.534 0.078 6.91 6.27 10.71
4/27/2022 4:30:00 AM 8.56 47.408 0.078 6.9 6.2 10.73
4/27/2022 4:45:00 AM 8.5 47.3 0.078 6.89 6.06 10.74
4/27/2022 5:00:00 AM 8.42 47.156 0.078 6.89 5.87 10.76
4/27/2022 5:15:00 AM 8.34 47.012 0.078 6.86 5.97 10.78
4/27/2022 5:30:00 AM 8.27 46.886 0.078 6.9 6.1 10.8
4/27/2022 5:45:00 AM 8.19 46.742 0.078 6.9 5.77 10.83
4/27/2022 6:00:00 AM 8.13 46.634 0.078 6.9 5.58 10.85
4/27/2022 6:15:00 AM 8.06 46.508 0.078 6.9 5.55 10.87
4/27/2022 6:30:00 AM 7.99 46.382 0.078 6.87 5.44 10.9
4/27/2022 6:45:00 AM 7.92 46.256 0.078 6.9 5.35 10.93
4/27/2022 7:00:00 AM 7.86 46.148 0.078 6.91 5.22 10.97
4/27/2022 7:15:00 AM 7.83 46.094 0.078 6.92 5.3 11.02
4/27/2022 7:30:00 AM 7.78 46.004 0.078 6.92 5.08 11.06
4/27/2022 7:45:00 AM 7.74 45.932 0.078 6.92 5.06 11.1
4/27/2022 8:00:00 AM 7.7 45.86 0.078 6.93 5.05 11.13
4/27/2022 8:15:00 AM 7.68 45.824 0.078 6.95 4.92 11.17
4/27/2022 8:30:00 AM 7.68 45.824 0.078 6.94 4.97 11.2
4/27/2022 8:45:00 AM 7.68 45.824 0.078 6.95 4.84 11.24
4/27/2022 9:00:00 AM 7.7 45.86 0.078 6.97 4.67 11.28
4/27/2022 9:15:00 AM 7.75 45.95 0.078 6.97 4.63 11.32
4/27/2022 9:30:00 AM 7.77 45.986 0.078 6.97 4.58 11.34
4/27/2022 9:45:00 AM 7.75 45.95 0.078 6.97 4.56 11.36
4/27/2022 10:00:00 AM 7.77 45.986 0.078 6.95 4.58 11.39
4/27/2022 10:15:00 AM 7.76 45.968 0.078 7 4.55 11.41
4/27/2022 10:30:00 AM 7.79 46.022 0.078 6.99 4.5 11.43
4/27/2022 10:45:00 AM 7.82 46.076 0.078 7 4.49 11.44
4/27/2022 11:00:00 AM 7.94 46.292 0.078 7.02 4.44 11.45
4/27/2022 11:15:00 AM 7.96 46.328 0.078 7.01 4.33 11.46
4/27/2022 11:30:00 AM 8.01 46.418 0.078 7.02 4.43 11.47
4/27/2022 11:45:00 AM 7.98 46.364 0.078 7.02 4.37 11.46
4/27/2022 12:00:00 PM 7.99 46.382 0.078 6.97 4.32 11.47
4/27/2022 12:15:00 PM 8.03 46.454 0.078 7.02 4.39 11.48
4/27/2022 12:30:00 PM 8.15 46.67 0.078 7.04 4.5 11.47
4/27/2022 12:45:00 PM 8.17 46.706 0.078 7.04 4.26 11.47
4/27/2022 1:00:00 PM 8.18 46.724 0.078 7.05 4.32 11.47
4/27/2022 1:15:00 PM 8.13 46.634 0.078 7.04 4.2 11.47
4/27/2022 1:30:00 PM 8.08 46.544 0.078 7.04 4.23 11.46
4/27/2022 1:45:00 PM 8.17 46.706 0.078 7.05 4.18 11.47
4/27/2022 2:00:00 PM 8.33 46.994 0.078 7.05 4.24 11.46
4/27/2022 2:15:00 PM 8.39 47.102 0.078 7.05 4.18 11.44
4/27/2022 2:30:00 PM 8.42 47.156 0.078 7.05 4.17 11.42
4/27/2022 2:45:00 PM 8.4 47.12 0.078 7.04 4.19 11.42
4/27/2022 3:00:00 PM 8.4 47.12 0.078 7.05 4.27 11.42
4/27/2022 3:15:00 PM 8.42 47.156 0.078 7.06 4.08 11.42
4/27/2022 3:30:00 PM 8.4 47.12 0.078 7.06 4.1 11.41
4/27/2022 3:45:00 PM 8.44 47.192 0.078 7.04 4.12 11.38
4/27/2022 4:00:00 PM 8.44 47.192 0.078 7.06 4.15 11.36
4/27/2022 4:15:00 PM 8.42 47.156 0.078 7.05 4.11 11.35
4/27/2022 4:30:00 PM 8.41 47.138 0.078 7.05 4.13 11.34
4/27/2022 4:45:00 PM 8.42 47.156 0.078 7.05 4.1 11.33
4/27/2022 5:00:00 PM 8.43 47.174 0.078 7.05 4.09 11.32
4/27/2022 5:15:00 PM 8.4 47.12 0.078 7.05 4.11 11.32
4/27/2022 5:30:00 PM 8.35 47.03 0.078 7.05 4.08 11.3
4/27/2022 5:45:00 PM 8.31 46.958 0.078 7.04 4.07 11.3
4/27/2022 6:00:00 PM 8.24 46.832 0.078 7.03 4.12 11.28
4/27/2022 6:15:00 PM 8.2 46.76 0.078 7.03 4.19 11.27
4/27/2022 6:30:00 PM 8.14 46.652 0.078 7.03 4.07 11.26
4/27/2022 6:45:00 PM 8.09 46.562 0.078 7.02 4.1 11.24
4/27/2022 7:00:00 PM 8.03 46.454 0.078 7.01 4.13 11.22
4/27/2022 7:15:00 PM 7.98 46.364 0.078 7.01 4.15 11.2
4/27/2022 7:30:00 PM 7.91 46.238 0.078 7 4.14 11.19
4/27/2022 7:45:00 PM 7.84 46.112 0.078 6.99 4.1 11.19
4/27/2022 8:00:00 PM 7.77 45.986 0.078 6.96 4.15 11.17
4/27/2022 8:15:00 PM 7.7 45.86 0.078 6.98 4.48 11.17
4/27/2022 8:30:00 PM 7.63 45.734 0.078 6.97 4.71 11.17
4/27/2022 8:45:00 PM 7.57 45.626 0.078 6.97 4.21 11.17
4/27/2022 9:00:00 PM 7.51 45.518 0.078 6.96 4.16 11.18
4/27/2022 9:15:00 PM 7.44 45.392 0.078 6.96 4.2 11.18
4/27/2022 9:30:00 PM 7.38 45.284 0.078 6.96 4.18 11.18
4/27/2022 9:45:00 PM 7.32 45.176 0.079 6.95 4.35 11.18
4/27/2022 10:00:00 PM 7.26 45.068 0.079 6.95 4.24 11.19
4/27/2022 10:15:00 PM 7.19 44.942 0.079 6.95 4.21 11.2
4/27/2022 10:30:00 PM 7.13 44.834 0.079 6.94 4.22 11.22
4/27/2022 10:45:00 PM 7.05 44.69 0.079 6.94 4.24 11.23
4/27/2022 11:00:00 PM 6.98 44.564 0.079 6.94 4.25 11.25
4/27/2022 11:15:00 PM 6.9 44.42 0.079 6.94 4.18 11.27
4/27/2022 11:30:00 PM 6.82 44.276 0.079 6.93 4.26 11.28
4/27/2022 11:45:00 PM 6.75 44.15 0.079 6.9 4.23 11.3
4/28/2022 12:00:00 AM 6.67 44.006 0.079 6.94 4.22 11.31
4/28/2022 12:15:00 AM 6.61 43.898 0.079 6.93 4.22 11.33
4/28/2022 12:30:00 AM 6.53 43.754 0.079 6.93 4.14 11.34
4/28/2022 12:45:00 AM 6.47 43.646 0.079 6.93 4.28 11.37
4/28/2022 1:00:00 AM 6.39 43.502 0.079 6.93 4.21 11.39
4/28/2022 1:15:00 AM 6.32 43.376 0.079 6.9 4.15 11.41
4/28/2022 1:30:00 AM 6.25 43.25 0.08 6.89 4.19 11.43
4/28/2022 1:45:00 AM 6.19 43.142 0.08 6.92 4.17 11.45
4/28/2022 2:00:00 AM 6.13 43.034 0.08 6.93 4.09 11.47
4/28/2022 2:15:00 AM 6.07 42.926 0.08 6.92 4.1 11.48
4/28/2022 2:30:00 AM 6 42.8 0.08 6.93 4.08 11.5
4/28/2022 2:45:00 AM 5.95 42.71 0.08 6.92 4.01 11.52
4/28/2022 3:00:00 AM 5.89 42.602 0.08 6.93 4.13 11.53
4/28/2022 3:15:00 AM 5.85 42.53 0.08 6.92 3.98 11.55
4/28/2022 3:30:00 AM 5.79 42.422 0.08 6.92 3.99 11.57
4/28/2022 3:45:00 AM 5.74 42.332 0.08 6.92 3.97 11.58
4/28/2022 4:00:00 AM 5.69 42.242 0.08 6.92 3.99 11.6
4/28/2022 4:15:00 AM 5.64 42.152 0.08 6.93 4.01 11.62
4/28/2022 4:30:00 AM 5.61 42.098 0.08 6.93 3.96 11.63
4/28/2022 4:45:00 AM 5.57 42.026 0.08 6.93 3.93 11.64
4/28/2022 5:00:00 AM 5.53 41.954 0.08 6.86 3.88 11.66
4/28/2022 5:15:00 AM 5.48 41.864 0.08 6.93 3.97 11.67
4/28/2022 5:30:00 AM 5.44 41.792 0.081 6.92 4.06 11.68
4/28/2022 5:45:00 AM 5.41 41.738 0.08 6.92 3.96 11.7
4/28/2022 6:00:00 AM 5.37 41.666 0.081 6.92 3.96 11.71
4/28/2022 6:15:00 AM 5.33 41.594 0.081 6.92 3.97 11.72
4/28/2022 6:30:00 AM 5.3 41.54 0.081 6.92 3.92 11.73
4/28/2022 6:45:00 AM 5.27 41.486 0.081 6.93 3.96 11.76
4/28/2022 7:00:00 AM 5.24 41.432 0.081 6.93 3.92 11.79
4/28/2022 7:15:00 AM 5.2 41.36 0.081 6.94 3.94 11.84
4/28/2022 7:30:00 AM 5.18 41.324 0.081 6.94 3.99 11.87
4/28/2022 7:45:00 AM 5.16 41.288 0.08 6.95 3.92 11.91
4/28/2022 8:00:00 AM 5.14 41.252 0.081 6.96 3.91 11.95
4/28/2022 8:15:00 AM 5.14 41.252 0.081 6.96 3.76 11.98
4/28/2022 8:30:00 AM 5.16 41.288 0.081 6.97 3.83 12.01
4/28/2022 8:45:00 AM 5.2 41.36 0.081 6.98 3.73 12.03
4/28/2022 9:00:00 AM 5.27 41.486 0.081 6.98 3.72 12.05
4/28/2022 9:15:00 AM 5.36 41.648 0.081 6.99 3.67 12.07
4/28/2022 9:30:00 AM 5.45 41.81 0.081 6.99 3.65 12.08
4/28/2022 9:45:00 AM 5.57 42.026 0.081 7 3.65 12.1
4/28/2022 10:00:00 AM 5.72 42.296 0.081 7 3.64 12.09
4/28/2022 10:15:00 AM 5.91 42.638 0.081 6.96 3.72 12.08
4/28/2022 10:30:00 AM 6.09 42.962 0.08 7.01 3.8 12.08
4/28/2022 10:45:00 AM 6.31 43.358 0.08 7.02 3.67 12.05
4/28/2022 11:00:00 AM 6.52 43.736 0.08 6.99 3.73 12.03
4/28/2022 11:15:00 AM 6.77 44.186 0.08 7.01 3.7 12.01
4/28/2022 11:30:00 AM 7 44.6 0.08 7 3.72 11.97
4/28/2022 11:45:00 AM 7.26 45.068 0.08 7.01 3.68 11.93
4/28/2022 12:00:00 PM 7.53 45.554 0.08 7.04 3.66 11.9
4/28/2022 12:15:00 PM 7.79 46.022 0.08 7.05 3.64 11.85
4/28/2022 12:30:00 PM 8.05 46.49 0.08 7.05 3.67 11.81
4/28/2022 12:45:00 PM 8.28 46.904 0.08 7.06 3.7 11.77
4/28/2022 1:00:00 PM 8.52 47.336 0.08 7.07 3.73 11.71
4/28/2022 1:15:00 PM 8.76 47.768 0.08 7.06 3.73 11.66
4/28/2022 1:30:00 PM 9 48.2 0.08 7.07 3.66 11.61
4/28/2022 1:45:00 PM 9.23 48.614 0.08 7.08 3.73 11.55
4/28/2022 2:00:00 PM 9.44 48.992 0.08 7.08 3.74 11.5
4/28/2022 2:15:00 PM 9.62 49.316 0.08 7.09 3.74 11.46
4/28/2022 2:30:00 PM 9.8 49.64 0.08 7.09 3.69 11.4
4/28/2022 2:45:00 PM 9.93 49.874 0.08 7.09 3.74 11.35
4/28/2022 3:00:00 PM 10.08 50.144 0.08 7.04 3.78 11.3
4/28/2022 3:15:00 PM 10.19 50.342 0.08 7.09 3.71 11.27
4/28/2022 3:30:00 PM 10.28 50.504 0.08 7.1 3.73 11.23
4/28/2022 3:45:00 PM 10.39 50.702 0.08 7.1 3.7 11.18
4/28/2022 4:00:00 PM 10.44 50.792 0.08 7.11 3.82 11.14
4/28/2022 4:15:00 PM 10.51 50.918 0.08 7.11 3.8 11.09
4/28/2022 4:30:00 PM 10.54 50.972 0.08 7.11 3.75 11.05
4/28/2022 4:45:00 PM 10.55 50.99 0.08 7.11 3.79 11.01
4/28/2022 5:00:00 PM 10.55 50.99 0.08 7.11 3.71 10.98
4/28/2022 5:15:00 PM 10.54 50.972 0.08 7.11 3.75 10.95
4/28/2022 5:30:00 PM 10.52 50.936 0.08 7.11 3.69 10.92
4/28/2022 5:45:00 PM 10.46 50.828 0.08 7.11 3.7 10.9
4/28/2022 6:00:00 PM 10.42 50.756 0.08 7.11 3.71 10.88
4/28/2022 6:15:00 PM 10.34 50.612 0.08 7.1 3.78 10.85
4/28/2022 6:30:00 PM 10.27 50.486 0.08 7.1 3.8 10.83
4/28/2022 6:45:00 PM 10.19 50.342 0.08 7.1 3.85 10.81
4/28/2022 7:00:00 PM 10.07 50.126 0.08 7.09 3.9 10.8
4/28/2022 7:15:00 PM 9.96 49.928 0.08 7.09 3.93 10.78
4/28/2022 7:30:00 PM 9.87 49.766 0.08 7.08 3.69 10.77
4/28/2022 7:45:00 PM 9.77 49.586 0.08 7.07 3.84 10.76
4/28/2022 8:00:00 PM 9.66 49.388 0.08 7.05 3.89 10.74
4/28/2022 8:15:00 PM 9.56 49.208 0.08 7.04 3.92 10.71
4/28/2022 8:30:00 PM 9.46 49.028 0.08 7.04 4 10.71
4/28/2022 8:45:00 PM 9.35 48.83 0.08 7.03 4.07 10.71
4/28/2022 9:00:00 PM 9.22 48.596 0.08 6.94 3.99 10.72
4/28/2022 9:15:00 PM 9.1 48.38 0.08 7.01 4.12 10.73
4/28/2022 9:30:00 PM 8.98 48.164 0.08 7.01 3.92 10.75
4/28/2022 9:45:00 PM 8.84 47.912 0.081 7 3.96 10.76
4/28/2022 10:00:00 PM 8.71 47.678 0.081 7 3.99 10.78
4/28/2022 10:15:00 PM 8.57 47.426 0.081 6.99 3.99 10.81
4/28/2022 10:30:00 PM 8.42 47.156 0.081 6.99 4.11 10.84
4/28/2022 10:45:00 PM 8.28 46.904 0.081 6.9 4.01 10.86
4/28/2022 11:00:00 PM 8.13 46.634 0.081 6.93 4.09 10.88
4/28/2022 11:15:00 PM 7.99 46.382 0.081 6.93 4.07 10.92
4/28/2022 11:30:00 PM 7.85 46.13 0.081 6.93 3.99 10.94
4/28/2022 11:45:00 PM 7.72 45.896 0.081 6.93 4.04 10.97
4/29/2022 12:00:00 AM 7.59 45.662 0.081 6.95 4.08 11
4/29/2022 12:15:00 AM 7.47 45.446 0.081 6.95 4.18 11.04
4/29/2022 12:30:00 AM 7.34 45.212 0.082 6.95 4.26 11.07
4/29/2022 12:45:00 AM 7.22 44.996 0.082 6.95 4.37 11.1
4/29/2022 1:00:00 AM 7.09 44.762 0.082 6.94 4.09 11.13
4/29/2022 1:15:00 AM 6.97 44.546 0.082 6.94 4.24 11.16
4/29/2022 1:30:00 AM 6.85 44.33 0.082 6.91 4.16 11.2
4/29/2022 1:45:00 AM 6.73 44.114 0.082 6.94 4.08 11.24
4/29/2022 2:00:00 AM 6.61 43.898 0.082 6.91 4.09 11.28
4/29/2022 2:15:00 AM 6.49 43.682 0.082 6.93 4.1 11.31
4/29/2022 2:30:00 AM 6.37 43.466 0.082 6.93 4.14 11.34
4/29/2022 2:45:00 AM 6.25 43.25 0.082 6.93 4.13 11.38
4/29/2022 3:00:00 AM 6.14 43.052 0.082 6.92 4.15 11.42
4/29/2022 3:15:00 AM 6.03 42.854 0.082 6.91 4.09 11.46
4/29/2022 3:30:00 AM 5.92 42.656 0.082 6.92 4.19 11.49
4/29/2022 3:45:00 AM 5.82 42.476 0.082 6.92 4.22 11.52
4/29/2022 4:00:00 AM 5.72 42.296 0.082 6.92 4.08 11.55
4/29/2022 4:15:00 AM 5.62 42.116 0.083 6.92 4.18 11.57
4/29/2022 4:30:00 AM 5.52 41.936 0.083 6.9 4.11 11.61
4/29/2022 4:45:00 AM 5.43 41.774 0.083 6.92 4.09 11.65
4/29/2022 5:00:00 AM 5.34 41.612 0.083 6.92 4.04 11.68
4/29/2022 5:15:00 AM 5.25 41.45 0.083 6.92 3.9 11.7
4/29/2022 5:30:00 AM 5.16 41.288 0.083 6.92 3.93 11.73
4/29/2022 5:45:00 AM 5.08 41.144 0.083 6.91 3.94 11.76
4/29/2022 6:00:00 AM 4.99 40.982 0.083 6.92 4.03 11.79
4/29/2022 6:15:00 AM 4.91 40.838 0.083 6.92 3.94 11.82
4/29/2022 6:30:00 AM 4.84 40.712 0.083 6.92 3.88 11.87
4/29/2022 6:45:00 AM 4.78 40.604 0.083 6.86 3.8 11.91
4/29/2022 7:00:00 AM 4.71 40.478 0.083 6.9 3.72 11.95
4/29/2022 7:15:00 AM 4.67 40.406 0.083 6.93 3.74 12.01
4/29/2022 7:30:00 AM 4.65 40.37 0.083 6.94 3.78 12.05
4/29/2022 7:45:00 AM 4.64 40.352 0.083 6.94 3.77 12.09
4/29/2022 8:00:00 AM 4.65 40.37 0.083 6.95 3.8 12.12
4/29/2022 8:15:00 AM 4.66 40.388 0.083 6.95 3.74 12.15
4/29/2022 8:30:00 AM 4.69 40.442 0.083 6.96 3.68 12.18
4/29/2022 8:45:00 AM 4.74 40.532 0.083 6.97 3.58 12.21
4/29/2022 9:00:00 AM 4.82 40.676 0.083 6.97 3.63 12.23
4/29/2022 9:15:00 AM 4.93 40.874 0.083 6.98 3.58 12.26
4/29/2022 9:30:00 AM 5.07 41.126 0.083 6.99 3.54 12.26
4/29/2022 9:45:00 AM 5.22 41.396 0.083 6.99 3.51 12.26
4/29/2022 10:00:00 AM 5.38 41.684 0.083 6.99 3.49 12.27
4/29/2022 10:15:00 AM 5.57 42.026 0.083 7 3.55 12.25
4/29/2022 10:30:00 AM 5.79 42.422 0.083 7.01 3.56 12.23
4/29/2022 10:45:00 AM 6.03 42.854 0.083 6.99 3.5 12.22
4/29/2022 11:00:00 AM 6.28 43.304 0.083 7.02 3.47 12.18
4/29/2022 11:15:00 AM 6.55 43.79 0.083 7.02 3.52 12.15
4/29/2022 11:30:00 AM 6.82 44.276 0.083 7.03 3.39 12.1
4/29/2022 11:45:00 AM 7.1 44.78 0.083 7.03 3.44 12.06
4/29/2022 12:00:00 PM 7.39 45.302 0.083 7.04 3.45 12.02
4/29/2022 12:15:00 PM 7.67 45.806 0.083 7.04 3.46 11.97
4/29/2022 12:30:00 PM 7.96 46.328 0.083 7.05 3.44 11.93
4/29/2022 12:45:00 PM 8.22 46.796 0.083 7.05 3.42 11.86
4/29/2022 1:00:00 PM 8.47 47.246 0.083 7.06 3.47 11.81
4/29/2022 1:15:00 PM 8.71 47.678 0.083 7.03 3.39 11.75
4/29/2022 1:30:00 PM 8.96 48.128 0.082 7.04 3.38 11.7
4/29/2022 1:45:00 PM 9.2 48.56 0.082 7.07 3.4 11.64
4/29/2022 2:00:00 PM 9.46 49.028 0.082 7.08 3.39 11.57
4/29/2022 2:15:00 PM 9.68 49.424 0.082 7.08 3.39 11.52
4/29/2022 2:30:00 PM 9.88 49.784 0.082 7.09 3.46 11.45
4/29/2022 2:45:00 PM 10.05 50.09 0.082 7.09 3.4 11.39
4/29/2022 3:00:00 PM 10.26 50.468 0.082 7.07 3.44 11.34
4/29/2022 3:15:00 PM 10.41 50.738 0.082 7.08 3.49 11.29
4/29/2022 3:30:00 PM 10.54 50.972 0.082 7.09 3.52 11.23
4/29/2022 3:45:00 PM 10.66 51.188 0.082 7.1 3.48 11.18
4/29/2022 4:00:00 PM 10.75 51.35 0.082 7.1 3.49 11.13
4/29/2022 4:15:00 PM 10.81 51.458 0.082 7.1 3.53 11.09
4/29/2022 4:30:00 PM 10.86 51.548 0.082 7.11 3.5 11.05
4/29/2022 4:45:00 PM 10.9 51.62 0.082 7.11 3.5 11.01
4/29/2022 5:00:00 PM 10.92 51.656 0.082 7.11 3.53 10.97
4/29/2022 5:15:00 PM 10.92 51.656 0.082 7.11 3.48 10.93
4/29/2022 5:30:00 PM 10.92 51.656 0.082 7.11 3.58 10.88
4/29/2022 5:45:00 PM 10.91 51.638 0.082 7.11 3.5 10.84
4/29/2022 6:00:00 PM 10.9 51.62 0.082 7.11 3.6 10.81
4/29/2022 6:15:00 PM 10.87 51.566 0.082 7.1 3.49 10.77
4/29/2022 6:30:00 PM 10.82 51.476 0.082 7.04 3.57 10.74
4/29/2022 6:45:00 PM 10.76 51.368 0.082 7.06 3.61 10.71
4/29/2022 7:00:00 PM 10.68 51.224 0.082 7.09 3.66 10.69
4/29/2022 7:15:00 PM 10.6 51.08 0.082 7.03 3.73 10.67
4/29/2022 7:30:00 PM 10.51 50.918 0.082 7.08 3.71 10.64
4/29/2022 7:45:00 PM 10.42 50.756 0.082 7.07 3.72 10.62
4/29/2022 8:00:00 PM 10.35 50.63 0.082 7.07 4.01 10.59
4/29/2022 8:15:00 PM 10.27 50.486 0.082 7.06 3.77 10.55
4/29/2022 8:30:00 PM 10.19 50.342 0.082 7.05 3.84 10.53
4/29/2022 8:45:00 PM 10.11 50.198 0.082 7.03 3.85 10.52
4/29/2022 9:00:00 PM 10.02 50.036 0.082 7.02 3.86 10.52
4/29/2022 9:15:00 PM 9.91 49.838 0.082 7.02 3.86 10.52
4/29/2022 9:30:00 PM 9.81 49.658 0.082 7.01 3.88 10.52
4/29/2022 9:45:00 PM 9.68 49.424 0.083 7.01 3.98 10.54
4/29/2022 10:00:00 PM 9.57 49.226 0.082 6.94 4.07 10.56
4/29/2022 10:15:00 PM 9.44 48.992 0.083 6.99 3.81 10.58
4/29/2022 10:30:00 PM 9.3 48.74 0.083 6.94 3.97 10.6
4/29/2022 10:45:00 PM 9.16 48.488 0.083 6.99 3.97 10.61
4/29/2022 11:00:00 PM 9.01 48.218 0.083 6.98 3.93 10.64
4/29/2022 11:15:00 PM 8.87 47.966 0.083 6.98 4.09 10.67
4/29/2022 11:30:00 PM 8.72 47.696 0.083 6.97 3.96 10.7
4/29/2022 11:45:00 PM 8.59 47.462 0.083 6.97 3.94 10.72
4/30/2022 12:00:00 AM 8.44 47.192 0.083 6.97 3.97 10.75
4/30/2022 12:15:00 AM 8.32 46.976 0.083 6.96 4.16 10.79
4/30/2022 12:30:00 AM 8.19 46.742 0.083 6.96 4.06 10.81
4/30/2022 12:45:00 AM 8.07 46.526 0.083 6.96 4.27 10.84
4/30/2022 1:00:00 AM 7.94 46.292 0.083 6.96 4.15 10.87
4/30/2022 1:15:00 AM 7.81 46.058 0.083 6.95 3.96 10.91
4/30/2022 1:30:00 AM 7.69 45.842 0.083 6.95 4.01 10.94
4/30/2022 1:45:00 AM 7.56 45.608 0.084 6.95 3.94 10.97
4/30/2022 2:00:00 AM 7.44 45.392 0.083 6.94 3.88 11.01
4/30/2022 2:15:00 AM 7.31 45.158 0.084 6.94 3.88 11.04
4/30/2022 2:30:00 AM 7.2 44.96 0.084 6.94 3.91 11.07
4/30/2022 2:45:00 AM 7.07 44.726 0.084 6.94 4.05 11.11
4/30/2022 3:00:00 AM 6.95 44.51 0.084 6.94 4.07 11.16
4/30/2022 3:15:00 AM 6.82 44.276 0.084 6.94 3.91 11.19
4/30/2022 3:30:00 AM 6.7 44.06 0.084 6.94 3.89 11.23
4/30/2022 3:45:00 AM 6.58 43.844 0.084 6.93 3.89 11.26
4/30/2022 4:00:00 AM 6.45 43.61 0.084 6.93 3.82 11.31
4/30/2022 4:15:00 AM 6.35 43.43 0.084 6.93 3.79 11.35
4/30/2022 4:30:00 AM 6.23 43.214 0.085 6.93 3.88 11.38
4/30/2022 4:45:00 AM 6.12 43.016 0.085 6.93 4.03 11.41
4/30/2022 5:00:00 AM 6.01 42.818 0.085 6.93 3.8 11.45
4/30/2022 5:15:00 AM 5.91 42.638 0.085 6.93 3.94 11.47
4/30/2022 5:30:00 AM 5.8 42.44 0.085 6.88 3.93 11.51
4/30/2022 5:45:00 AM 5.71 42.278 0.085 6.91 3.85 11.55
4/30/2022 6:00:00 AM 5.62 42.116 0.085 6.93 3.9 11.58
4/30/2022 6:15:00 AM 5.52 41.936 0.085 6.93 3.69 11.61
4/30/2022 6:30:00 AM 5.45 41.81 0.085 6.94 3.81 11.66
4/30/2022 6:45:00 AM 5.36 41.648 0.085 6.94 3.64 11.71
4/30/2022 7:00:00 AM 5.3 41.54 0.085 6.88 3.77 11.75
4/30/2022 7:15:00 AM 5.23 41.414 0.085 6.94 3.62 11.81
4/30/2022 7:30:00 AM 5.2 41.36 0.085 6.95 3.62 11.85
4/30/2022 7:45:00 AM 5.18 41.324 0.085 6.96 3.79 11.91
4/30/2022 8:00:00 AM 5.18 41.324 0.085 6.96 3.61 11.95
4/30/2022 8:15:00 AM 5.19 41.342 0.085 6.96 3.59 11.99
4/30/2022 8:30:00 AM 5.23 41.414 0.085 6.98 3.77 12.03
4/30/2022 8:45:00 AM 5.3 41.54 0.085 6.98 3.85 12.05
4/30/2022 9:00:00 AM 5.4 41.72 0.085 6.97 3.55 12.07
4/30/2022 9:15:00 AM 5.55 41.99 0.085 7 3.58 12.08
4/30/2022 9:30:00 AM 5.68 42.224 0.085 7 3.49 12.11
4/30/2022 9:45:00 AM 5.84 42.512 0.085 7.01 3.49 12.11
4/30/2022 10:00:00 AM 6.03 42.854 0.085 7.01 3.31 12.1
4/30/2022 10:15:00 AM 6.22 43.196 0.085 6.98 3.36 12.11
4/30/2022 10:30:00 AM 6.45 43.61 0.085 6.99 3.31 12.09
4/30/2022 10:45:00 AM 6.72 44.096 0.085 7.03 3.2 12.06
4/30/2022 11:00:00 AM 6.96 44.528 0.085 7.04 3.25 12.05
4/30/2022 11:15:00 AM 7.26 45.068 0.085 7.05 3.27 12
4/30/2022 11:30:00 AM 7.56 45.608 0.085 7.05 3.27 11.97
4/30/2022 11:45:00 AM 7.87 46.166 0.085 7.06 3.38 11.92
4/30/2022 12:00:00 PM 8.16 46.688 0.085 7.06 3.46 11.87
4/30/2022 12:15:00 PM 8.47 47.246 0.085 7.06 3.29 11.82
4/30/2022 12:30:00 PM 8.76 47.768 0.085 7.07 3.42 11.76
4/30/2022 12:45:00 PM 9 48.2 0.085 7.02 3.38 11.73
4/30/2022 1:00:00 PM 9.26 48.668 0.084 7.07 3.37 11.67
4/30/2022 1:15:00 PM 9.5 49.1 0.084 7.08 3.36 11.6
4/30/2022 1:30:00 PM 9.74 49.532 0.084 7.08 3.37 11.55
4/30/2022 1:45:00 PM 10.01 50.018 0.084 7.09 3.4 11.49
4/30/2022 2:00:00 PM 10.28 50.504 0.084 7.09 3.31 11.43
4/30/2022 2:15:00 PM 10.5 50.9 0.084 7.1 3.32 11.36
4/30/2022 2:30:00 PM 10.71 51.278 0.084 7.1 3.3 11.32
4/30/2022 2:45:00 PM 10.91 51.638 0.084 7.1 3.42 11.24
4/30/2022 3:00:00 PM 11.12 52.016 0.084 7.11 3.32 11.18
4/30/2022 3:15:00 PM 11.3 52.34 0.084 7.11 3.32 11.11
4/30/2022 3:30:00 PM 11.44 52.592 0.084 7.1 3.42 11.06
4/30/2022 3:45:00 PM 11.58 52.844 0.084 7.12 3.38 11.01
4/30/2022 4:00:00 PM 11.68 53.024 0.084 7.12 3.36 10.96
4/30/2022 4:15:00 PM 11.76 53.168 0.084 7.12 3.49 10.92
4/30/2022 4:30:00 PM 11.84 53.312 0.084 7.12 3.59 10.87
4/30/2022 4:45:00 PM 11.86 53.348 0.084 7.13 3.71 10.83
4/30/2022 5:00:00 PM 11.89 53.402 0.084 7.13 3.88 10.79
4/30/2022 5:15:00 PM 11.88 53.384 0.084 7.13 3.72 10.75
4/30/2022 5:30:00 PM 11.84 53.312 0.084 7.13 3.76 10.71
4/30/2022 5:45:00 PM 11.84 53.312 0.084 7.13 3.69 10.68
4/30/2022 6:00:00 PM 11.83 53.294 0.084 7.13 3.63 10.63
4/30/2022 6:15:00 PM 11.84 53.312 0.084 7.13 3.51 10.6
4/30/2022 6:30:00 PM 11.85 53.33 0.084 7.12 3.49 10.56
4/30/2022 6:45:00 PM 11.82 53.276 0.083 7.12 3.37 10.51
4/30/2022 7:00:00 PM 11.79 53.222 0.083 7.11 3.47 10.47
4/30/2022 7:15:00 PM 11.75 53.15 0.083 7.11 3.39 10.43
4/30/2022 7:30:00 PM 11.71 53.078 0.083 7.03 3.44 10.39
4/30/2022 7:45:00 PM 11.65 52.97 0.083 7.09 3.36 10.35
4/30/2022 8:00:00 PM 11.59 52.862 0.083 7.04 3.44 10.3
4/30/2022 8:15:00 PM 11.54 52.772 0.083 7.06 3.42 10.25
4/30/2022 8:30:00 PM 11.47 52.646 0.083 7.05 3.52 10.23
4/30/2022 8:45:00 PM 11.39 52.502 0.083 7.04 3.45 10.21
4/30/2022 9:00:00 PM 11.31 52.358 0.083 7.04 3.54 10.21
4/30/2022 9:15:00 PM 11.22 52.196 0.083 7.03 3.56 10.2
4/30/2022 9:30:00 PM 11.12 52.016 0.083 7.02 3.67 10.19
4/30/2022 9:45:00 PM 11.02 51.836 0.083 7.02 3.71 10.2
4/30/2022 10:00:00 PM 10.89 51.602 0.083 6.98 3.88 10.22
4/30/2022 10:15:00 PM 10.77 51.386 0.083 7.01 4.18 10.22
4/30/2022 10:30:00 PM 10.63 51.134 0.083 7 4.62 10.24
4/30/2022 10:45:00 PM 10.48 50.864 0.084 7 4.53 10.25
4/30/2022 11:00:00 PM 10.34 50.612 0.084 6.99 4.53 10.27
4/30/2022 11:15:00 PM 10.21 50.378 0.084 6.99 4.49 10.3
4/30/2022 11:30:00 PM 10.08 50.144 0.084 6.91 4.37 10.31
4/30/2022 11:45:00 PM 9.94 49.892 0.084 6.98 4.4 10.34
5/1/2022 12:00:00 AM 9.8 49.64 0.084 6.98 4.56 10.37
5/1/2022 12:15:00 AM 9.67 49.406 0.084 6.97 4.58 10.4
5/1/2022 12:30:00 AM 9.54 49.172 0.084 6.97 4.78 10.43
5/1/2022 12:45:00 AM 9.42 48.956 0.084 6.96 4.61 10.45
5/1/2022 1:00:00 AM 9.29 48.722 0.084 6.96 4.59 10.48
5/1/2022 1:15:00 AM 9.15 48.47 0.084 6.96 4.25 10.52
5/1/2022 1:30:00 AM 9.03 48.254 0.083 6.96 4.33 10.55
5/1/2022 1:45:00 AM 8.9 48.02 0.083 6.95 4.12 10.59
5/1/2022 2:00:00 AM 8.76 47.768 0.083 6.96 4.12 10.61
5/1/2022 2:15:00 AM 8.62 47.516 0.083 6.95 4.11 10.65
5/1/2022 2:30:00 AM 8.51 47.318 0.083 6.94 3.99 10.68
5/1/2022 2:45:00 AM 8.36 47.048 0.083 6.95 4.06 10.73
5/1/2022 3:00:00 AM 8.23 46.814 0.083 6.95 4.18 10.76
5/1/2022 3:15:00 AM 8.09 46.562 0.083 6.94 4.07 10.79
5/1/2022 3:30:00 AM 7.97 46.346 0.084 6.94 4.12 10.83
5/1/2022 3:45:00 AM 7.81 46.058 0.084 6.86 4.14 10.87
5/1/2022 4:00:00 AM 7.71 45.878 0.083 6.94 4.23 10.91
5/1/2022 4:15:00 AM 7.56 45.608 0.084 6.93 4.02 10.95
5/1/2022 4:30:00 AM 7.45 45.41 0.083 6.94 4.14 10.97
5/1/2022 4:45:00 AM 7.34 45.212 0.083 6.87 3.97 11.01
5/1/2022 5:00:00 AM 7.22 44.996 0.083 6.92 3.93 11.05
5/1/2022 5:15:00 AM 7.11 44.798 0.083 6.94 3.88 11.09
5/1/2022 5:30:00 AM 7 44.6 0.083 6.94 3.92 11.12
5/1/2022 5:45:00 AM 6.89 44.402 0.083 6.9 3.93 11.15
5/1/2022 6:00:00 AM 6.8 44.24 0.084 6.93 3.87 11.18
5/1/2022 6:15:00 AM 6.7 44.06 0.084 6.87 3.85 11.22
5/1/2022 6:30:00 AM 6.61 43.898 0.084 6.94 3.73 11.27
5/1/2022 6:45:00 AM 6.53 43.754 0.084 6.95 3.77 11.33
5/1/2022 7:00:00 AM 6.46 43.628 0.084 6.95 3.68 11.38
5/1/2022 7:15:00 AM 6.4 43.52 0.084 6.96 3.61 11.45
5/1/2022 7:30:00 AM 6.35 43.43 0.084 6.9 3.65 11.5
5/1/2022 7:45:00 AM 6.33 43.394 0.084 6.94 3.72 11.54
5/1/2022 8:00:00 AM 6.33 43.394 0.084 6.98 3.69 11.59
5/1/2022 8:15:00 AM 6.33 43.394 0.084 6.99 3.66 11.63
5/1/2022 8:30:00 AM 6.37 43.466 0.084 7 3.68 11.67
5/1/2022 8:45:00 AM 6.42 43.556 0.084 7.01 3.62 11.71
5/1/2022 9:00:00 AM 6.52 43.736 0.084 7.01 3.64 11.74
5/1/2022 9:15:00 AM 6.67 44.006 0.084 7.01 3.51 11.76
5/1/2022 9:30:00 AM 6.78 44.204 0.084 7 3.53 11.77
5/1/2022 9:45:00 AM 6.96 44.528 0.084 6.99 3.5 11.79
5/1/2022 10:00:00 AM 7.14 44.852 0.083 7.04 3.55 11.77
5/1/2022 10:15:00 AM 7.37 45.266 0.083 7.01 3.56 11.77
5/1/2022 10:30:00 AM 7.62 45.716 0.083 7.05 3.45 11.76
5/1/2022 10:45:00 AM 7.86 46.148 0.083 7.06 3.49 11.75
5/1/2022 11:00:00 AM 8.11 46.598 0.083 7.07 3.41 11.72
5/1/2022 11:15:00 AM 8.4 47.12 0.081 7.02 4.31 11.7
5/1/2022 11:30:00 AM 8.69 47.642 0.083 7.08 3.43 11.66
5/1/2022 11:45:00 AM 8.86 47.948 0.084 7.08 3.53 11.63
5/1/2022 12:00:00 PM 9.17 48.506 0.083 7.09 3.45 11.58
5/1/2022 12:15:00 PM 9.51 49.118 0.082 7.05 4.24 11.55
5/1/2022 12:30:00 PM 9.79 49.622 0.083 7.07 3.47 11.51
5/1/2022 12:45:00 PM 10.06 50.108 0.083 7.1 3.43 11.45
5/1/2022 1:00:00 PM 10.32 50.576 0.083 7.11 3.5 11.4
5/1/2022 1:15:00 PM 10.59 51.062 0.083 7.11 3.4 11.34
5/1/2022 1:30:00 PM 10.85 51.53 0.081 7.07 4.17 11.29
5/1/2022 1:45:00 PM 11.12 52.016 0.083 7.12 3.34 11.23
5/1/2022 2:00:00 PM 11.23 52.214 0.083 7.1 3.4 11.17
5/1/2022 2:15:00 PM 11.3 52.34 0.083 7.13 3.47 11.12
5/1/2022 2:30:00 PM 11.43 52.574 0.083 7.1 3.44 11.09
5/1/2022 2:45:00 PM 11.56 52.808 0.083 7.14 3.46 11.05
5/1/2022 3:00:00 PM 11.62 52.916 0.083 7.14 3.6 11.01
5/1/2022 3:15:00 PM 11.71 53.078 0.083 7.15 3.55 10.97
5/1/2022 3:30:00 PM 11.84 53.312 0.083 7.15 3.53 10.92
5/1/2022 3:45:00 PM 11.95 53.51 0.083 7.15 3.51 10.87
5/1/2022 4:00:00 PM 12.04 53.672 0.083 7.15 3.54 10.84
5/1/2022 4:15:00 PM 12.13 53.834 0.083 7.09 3.47 10.8
5/1/2022 4:30:00 PM 12.18 53.924 0.083 7.14 3.48 10.76
5/1/2022 4:45:00 PM 12.19 53.942 0.081 7.14 4.3 10.73
5/1/2022 5:00:00 PM 12.21 53.978 0.081 7.12 4.34 10.7
5/1/2022 5:15:00 PM 12.21 53.978 0.082 7.16 3.49 10.65
5/1/2022 5:30:00 PM 12.21 53.978 0.081 7.11 4.35 10.6
5/1/2022 5:45:00 PM 12.21 53.978 0.082 7.11 3.4 10.56
5/1/2022 6:00:00 PM 12.2 53.96 0.082 7.14 3.63 10.5
5/1/2022 6:15:00 PM 12.2 53.96 0.082 7.14 3.48 10.46
5/1/2022 6:30:00 PM 12.21 53.978 0.082 7.14 3.57 10.42
5/1/2022 6:45:00 PM 12.22 53.996 0.082 7.12 3.51 10.36
5/1/2022 7:00:00 PM 12.21 53.978 0.082 7.12 3.56 10.31
5/1/2022 7:15:00 PM 12.22 53.996 0.082 7.11 3.55 10.26
5/1/2022 7:30:00 PM 12.21 53.978 0.082 7.1 3.52 10.21
5/1/2022 7:45:00 PM 12.18 53.924 0.082 7.03 3.58 10.16
5/1/2022 8:00:00 PM 12.15 53.87 0.082 7.08 3.53 10.12
5/1/2022 8:15:00 PM 12.13 53.834 0.082 7.07 3.52 10.08
5/1/2022 8:30:00 PM 12.08 53.744 0.082 6.98 3.57 10.04
5/1/2022 8:45:00 PM 12.05 53.69 0.082 7.05 3.8 10.01
5/1/2022 9:00:00 PM 11.99 53.582 0.082 7.04 3.75 9.99
5/1/2022 9:15:00 PM 11.93 53.474 0.083 7.03 3.83 9.98
5/1/2022 9:30:00 PM 11.88 53.384 0.083 7.03 3.87 9.97
5/1/2022 9:45:00 PM 11.83 53.294 0.083 7.02 3.73 9.97
5/1/2022 10:00:00 PM 11.76 53.168 0.083 6.95 3.85 9.97
5/1/2022 10:15:00 PM 11.69 53.042 0.083 7.01 3.69 9.97
5/1/2022 10:30:00 PM 11.63 52.934 0.084 7.01 3.73 9.96
5/1/2022 10:45:00 PM 11.56 52.808 0.084 7.01 3.59 9.98
5/1/2022 11:00:00 PM 11.5 52.7 0.084 7 3.71 9.98
5/1/2022 11:15:00 PM 11.43 52.574 0.084 7 3.71 9.97
5/1/2022 11:30:00 PM 11.36 52.448 0.085 6.99 3.75 9.98
5/1/2022 11:45:00 PM 11.29 52.322 0.085 6.91 3.79 9.99
5/2/2022 12:00:00 AM 11.23 52.214 0.085 6.99 3.75 9.99
5/2/2022 12:15:00 AM 11.17 52.106 0.085 6.99 3.77 10
5/2/2022 12:30:00 AM 11.11 51.998 0.083 6.94 4.48 10.01
5/2/2022 12:45:00 AM 11.05 51.89 0.086 6.98 3.79 10.02
5/2/2022 1:00:00 AM 10.99 51.782 0.085 6.88 3.68 10.03
5/2/2022 1:15:00 AM 10.93 51.674 0.085 6.98 3.67 10.05
5/2/2022 1:30:00 AM 10.88 51.584 0.086 6.98 3.68 10.06
5/2/2022 1:45:00 AM 10.82 51.476 0.086 6.98 3.72 10.07
5/2/2022 2:00:00 AM 10.76 51.368 0.086 6.98 3.78 10.09
5/2/2022 2:15:00 AM 10.7 51.26 0.086 6.97 3.76 10.11
5/2/2022 2:30:00 AM 10.65 51.17 0.082 6.93 4.48 10.13
5/2/2022 2:45:00 AM 10.6 51.08 0.086 6.97 3.88 10.12
5/2/2022 3:00:00 AM 10.54 50.972 0.082 6.91 4.6 10.13
5/2/2022 3:15:00 AM 10.49 50.882 0.086 6.97 3.75 10.14
5/2/2022 3:30:00 AM 10.44 50.792 0.086 6.97 3.73 10.15
5/2/2022 3:45:00 AM 10.39 50.702 0.086 6.96 3.79 10.16
5/2/2022 4:00:00 AM 10.34 50.612 0.086 6.96 3.79 10.17
5/2/2022 4:15:00 AM 10.29 50.522 0.086 6.97 3.81 10.19
5/2/2022 4:30:00 AM 10.25 50.45 0.086 6.86 3.85 10.2
5/2/2022 4:45:00 AM 10.2 50.36 0.086 6.91 3.69 10.21
5/2/2022 5:00:00 AM 10.16 50.288 0.086 6.94 3.71 10.22
5/2/2022 5:15:00 AM 10.11 50.198 0.086 6.92 3.74 10.24
5/2/2022 5:30:00 AM 10.07 50.126 0.086 6.91 3.59 10.26
5/2/2022 5:45:00 AM 10.03 50.054 0.086 6.96 3.74 10.26
5/2/2022 6:00:00 AM 9.99 49.982 0.087 6.96 3.65 10.27
5/2/2022 6:15:00 AM 9.95 49.91 0.086 6.96 3.59 10.29
5/2/2022 6:30:00 AM 9.92 49.856 0.087 6.94 3.64 10.3
5/2/2022 6:45:00 AM 9.89 49.802 0.087 6.97 3.74 10.32
5/2/2022 7:00:00 AM 9.87 49.766 0.086 6.97 3.7 10.34
5/2/2022 7:15:00 AM 9.85 49.73 0.086 6.93 3.68 10.38
5/2/2022 7:30:00 AM 9.83 49.694 0.086 6.98 3.62 10.41
5/2/2022 7:45:00 AM 9.82 49.676 0.086 6.98 3.59 10.45
5/2/2022 8:00:00 AM 9.82 49.676 0.086 6.99 3.68 10.48
5/2/2022 8:15:00 AM 9.83 49.694 0.086 7 3.6 10.53
5/2/2022 8:30:00 AM 9.81 49.658 0.086 7 3.7 10.55
5/2/2022 8:45:00 AM 9.83 49.694 0.086 7.01 3.63 10.6
5/2/2022 9:00:00 AM 9.88 49.784 0.086 7.02 3.56 10.65
5/2/2022 9:15:00 AM 9.94 49.892 0.086 7.03 3.65 10.69
5/2/2022 9:30:00 AM 9.97 49.946 0.086 7.04 3.6 10.72
5/2/2022 9:45:00 AM 10.02 50.036 0.086 6.99 3.59 10.75
5/2/2022 10:00:00 AM 10.09 50.162 0.086 7.06 3.55 10.78
5/2/2022 10:15:00 AM 10.17 50.306 0.086 7.06 3.52 10.8
5/2/2022 10:30:00 AM 10.27 50.486 0.086 7.08 3.54 10.83
5/2/2022 10:45:00 AM 10.42 50.756 0.085 7.09 3.55 10.84
5/2/2022 11:00:00 AM 10.58 51.044 0.085 7.09 3.59 10.86
5/2/2022 11:15:00 AM 10.9 51.62 0.085 7.1 3.65 10.87
5/2/2022 11:30:00 AM 11.03 51.854 0.085 7.11 3.57 10.84
5/2/2022 11:45:00 AM 11.09 51.962 0.085 7.11 3.59 10.84
5/2/2022 12:00:00 PM 11.16 52.088 0.085 7.11 3.65 10.82
5/2/2022 12:15:00 PM 11.27 52.286 0.085 7.12 3.55 10.8
5/2/2022 12:30:00 PM 11.49 52.682 0.085 7.13 3.58 10.81
5/2/2022 12:45:00 PM 11.45 52.61 0.085 7.14 3.59 10.8
5/2/2022 1:00:00 PM 11.54 52.772 0.081 7.1 4.43 10.81
5/2/2022 1:15:00 PM 11.64 52.952 0.085 7.15 3.63 10.8
5/2/2022 1:30:00 PM 11.76 53.168 0.084 7.14 3.69 10.79
5/2/2022 1:45:00 PM 11.89 53.402 0.083 7.13 4.44 10.76
5/2/2022 2:00:00 PM 12.03 53.654 0.084 7.17 3.6 10.76
5/2/2022 2:15:00 PM 12.19 53.942 0.084 7.17 3.62 10.73
5/2/2022 2:30:00 PM 12.33 54.194 0.084 7.18 3.57 10.7
5/2/2022 2:45:00 PM 12.28 54.104 0.084 7.18 3.6 10.67
5/2/2022 3:00:00 PM 12.24 54.032 0.084 7.11 3.57 10.66
5/2/2022 3:15:00 PM 12.19 53.942 0.084 7.17 3.55 10.61
5/2/2022 3:30:00 PM 12.13 53.834 0.084 7.16 3.56 10.57
5/2/2022 3:45:00 PM 12.09 53.762 0.085 7.16 3.59 10.55
5/2/2022 4:00:00 PM 12.06 53.708 0.085 7.15 3.65 10.52
5/2/2022 4:15:00 PM 12.06 53.708 0.085 7.15 3.63 10.52
5/2/2022 4:30:00 PM 12.06 53.708 0.084 7.15 3.58 10.5
5/2/2022 4:45:00 PM 12.05 53.69 0.084 7.14 3.62 10.46
5/2/2022 5:00:00 PM 12.08 53.744 0.084 7.14 3.6 10.44
5/2/2022 5:15:00 PM 12.16 53.888 0.084 7.14 3.64 10.45
5/2/2022 5:30:00 PM 12.23 54.014 0.084 7.15 3.75 10.44
5/2/2022 5:45:00 PM 12.27 54.086 0.084 7.15 3.65 10.44
5/2/2022 6:00:00 PM 12.29 54.122 0.084 7.15 3.66 10.42
5/2/2022 6:15:00 PM 12.29 54.122 0.084 7.15 3.63 10.41
5/2/2022 6:30:00 PM 12.28 54.104 0.084 7.15 3.62 10.39
5/2/2022 6:45:00 PM 12.26 54.068 0.084 7.14 3.63 10.36
5/2/2022 7:00:00 PM 12.21 53.978 0.084 7.1 3.62 10.31
5/2/2022 7:15:00 PM 12.15 53.87 0.084 7.12 3.65 10.29
5/2/2022 7:30:00 PM 12.11 53.798 0.083 7.11 3.71 10.25
5/2/2022 7:45:00 PM 12.08 53.744 0.084 7.09 3.74 10.22
5/2/2022 8:00:00 PM 12.05 53.69 0.084 7.03 3.76 10.18
5/2/2022 8:15:00 PM 12 53.6 0.084 7.07 3.8 10.14
5/2/2022 8:30:00 PM 11.97 53.546 0.084 7.06 3.8 10.11
5/2/2022 8:45:00 PM 11.93 53.474 0.084 7.05 4.14 10.08
5/2/2022 9:00:00 PM 11.88 53.384 0.084 7.04 3.96 10.05
5/2/2022 9:15:00 PM 11.85 53.33 0.083 7.04 3.96 10.05
5/2/2022 9:30:00 PM 11.8 53.24 0.083 7.03 4.18 10.04
5/2/2022 9:45:00 PM 11.75 53.15 0.083 6.96 4.04 10.04
5/2/2022 10:00:00 PM 11.7 53.06 0.083 7.02 4.07 10.04
5/2/2022 10:15:00 PM 11.64 52.952 0.083 7.01 4.07 10.04
5/2/2022 10:30:00 PM 11.58 52.844 0.083 7.01 4.09 10.05
5/2/2022 10:45:00 PM 11.52 52.736 0.083 7 4.31 10.05
5/2/2022 11:00:00 PM 11.45 52.61 0.082 6.94 4.26 10.05
5/2/2022 11:15:00 PM 11.38 52.484 0.083 6.96 4.16 10.05
5/2/2022 11:30:00 PM 11.32 52.376 0.083 6.99 4.09 10.06
5/2/2022 11:45:00 PM 11.26 52.268 0.083 6.98 4.1 10.06
5/3/2022 12:00:00 AM 11.21 52.178 0.083 6.98 4.22 10.06
5/3/2022 12:15:00 AM 11.15 52.07 0.083 6.98 4.18 10.07
5/3/2022 12:30:00 AM 11.1 51.98 0.083 6.97 4.09 10.09
5/3/2022 12:45:00 AM 11.04 51.872 0.083 6.97 4.17 10.09
5/3/2022 1:00:00 AM 10.99 51.782 0.082 6.93 4.86 10.1
5/3/2022 1:15:00 AM 10.94 51.692 0.084 6.96 4.2 10.11
5/3/2022 1:30:00 AM 10.89 51.602 0.084 6.96 4.24 10.12
5/3/2022 1:45:00 AM 10.84 51.512 0.084 6.96 4.24 10.13
5/3/2022 2:00:00 AM 10.8 51.44 0.085 6.96 4.19 10.14
5/3/2022 2:15:00 AM 10.75 51.35 0.085 6.96 4.18 10.15
5/3/2022 2:30:00 AM 10.71 51.278 0.085 6.95 4.17 10.15
5/3/2022 2:45:00 AM 10.67 51.206 0.085 6.95 3.91 10.16
5/3/2022 3:00:00 AM 10.62 51.116 0.084 6.95 3.93 10.16
5/3/2022 3:15:00 AM 10.57 51.026 0.084 6.95 3.83 10.16
5/3/2022 3:30:00 AM 10.54 50.972 0.084 6.95 3.72 10.18
5/3/2022 3:45:00 AM 10.5 50.9 0.084 6.95 3.81 10.18
5/3/2022 4:00:00 AM 10.45 50.81 0.084 6.95 3.65 10.19
5/3/2022 4:15:00 AM 10.38 50.684 0.084 6.95 3.57 10.2
5/3/2022 4:30:00 AM 10.33 50.594 0.084 6.95 3.6 10.22
5/3/2022 4:45:00 AM 10.26 50.468 0.084 6.95 3.69 10.23
5/3/2022 5:00:00 AM 10.18 50.324 0.084 6.95 3.67 10.24
5/3/2022 5:15:00 AM 10.11 50.198 0.084 6.95 3.66 10.25
5/3/2022 5:30:00 AM 10.07 50.126 0.084 6.93 3.59 10.26
5/3/2022 5:45:00 AM 10.04 50.072 0.084 6.95 3.49 10.27
5/3/2022 6:00:00 AM 10 50 0.084 6.95 3.61 10.28
5/3/2022 6:15:00 AM 9.98 49.964 0.084 6.96 3.52 10.3
5/3/2022 6:30:00 AM 9.96 49.928 0.084 6.96 3.53 10.33
5/3/2022 6:45:00 AM 9.95 49.91 0.084 6.97 3.31 10.37
5/3/2022 7:00:00 AM 9.92 49.856 0.084 6.97 3.54 10.42
5/3/2022 7:15:00 AM 9.91 49.838 0.084 6.98 3.61 10.49
5/3/2022 7:30:00 AM 9.89 49.802 0.084 6.99 3.57 10.54
5/3/2022 7:45:00 AM 9.89 49.802 0.085 6.99 3.57 10.6
5/3/2022 8:00:00 AM 9.9 49.82 0.084 7.01 3.54 10.65
5/3/2022 8:15:00 AM 9.94 49.892 0.085 7.02 3.54 10.69
5/3/2022 8:30:00 AM 9.98 49.964 0.084 7.03 3.45 10.74
5/3/2022 8:45:00 AM 10.07 50.126 0.085 7.04 3.49 10.75
5/3/2022 9:00:00 AM 10.18 50.324 0.084 7.05 3.47 10.78
5/3/2022 9:15:00 AM 10.3 50.54 0.085 7.06 3.47 10.81
5/3/2022 9:30:00 AM 10.37 50.666 0.085 7.07 3.43 10.83
5/3/2022 9:45:00 AM 10.54 50.972 0.084 7.08 3.31 10.83
5/3/2022 10:00:00 AM 10.7 51.26 0.085 7.09 3.31 10.86
5/3/2022 10:15:00 AM 10.92 51.656 0.085 7.1 3.34 10.86
5/3/2022 10:30:00 AM 11.07 51.926 0.084 7.03 3.2 10.86
5/3/2022 10:45:00 AM 11.32 52.376 0.084 7.11 3.54 10.86
5/3/2022 11:00:00 AM 11.68 53.024 0.084 7.13 3.35 10.84
5/3/2022 11:15:00 AM 11.89 53.402 0.083 7.09 4.14 10.83
5/3/2022 11:30:00 AM 12.14 53.852 0.083 7.1 4.11 10.79
5/3/2022 11:45:00 AM 12.43 54.374 0.085 7.14 3.32 10.78
5/3/2022 12:00:00 PM 12.74 54.932 0.084 7.15 3.3 10.73
5/3/2022 12:15:00 PM 13.02 55.436 0.081 7.11 4.15 10.69
5/3/2022 12:30:00 PM 13.19 55.742 0.083 7.12 4.31 10.67
5/3/2022 12:45:00 PM 13.3 55.94 0.082 7.13 4.21 10.65
5/3/2022 1:00:00 PM 13.5 56.3 0.084 7.18 3.34 10.61
5/3/2022 1:15:00 PM 13.56 56.408 0.084 7.18 3.17 10.58
5/3/2022 1:30:00 PM 13.54 56.372 0.084 7.19 3.32 10.56
5/3/2022 1:45:00 PM 13.55 56.39 0.084 7.2 3.32 10.54
5/3/2022 2:00:00 PM 13.61 56.498 0.084 7.15 3.34 10.52
5/3/2022 2:15:00 PM 13.64 56.552 0.082 7.17 4.25 10.49
5/3/2022 2:30:00 PM 13.68 56.624 0.084 7.21 3.36 10.48
5/3/2022 2:45:00 PM 13.74 56.732 0.084 7.21 3.16 10.46
5/3/2022 3:00:00 PM 13.84 56.912 0.084 7.21 3.24 10.43
5/3/2022 3:15:00 PM 13.91 57.038 0.084 7.22 3.25 10.4
5/3/2022 3:30:00 PM 13.96 57.128 0.084 7.21 3.34 10.38
5/3/2022 3:45:00 PM 14.01 57.218 0.084 7.22 3.25 10.36
5/3/2022 4:00:00 PM 14.05 57.29 0.084 7.22 3.36 10.34
5/3/2022 4:15:00 PM 14.05 57.29 0.084 7.22 3.27 10.3
5/3/2022 4:30:00 PM 14.07 57.326 0.084 7.22 3.35 10.28
5/3/2022 4:45:00 PM 14.07 57.326 0.082 7.17 4.2 10.25
5/3/2022 5:00:00 PM 14.06 57.308 0.084 7.21 3.35 10.2
5/3/2022 5:15:00 PM 14.07 57.326 0.084 7.21 3.36 10.17
5/3/2022 5:30:00 PM 14.08 57.344 0.08 7.15 4.32 10.14
5/3/2022 5:45:00 PM 14.09 57.362 0.084 7.2 3.43 10.1
5/3/2022 6:00:00 PM 14.1 57.38 0.084 7.19 3.47 10.07
5/3/2022 6:15:00 PM 14.09 57.362 0.083 7.13 4.24 10.02
5/3/2022 6:30:00 PM 14.13 57.434 0.084 7.18 3.4 10
5/3/2022 6:45:00 PM 14.13 57.434 0.084 7.18 3.48 9.98
5/3/2022 7:00:00 PM 14.11 57.398 0.084 7.17 3.26 9.92
5/3/2022 7:15:00 PM 14.09 57.362 0.084 7.05 3.38 9.86
5/3/2022 7:30:00 PM 14.05 57.29 0.081 7.11 4.36 9.8
5/3/2022 7:45:00 PM 14.02 57.236 0.081 7.08 4.51 9.74
5/3/2022 8:00:00 PM 13.97 57.146 0.085 7.03 3.28 9.69
5/3/2022 8:15:00 PM 13.91 57.038 0.085 7.1 3.32 9.63
5/3/2022 8:30:00 PM 13.85 56.93 0.083 7.04 4.39 9.6
5/3/2022 8:45:00 PM 13.79 56.822 0.081 7.01 4.34 9.57
5/3/2022 9:00:00 PM 13.74 56.732 0.085 7.07 3.44 9.54
5/3/2022 9:15:00 PM 13.69 56.642 0.085 7.06 3.43 9.52
5/3/2022 9:30:00 PM 13.65 56.57 0.085 7.06 3.52 9.5
5/3/2022 9:45:00 PM 13.61 56.498 0.085 7.05 3.56 9.49
5/3/2022 10:00:00 PM 13.58 56.444 0.085 7.04 3.54 9.48
5/3/2022 10:15:00 PM 13.53 56.354 0.085 7.04 3.41 9.47
5/3/2022 10:30:00 PM 13.49 56.282 0.085 7.03 3.44 9.46
5/3/2022 10:45:00 PM 13.43 56.174 0.085 7.02 3.39 9.45
5/3/2022 11:00:00 PM 13.37 56.066 0.085 7.01 3.31 9.46
5/3/2022 11:15:00 PM 13.3 55.94 0.085 7.01 3.47 9.46
5/3/2022 11:30:00 PM 13.24 55.832 0.085 7.01 3.48 9.45
5/3/2022 11:45:00 PM 13.17 55.706 0.086 6.99 3.54 9.45
5/4/2022 12:00:00 AM 13.09 55.562 0.086 7 3.51 9.45
5/4/2022 12:15:00 AM 13.02 55.436 0.086 7 3.49 9.47
5/4/2022 12:30:00 AM 12.95 55.31 0.086 6.99 3.45 9.47
5/4/2022 12:45:00 AM 12.89 55.202 0.086 6.99 3.4 9.48
5/4/2022 1:00:00 AM 12.82 55.076 0.086 6.86 3.49 9.49
5/4/2022 1:15:00 AM 12.74 54.932 0.086 6.98 3.63 9.5
5/4/2022 1:30:00 AM 12.67 54.806 0.087 6.99 3.57 9.5
5/4/2022 1:45:00 AM 12.6 54.68 0.086 6.99 3.45 9.52
5/4/2022 2:00:00 AM 12.53 54.554 0.087 6.99 6.4 9.53
5/4/2022 2:15:00 AM 12.45 54.41 0.087 6.98 3.59 9.55
5/4/2022 2:30:00 AM 12.37 54.266 0.087 6.97 3.62 9.56
5/4/2022 2:45:00 AM 12.29 54.122 0.087 6.91 3.5 9.57
5/4/2022 3:00:00 AM 12.21 53.978 0.087 6.98 3.69 9.58
5/4/2022 3:15:00 AM 12.13 53.834 0.087 6.98 3.62 9.6
5/4/2022 3:30:00 AM 12.06 53.708 0.088 6.98 3.64 9.62
5/4/2022 3:45:00 AM 12 53.6 0.088 6.98 3.52 9.63
5/4/2022 4:00:00 AM 11.93 53.474 0.088 6.98 3.67 9.65
5/4/2022 4:15:00 AM 11.85 53.33 0.088 6.98 3.66 9.67
5/4/2022 4:30:00 AM 11.77 53.186 0.088 6.98 3.75 9.69
5/4/2022 4:45:00 AM 11.72 53.096 0.088 6.98 3.63 9.7
5/4/2022 5:00:00 AM 11.65 52.97 0.088 6.98 3.49 9.72
5/4/2022 5:15:00 AM 11.59 52.862 0.088 6.87 3.4 9.73
5/4/2022 5:30:00 AM 11.54 52.772 0.088 6.98 3.54 9.74
5/4/2022 5:45:00 AM 11.49 52.682 0.088 6.98 3.51 9.76
5/4/2022 6:00:00 AM 11.44 52.592 0.088 6.98 3.4 9.77
5/4/2022 6:15:00 AM 11.39 52.502 0.088 6.98 3.52 9.78
5/4/2022 6:30:00 AM 11.34 52.412 0.088 6.98 3.27 9.81
5/4/2022 6:45:00 AM 11.3 52.34 0.088 6.99 3.51 9.83
5/4/2022 7:00:00 AM 11.26 52.268 0.088 6.99 3.48 9.85
5/4/2022 7:15:00 AM 11.22 52.196 0.088 6.99 3.4 9.88
5/4/2022 7:30:00 AM 11.19 52.142 0.088 6.99 3.32 9.91
5/4/2022 7:45:00 AM 11.15 52.07 0.088 7 3.27 9.93
5/4/2022 8:00:00 AM 11.13 52.034 0.088 7 3.34 9.98
5/4/2022 8:15:00 AM 11.12 52.016 0.088 7.01 3.49 10.04
5/4/2022 8:30:00 AM 11.1 51.98 0.088 7.02 3.36 10.07
5/4/2022 8:45:00 AM 11.08 51.944 0.088 7.02 3.45 10.11
5/4/2022 9:00:00 AM 11.07 51.926 0.088 6.91 3.46 10.16
5/4/2022 9:15:00 AM 11.07 51.926 0.088 7.04 3.46 10.2
5/4/2022 9:30:00 AM 11.08 51.944 0.084 7 4.48 10.25
5/4/2022 9:45:00 AM 11.08 51.944 0.088 7.06 3.52 10.29
5/4/2022 10:00:00 AM 11.07 51.926 0.088 7.06 3.41 10.32
5/4/2022 10:15:00 AM 11.07 51.926 0.088 7.07 3.39 10.35
5/4/2022 10:30:00 AM 11.12 52.016 0.088 7.08 3.37 10.39
5/4/2022 10:45:00 AM 11.14 52.052 0.088 7.09 3.45 10.44
5/4/2022 11:00:00 AM 11.19 52.142 0.088 7.06 3.35 10.47
5/4/2022 11:15:00 AM 11.3 52.34 0.088 7.1 3.35 10.5
5/4/2022 11:30:00 AM 11.35 52.43 0.088 7.11 3.33 10.53
5/4/2022 11:45:00 AM 11.44 52.592 0.088 7.12 3.25 10.55
5/4/2022 12:00:00 PM 11.6 52.88 0.088 7.13 3.34 10.57
5/4/2022 12:15:00 PM 11.61 52.898 0.087 7.14 3.38 10.58
5/4/2022 12:30:00 PM 11.63 52.934 0.087 7.15 3.41 10.58
5/4/2022 12:45:00 PM 11.68 53.024 0.085 7.11 4.28 10.59
5/4/2022 1:00:00 PM 11.75 53.15 0.084 7.11 4.24 10.6
5/4/2022 1:15:00 PM 11.85 53.33 0.085 7.02 4.46 10.61
5/4/2022 1:30:00 PM 11.93 53.474 0.085 7.13 4.34 10.62
5/4/2022 1:45:00 PM 11.97 53.546 0.087 7.17 3.25 10.63
5/4/2022 2:00:00 PM 12.17 53.906 0.087 7.19 3.21 10.62
5/4/2022 2:15:00 PM 12.42 54.356 0.083 7.14 4.16 10.62
5/4/2022 2:30:00 PM 12.47 54.446 0.085 7.14 4.19 10.6
5/4/2022 2:45:00 PM 12.53 54.554 0.085 7.14 4.35 10.57
5/4/2022 3:00:00 PM 12.67 54.806 0.083 7.15 4.13 10.57
5/4/2022 3:15:00 PM 12.64 54.752 0.085 7.16 4.24 10.51
5/4/2022 3:30:00 PM 12.6 54.68 0.085 7.15 4.87 10.49
5/4/2022 3:45:00 PM 12.64 54.752 0.087 7.19 3.18 10.5
5/4/2022 4:00:00 PM 12.64 54.752 0.085 7.14 4.26 10.47
5/4/2022 4:15:00 PM 12.6 54.68 0.087 7.19 3.2 10.4
5/4/2022 4:30:00 PM 12.61 54.698 0.085 7.13 4.07 10.37
5/4/2022 4:45:00 PM 12.62 54.716 0.086 7.18 3.27 10.35
5/4/2022 5:00:00 PM 12.62 54.716 0.087 7.1 3.11 10.35
5/4/2022 5:15:00 PM 12.61 54.698 0.083 7.14 4.18 10.32
5/4/2022 5:30:00 PM 12.56 54.608 0.086 7.16 3.27 10.28
5/4/2022 5:45:00 PM 12.52 54.536 0.086 7.15 3.11 10.26
5/4/2022 6:00:00 PM 12.48 54.464 0.086 7.15 3.16 10.21
5/4/2022 6:15:00 PM 12.45 54.41 0.086 7.14 3.14 10.19
5/4/2022 6:30:00 PM 12.43 54.374 0.086 7.14 3.09 10.17
5/4/2022 6:45:00 PM 12.41 54.338 0.086 7.13 3.2 10.14
5/4/2022 7:00:00 PM 12.4 54.32 0.086 7.12 3.17 10.1
5/4/2022 7:15:00 PM 12.39 54.302 0.085 7.11 3.18 10.07
5/4/2022 7:30:00 PM 12.38 54.284 0.085 7.1 3.19 10.03
5/4/2022 7:45:00 PM 12.37 54.266 0.085 7.09 3.3 9.99
5/4/2022 8:00:00 PM 12.36 54.248 0.085 7.08 3.16 9.95
5/4/2022 8:15:00 PM 12.33 54.194 0.085 7.07 3.29 9.92
5/4/2022 8:30:00 PM 12.3 54.14 0.085 7.06 3.11 9.9
5/4/2022 8:45:00 PM 12.27 54.086 0.085 7.06 3.19 9.88
5/4/2022 9:00:00 PM 12.24 54.032 0.085 7.05 3.4 9.87
5/4/2022 9:15:00 PM 12.21 53.978 0.085 7.05 3.25 9.86
5/4/2022 9:30:00 PM 12.18 53.924 0.085 7.04 3.27 9.85
5/4/2022 9:45:00 PM 12.15 53.87 0.085 7.04 3.35 9.85
5/4/2022 10:00:00 PM 12.11 53.798 0.085 7.03 3.24 9.84
5/4/2022 10:15:00 PM 12.08 53.744 0.085 7.03 3.17 9.83
5/4/2022 10:30:00 PM 12.04 53.672 0.084 7.02 3.23 9.83
5/4/2022 10:45:00 PM 12.01 53.618 0.084 7.02 3.26 9.82
5/4/2022 11:00:00 PM 11.97 53.546 0.084 7.02 3.32 9.82
5/4/2022 11:15:00 PM 11.94 53.492 0.084 7.01 3.16 9.82
5/4/2022 11:30:00 PM 11.9 53.42 0.084 7.01 3.15 9.82
5/4/2022 11:45:00 PM 11.86 53.348 0.084 7.01 3.2 9.82
5/5/2022 12:00:00 AM 11.83 53.294 0.084 7 3.28 9.82
5/5/2022 12:15:00 AM 11.79 53.222 0.084 7 3.34 9.83
5/5/2022 12:30:00 AM 11.76 53.168 0.084 6.99 3.27 9.83
5/5/2022 12:45:00 AM 11.72 53.096 0.084 7 3.27 9.84
5/5/2022 1:00:00 AM 11.68 53.024 0.084 6.99 3.33 9.85
5/5/2022 1:15:00 AM 11.63 52.934 0.084 6.99 3.31 9.86
5/5/2022 1:30:00 AM 11.59 52.862 0.084 6.99 3.3 9.87
5/5/2022 1:45:00 AM 11.54 52.772 0.084 6.99 3.35 9.88
5/5/2022 2:00:00 AM 11.48 52.664 0.084 6.99 3.27 9.9
5/5/2022 2:15:00 AM 11.4 52.52 0.084 6.99 3.3 9.91
5/5/2022 2:30:00 AM 11.35 52.43 0.084 6.99 3.3 9.91
5/5/2022 2:45:00 AM 11.3 52.34 0.083 6.98 3.31 9.93
5/5/2022 3:00:00 AM 11.25 52.25 0.083 6.98 3.21 9.94
5/5/2022 3:15:00 AM 11.21 52.178 0.083 6.99 3.22 9.95
5/5/2022 3:30:00 AM 11.13 52.034 0.084 6.98 3.3 9.97
5/5/2022 3:45:00 AM 11.1 51.98 0.084 6.97 3.1 9.97
5/5/2022 4:00:00 AM 11.02 51.836 0.084 6.98 3.46 9.99
5/5/2022 4:15:00 AM 10.95 51.71 0.084 6.98 3.33 10
5/5/2022 4:30:00 AM 10.87 51.566 0.084 6.98 3.43 10.01
5/5/2022 4:45:00 AM 10.78 51.404 0.084 6.98 3.49 10.03
5/5/2022 5:00:00 AM 10.7 51.26 0.084 6.98 3.71 10.04
5/5/2022 5:15:00 AM 10.63 51.134 0.084 6.97 3.86 10.06
5/5/2022 5:30:00 AM 10.54 50.972 0.084 6.97 3.65 10.08
5/5/2022 5:45:00 AM 10.47 50.846 0.084 6.97 3.82 10.09
5/5/2022 6:00:00 AM 10.41 50.738 0.085 6.97 3.77 10.1
5/5/2022 6:15:00 AM 10.34 50.612 0.085 6.97 3.8 10.14
5/5/2022 6:30:00 AM 10.29 50.522 0.085 6.97 3.68 10.18
5/5/2022 6:45:00 AM 10.26 50.468 0.085 6.98 3.48 10.22
5/5/2022 7:00:00 AM 10.23 50.414 0.084 6.98 3.61 10.27
5/5/2022 7:15:00 AM 10.18 50.324 0.084 6.99 3.6 10.34
5/5/2022 7:30:00 AM 10.17 50.306 0.084 7 3.55 10.39
5/5/2022 7:45:00 AM 10.17 50.306 0.084 6.94 3.6 10.45
5/5/2022 8:00:00 AM 10.18 50.324 0.084 7.01 3.49 10.5
5/5/2022 8:15:00 AM 10.22 50.396 0.084 7.01 3.55 10.55
5/5/2022 8:30:00 AM 10.26 50.468 0.084 7.04 3.27 10.6
5/5/2022 8:45:00 AM 10.34 50.612 0.084 7.05 3.23 10.63
5/5/2022 9:00:00 AM 10.45 50.81 0.084 7.06 3.32 10.69
5/5/2022 9:15:00 AM 10.56 51.008 0.084 7.07 3.26 10.7
5/5/2022 9:30:00 AM 10.71 51.278 0.084 7.08 3.29 10.73
5/5/2022 9:45:00 AM 10.83 51.494 0.084 7.09 3.42 10.77
5/5/2022 10:00:00 AM 10.98 51.764 0.084 7.09 3.42 10.77
5/5/2022 10:15:00 AM 11.13 52.034 0.084 7.04 3.41 10.77
5/5/2022 10:30:00 AM 11.38 52.484 0.084 7.11 3.33 10.8
5/5/2022 10:45:00 AM 11.58 52.844 0.084 7.13 3.32 10.79
5/5/2022 11:00:00 AM 11.81 53.258 0.084 7.14 3.25 10.78
5/5/2022 11:15:00 AM 12.03 53.654 0.08 7.09 4.07 10.78
5/5/2022 11:30:00 AM 12.35 54.23 0.084 7.15 3.32 10.76
5/5/2022 11:45:00 AM 12.6 54.68 0.084 7.16 3.2 10.74
5/5/2022 12:00:00 PM 12.94 55.292 0.082 7.12 4.02 10.7
5/5/2022 12:15:00 PM 13.17 55.706 0.084 7.18 3.12 10.68
5/5/2022 12:30:00 PM 13.37 56.066 0.084 7.19 3.1 10.65
5/5/2022 12:45:00 PM 13.55 56.39 0.084 7.19 3.21 10.62
5/5/2022 1:00:00 PM 13.72 56.696 0.082 7.15 4.21 10.59
5/5/2022 1:15:00 PM 13.91 57.038 0.084 7.2 3.36 10.55
5/5/2022 1:30:00 PM 14.06 57.308 0.084 7.21 3.25 10.53
5/5/2022 1:45:00 PM 14.26 57.668 0.084 7.21 3.14 10.5
5/5/2022 2:00:00 PM 14.43 57.974 0.082 7.16 4.25 10.46
5/5/2022 2:15:00 PM 14.6 58.28 0.084 7.22 3.28 10.44
5/5/2022 2:30:00 PM 14.75 58.55 0.084 7.23 3.17 10.4
5/5/2022 2:45:00 PM 14.86 58.748 0.084 7.24 3.25 10.36
5/5/2022 3:00:00 PM 14.99 58.982 0.084 7.24 3.19 10.32
5/5/2022 3:15:00 PM 15.11 59.198 0.084 7.24 3.24 10.28
5/5/2022 3:30:00 PM 15.22 59.396 0.084 7.25 3.19 10.27
5/5/2022 3:45:00 PM 15.28 59.504 0.084 7.25 3.23 10.21
5/5/2022 4:00:00 PM 15.37 59.666 0.084 7.25 3.11 10.2
5/5/2022 4:15:00 PM 15.38 59.684 0.081 7.19 4.04 10.15
5/5/2022 4:30:00 PM 15.42 59.756 0.084 7.26 3.15 10.12
5/5/2022 4:45:00 PM 15.4 59.72 0.084 7.21 3.18 10.11
5/5/2022 5:00:00 PM 15.38 59.684 0.084 7.17 3.19 10.07
5/5/2022 5:15:00 PM 15.37 59.666 0.081 7.22 4.02 10.04
5/5/2022 5:30:00 PM 15.32 59.576 0.082 7.19 4.19 10.02
5/5/2022 5:45:00 PM 15.31 59.558 0.085 7.25 3.27 9.99
5/5/2022 6:00:00 PM 15.28 59.504 0.084 7.25 3.35 9.96
5/5/2022 6:15:00 PM 15.27 59.486 0.084 7.24 3.33 9.91
5/5/2022 6:30:00 PM 15.25 59.45 0.084 7.24 3.3 9.86
5/5/2022 6:45:00 PM 15.22 59.396 0.084 7.24 3.21 9.81
5/5/2022 7:00:00 PM 15.19 59.342 0.084 7.22 3.27 9.76
5/5/2022 7:15:00 PM 15.13 59.234 0.084 7.22 3.15 9.67
5/5/2022 7:30:00 PM 15.1 59.18 0.085 7.2 3.28 9.6
5/5/2022 7:45:00 PM 15.04 59.072 0.085 7.15 3.3 9.53
5/5/2022 8:00:00 PM 14.98 58.964 0.085 7.16 3.24 9.46
5/5/2022 8:15:00 PM 14.91 58.838 0.085 7.14 3.4 9.4
5/5/2022 8:30:00 PM 14.84 58.712 0.085 7.14 3.37 9.34
5/5/2022 8:45:00 PM 14.78 58.604 0.085 7.13 3.35 9.31
5/5/2022 9:00:00 PM 14.71 58.478 0.085 7.11 3.38 9.28
5/5/2022 9:15:00 PM 14.63 58.334 0.085 7.11 3.4 9.26
5/5/2022 9:30:00 PM 14.56 58.208 0.086 7.11 3.47 9.24
5/5/2022 9:45:00 PM 14.47 58.046 0.085 7.1 3.53 9.22
5/5/2022 10:00:00 PM 14.39 57.902 0.086 7.11 3.46 9.21
5/5/2022 10:15:00 PM 14.32 57.776 0.086 7.11 3.58 9.2
5/5/2022 10:30:00 PM 14.23 57.614 0.086 7.11 3.37 9.2
5/5/2022 10:45:00 PM 14.15 57.47 0.086 7.1 3.36 9.2
5/5/2022 11:00:00 PM 14.06 57.308 0.086 7.1 3.39 9.2
5/5/2022 11:15:00 PM 13.97 57.146 0.086 7.11 3.35 9.19
5/5/2022 11:30:00 PM 13.87 56.966 0.086 7.12 3.43 9.2
5/5/2022 11:45:00 PM 13.77 56.786 0.086 7.07 3.42 9.21
5/6/2022 12:00:00 AM 13.67 56.606 0.086 7.13 3.38 9.2
5/6/2022 12:15:00 AM 13.56 56.408 0.086 7.15 3.52 9.22
5/6/2022 12:30:00 AM 13.46 56.228 0.086 7.12 3.44 9.23
5/6/2022 12:45:00 AM 13.36 56.048 0.087 7.12 3.34 9.24
5/6/2022 1:00:00 AM 13.27 55.886 0.087 7.14 3.39 9.25
5/6/2022 1:15:00 AM 13.18 55.724 0.087 7.15 3.52 9.27
5/6/2022 1:30:00 AM 13.09 55.562 0.087 7.16 3.55 9.29
5/6/2022 1:45:00 AM 13 55.4 0.087 7.13 3.47 9.31
5/6/2022 2:00:00 AM 12.92 55.256 0.087 7.17 3.45 9.33
5/6/2022 2:15:00 AM 12.83 55.094 0.087 7.19 3.47 9.35
5/6/2022 2:30:00 AM 12.75 54.95 0.087 7.18 3.61 9.35
5/6/2022 2:45:00 AM 12.65 54.77 0.087 7.17 3.42 9.37
5/6/2022 3:00:00 AM 12.57 54.626 0.088 7.18 4.01 9.39
5/6/2022 3:15:00 AM 12.48 54.464 0.088 7.17 3.46 9.42
5/6/2022 3:30:00 AM 12.4 54.32 0.088 7.16 3.43 9.43
5/6/2022 3:45:00 AM 12.31 54.158 0.088 7.17 3.4 9.46
5/6/2022 4:00:00 AM 12.24 54.032 0.088 7.01 3.47 9.48
5/6/2022 4:15:00 AM 12.16 53.888 0.088 7.19 3.46 9.5
5/6/2022 4:30:00 AM 12.08 53.744 0.088 7.2 3.62 9.52
5/6/2022 4:45:00 AM 12 53.6 0.088 7.18 3.63 9.53
5/6/2022 5:00:00 AM 11.92 53.456 0.088 7.17 3.48 9.55
5/6/2022 5:15:00 AM 11.85 53.33 0.088 7.18 3.44 9.57
5/6/2022 5:30:00 AM 11.78 53.204 0.088 7.18 3.42 9.59
5/6/2022 5:45:00 AM 11.72 53.096 0.089 7.16 3.58 9.6
5/6/2022 6:00:00 AM 11.65 52.97 0.089 7.17 3.73 9.63
5/6/2022 6:15:00 AM 11.59 52.862 0.089 7.1 3.61 9.65
5/6/2022 6:30:00 AM 11.53 52.754 0.089 7.12 3.47 9.69
5/6/2022 6:45:00 AM 11.48 52.664 0.089 7.1 3.46 9.72
5/6/2022 7:00:00 AM 11.42 52.556 0.089 7.19 3.65 9.78
5/6/2022 7:15:00 AM 11.37 52.466 0.089 7.22 3.47 9.81
5/6/2022 7:30:00 AM 11.34 52.412 0.089 7.2 3.57 9.84
5/6/2022 7:45:00 AM 11.29 52.322 0.089 6.99 3.41 9.88
5/6/2022 8:00:00 AM 11.25 52.25 0.09 7.21 3.54 9.93
5/6/2022 8:15:00 AM 11.23 52.214 0.09 7.21 3.49 9.98
5/6/2022 8:30:00 AM 11.2 52.16 0.089 7.21 3.23 10.04
5/6/2022 8:45:00 AM 11.18 52.124 0.089 7.2 3.43 10.11
5/6/2022 9:00:00 AM 11.17 52.106 0.09 7.2 3.49 10.17
5/6/2022 9:15:00 AM 11.18 52.124 0.09 7.21 3.49 10.23
5/6/2022 9:30:00 AM 11.18 52.124 0.09 7.21 3.39 10.29
5/6/2022 9:45:00 AM 11.16 52.088 0.09 7.23 3.38 10.31
5/6/2022 10:00:00 AM 11.16 52.088 0.09 7.25 3.4 10.35
5/6/2022 10:15:00 AM 11.17 52.106 0.09 7.24 3.3 10.39
5/6/2022 10:30:00 AM 11.2 52.16 0.09 7.25 3.25 10.44
5/6/2022 10:45:00 AM 11.22 52.196 0.09 7.25 3.11 10.47
5/6/2022 11:00:00 AM 11.24 52.232 0.09 7.26 3.3 10.51
5/6/2022 11:15:00 AM 11.26 52.268 0.09 7.26 3.15 10.54
5/6/2022 11:30:00 AM 11.3 52.34 0.09 7.26 3.17 10.58
5/6/2022 11:45:00 AM 11.33 52.394 0.09 7.27 3.13 10.62
5/6/2022 12:00:00 PM 11.37 52.466 0.09 7.28 3.06 10.64
5/6/2022 12:15:00 PM 11.39 52.502 0.091 7.27 3.15 10.65
5/6/2022 12:30:00 PM 11.42 52.556 0.091 7.27 3.26 10.67
5/6/2022 12:45:00 PM 11.43 52.574 0.091 7.26 3.22 10.67
5/6/2022 1:00:00 PM 11.45 52.61 0.091 7.13 3.06 10.67
5/6/2022 1:15:00 PM 11.47 52.646 0.09 7.23 3.25 10.67
5/6/2022 1:30:00 PM 11.51 52.718 0.091 7.24 3.07 10.68
5/6/2022 1:45:00 PM 11.56 52.808 0.091 7.24 3.18 10.7
5/6/2022 2:00:00 PM 11.61 52.898 0.091 7.23 3.2 10.71
5/6/2022 2:15:00 PM 11.65 52.97 0.091 7.23 2.9 10.71
5/6/2022 2:30:00 PM 11.7 53.06 0.091 7.23 3 10.73
5/6/2022 2:45:00 PM 11.71 53.078 0.09 7.13 3.04 10.73
5/6/2022 3:00:00 PM 11.73 53.114 0.09 7.23 3 10.71
5/6/2022 3:15:00 PM 11.75 53.15 0.09 7.24 2.96 10.7
5/6/2022 3:30:00 PM 11.75 53.15 0.09 7.23 3 10.69
5/6/2022 3:45:00 PM 11.75 53.15 0.09 7.22 3 10.66
5/6/2022 4:00:00 PM 11.74 53.132 0.089 7.2 2.87 10.65
5/6/2022 4:15:00 PM 11.75 53.15 0.089 7.14 2.92 10.64
5/6/2022 4:30:00 PM 11.75 53.15 0.09 7.13 3.01 10.63
5/6/2022 4:45:00 PM 11.75 53.15 0.089 7.12 3.01 10.61
5/6/2022 5:00:00 PM 11.76 53.168 0.089 7.18 3.01 10.61
5/6/2022 5:15:00 PM 11.78 53.204 0.089 7.18 3.05 10.6
5/6/2022 5:30:00 PM 11.79 53.222 0.089 7.18 2.97 10.58
5/6/2022 5:45:00 PM 11.78 53.204 0.089 7.18 3.16 10.55
5/6/2022 6:00:00 PM 11.78 53.204 0.088 7.18 3.11 10.52
5/6/2022 6:15:00 PM 11.78 53.204 0.088 7.15 3.1 10.5
5/6/2022 6:30:00 PM 11.78 53.204 0.088 7.17 3.29 10.47
5/6/2022 6:45:00 PM 11.76 53.168 0.088 7.17 3.16 10.43
5/6/2022 7:00:00 PM 11.73 53.114 0.088 7.16 3.1 10.39
5/6/2022 7:15:00 PM 11.71 53.078 0.084 7.1 4.15 10.35
5/6/2022 7:30:00 PM 11.69 53.042 0.088 7.12 3.28 10.3
5/6/2022 7:45:00 PM 11.66 52.988 0.087 7.09 3.12 10.26
5/6/2022 8:00:00 PM 11.64 52.952 0.087 7.11 3.17 10.21
5/6/2022 8:15:00 PM 11.61 52.898 0.087 7.1 3.44 10.17
5/6/2022 8:30:00 PM 11.59 52.862 0.087 7.09 3.93 10.13
5/6/2022 8:45:00 PM 11.56 52.808 0.087 7.08 4.04 10.1
5/6/2022 9:00:00 PM 11.54 52.772 0.087 7.07 4.28 10.07
5/6/2022 9:15:00 PM 11.51 52.718 0.087 7.06 4.17 10.05
5/6/2022 9:30:00 PM 11.48 52.664 0.087 7.03 4.26 10.04
5/6/2022 9:45:00 PM 11.45 52.61 0.087 7.05 3.99 10.02
5/6/2022 10:00:00 PM 11.42 52.556 0.087 7.05 3.99 10.01
5/6/2022 10:15:00 PM 11.39 52.502 0.087 7.04 3.71 10
5/6/2022 10:30:00 PM 11.35 52.43 0.087 7.03 3.73 9.98
5/6/2022 10:45:00 PM 11.32 52.376 0.087 7.03 3.66 9.97
5/6/2022 11:00:00 PM 11.29 52.322 0.086 7.02 3.6 9.96
5/6/2022 11:15:00 PM 11.25 52.25 0.086 6.97 3.65 9.96
5/6/2022 11:30:00 PM 11.22 52.196 0.086 7.01 3.52 9.96
5/6/2022 11:45:00 PM 11.19 52.142 0.086 6.99 3.67 9.96
5/7/2022 12:00:00 AM 11.15 52.07 0.086 7 3.77 9.96
5/7/2022 12:15:00 AM 11.12 52.016 0.086 6.98 3.75 9.95
5/7/2022 12:30:00 AM 11.08 51.944 0.086 7 3.81 9.95
5/7/2022 12:45:00 AM 11.04 51.872 0.086 7 3.81 9.96
5/7/2022 1:00:00 AM 11 51.8 0.086 7 3.75 9.97
5/7/2022 1:15:00 AM 10.96 51.728 0.086 6.99 3.89 9.97
5/7/2022 1:30:00 AM 10.92 51.656 0.086 6.99 3.69 9.98
5/7/2022 1:45:00 AM 10.88 51.584 0.086 6.99 3.52 9.98
5/7/2022 2:00:00 AM 10.84 51.512 0.086 6.98 3.55 9.99
5/7/2022 2:15:00 AM 10.8 51.44 0.086 6.99 3.49 9.99
5/7/2022 2:30:00 AM 10.77 51.386 0.086 6.98 3.71 9.99
5/7/2022 2:45:00 AM 10.74 51.332 0.087 6.98 3.59 10
5/7/2022 3:00:00 AM 10.7 51.26 0.087 6.98 3.56 10
5/7/2022 3:15:00 AM 10.66 51.188 0.086 6.98 3.58 10.01
5/7/2022 3:30:00 AM 10.63 51.134 0.086 6.98 3.53 10.01
5/7/2022 3:45:00 AM 10.59 51.062 0.086 6.98 3.61 10.02
5/7/2022 4:00:00 AM 10.55 50.99 0.086 6.96 3.69 10.02
5/7/2022 4:15:00 AM 10.51 50.918 0.086 6.94 3.66 10.04
5/7/2022 4:30:00 AM 10.46 50.828 0.086 6.98 3.8 10.05
5/7/2022 4:45:00 AM 10.41 50.738 0.086 6.98 3.65 10.06
5/7/2022 5:00:00 AM 10.36 50.648 0.087 6.98 3.8 10.07
5/7/2022 5:15:00 AM 10.32 50.576 0.087 6.98 3.73 10.08
5/7/2022 5:30:00 AM 10.26 50.468 0.087 6.98 3.73 10.08
5/7/2022 5:45:00 AM 10.22 50.396 0.087 6.94 3.98 10.09
5/7/2022 6:00:00 AM 10.17 50.306 0.087 6.98 4.27 10.1
5/7/2022 6:15:00 AM 10.15 50.27 0.087 6.99 4.18 10.12
5/7/2022 6:30:00 AM 10.11 50.198 0.087 6.99 3.98 10.14
5/7/2022 6:45:00 AM 10.08 50.144 0.087 6.99 3.82 10.18
5/7/2022 7:00:00 AM 10.05 50.09 0.087 7 3.84 10.23
5/7/2022 7:15:00 AM 10.02 50.036 0.087 7.01 3.67 10.29
5/7/2022 7:30:00 AM 9.99 49.982 0.087 7.02 3.66 10.33
5/7/2022 7:45:00 AM 9.98 49.964 0.087 7.02 3.78 10.39
5/7/2022 8:00:00 AM 9.95 49.91 0.087 7.03 3.76 10.44
5/7/2022 8:15:00 AM 9.95 49.91 0.087 7.05 3.69 10.5
5/7/2022 8:30:00 AM 9.94 49.892 0.087 7.05 4.03 10.55
5/7/2022 8:45:00 AM 9.95 49.91 0.087 7.06 3.89 10.6
5/7/2022 9:00:00 AM 9.95 49.91 0.087 7.07 3.7 10.64
5/7/2022 9:15:00 AM 9.93 49.874 0.087 7.08 3.81 10.68
5/7/2022 9:30:00 AM 9.96 49.928 0.087 7.09 3.66 10.73
5/7/2022 9:45:00 AM 9.98 49.964 0.087 7.1 3.47 10.77
5/7/2022 10:00:00 AM 10.02 50.036 0.087 7.11 3.36 10.8
5/7/2022 10:15:00 AM 10.04 50.072 0.087 7.12 3.42